<?xml version="1.0" encoding="UTF-8" standalone="no" ?>
<gpx xmlns="http://www.topografix.com/GPX/1/1" xmlns:xsi="http://www.w3.org/2001/XMLSchema-instance" xsi:schemaLocation="http://www.topografix.com/GPX/1/1 http://www.topografix.com/GPX/1/1/gpx.xsd" version="1.1" creator="VisuGPX - https://www.visugpx.com">
  <metadata>
    <name>Le Lauvet au départ des Faures (Valjouffrey 38740) 2020-05-26 </name>
    <desc><![CDATA[

Belle journée pour cette randonnée dans le Valjouffrey 
Chemins très peu fréquentés autour du torrent du Malentraz
Le chemin de montée longeant le torrent est peu marqué, il faut mettre souvent les pieds dans l'eau (du km1 au km3)
Montée raide vers le Lauvet
Chemin de retour beaucoup plus agréable par Côte Belle]]></desc>
  </metadata>
  <trk>
    <name><![CDATA[2020-05-26 19:54:52]]></name>
    <trkseg>
      <trkpt lat="44.86043" lon="6.04759">
        <ele>1058.55</ele>
        <time>2020-05-26T07:27:39Z</time>
      </trkpt>
      <trkpt lat="44.86046" lon="6.04753">
        <ele>1058.55</ele>
        <time>2020-05-26T07:27:43Z</time>
      </trkpt>
      <trkpt lat="44.86068" lon="6.0471">
        <ele>1059.99</ele>
        <time>2020-05-26T07:28:14Z</time>
      </trkpt>
      <trkpt lat="44.86069" lon="6.04698">
        <ele>1060.95</ele>
        <time>2020-05-26T07:28:21Z</time>
      </trkpt>
      <trkpt lat="44.86066" lon="6.04689">
        <ele>1060.95</ele>
        <time>2020-05-26T07:28:27Z</time>
      </trkpt>
      <trkpt lat="44.86062" lon="6.04685">
        <ele>1062.39</ele>
        <time>2020-05-26T07:28:32Z</time>
      </trkpt>
      <trkpt lat="44.86062" lon="6.0468">
        <ele>1062.39</ele>
        <time>2020-05-26T07:28:47Z</time>
      </trkpt>
      <trkpt lat="44.86058" lon="6.04676">
        <ele>1062.87</ele>
        <time>2020-05-26T07:28:55Z</time>
      </trkpt>
      <trkpt lat="44.86045" lon="6.0466">
        <ele>1065.28</ele>
        <time>2020-05-26T07:29:14Z</time>
      </trkpt>
      <trkpt lat="44.86038" lon="6.04646">
        <ele>1066.72</ele>
        <time>2020-05-26T07:29:29Z</time>
      </trkpt>
      <trkpt lat="44.86036" lon="6.04648">
        <ele>1067.2</ele>
        <time>2020-05-26T07:29:40Z</time>
      </trkpt>
      <trkpt lat="44.86033" lon="6.04634">
        <ele>1068.16</ele>
        <time>2020-05-26T07:29:56Z</time>
      </trkpt>
      <trkpt lat="44.86028" lon="6.04629">
        <ele>1070.08</ele>
        <time>2020-05-26T07:30:11Z</time>
      </trkpt>
      <trkpt lat="44.86024" lon="6.04626">
        <ele>1070.57</ele>
        <time>2020-05-26T07:30:17Z</time>
      </trkpt>
      <trkpt lat="44.86012" lon="6.04622">
        <ele>1072.01</ele>
        <time>2020-05-26T07:30:33Z</time>
      </trkpt>
      <trkpt lat="44.86002" lon="6.04627">
        <ele>1074.89</ele>
        <time>2020-05-26T07:30:48Z</time>
      </trkpt>
      <trkpt lat="44.86001" lon="6.04627">
        <ele>1074.89</ele>
        <time>2020-05-26T07:30:49Z</time>
      </trkpt>
      <trkpt lat="44.85987" lon="6.04629">
        <ele>1078.74</ele>
        <time>2020-05-26T07:31:05Z</time>
      </trkpt>
      <trkpt lat="44.85974" lon="6.04633">
        <ele>1081.14</ele>
        <time>2020-05-26T07:31:20Z</time>
      </trkpt>
      <trkpt lat="44.85962" lon="6.04634">
        <ele>1084.5</ele>
        <time>2020-05-26T07:31:35Z</time>
      </trkpt>
      <trkpt lat="44.8595" lon="6.04634">
        <ele>1086.43</ele>
        <time>2020-05-26T07:31:47Z</time>
      </trkpt>
      <trkpt lat="44.85939" lon="6.04628">
        <ele>1089.31</ele>
        <time>2020-05-26T07:32:02Z</time>
      </trkpt>
      <trkpt lat="44.85928" lon="6.04622">
        <ele>1092.68</ele>
        <time>2020-05-26T07:32:20Z</time>
      </trkpt>
      <trkpt lat="44.85921" lon="6.04619">
        <ele>1095.08</ele>
        <time>2020-05-26T07:32:34Z</time>
      </trkpt>
      <trkpt lat="44.85908" lon="6.04608">
        <ele>1097.48</ele>
        <time>2020-05-26T07:32:49Z</time>
      </trkpt>
      <trkpt lat="44.85902" lon="6.04613">
        <ele>1098.92</ele>
        <time>2020-05-26T07:33:05Z</time>
      </trkpt>
      <trkpt lat="44.85896" lon="6.04611">
        <ele>1100.37</ele>
        <time>2020-05-26T07:33:18Z</time>
      </trkpt>
      <trkpt lat="44.8589" lon="6.04608">
        <ele>1103.73</ele>
        <time>2020-05-26T07:33:31Z</time>
      </trkpt>
      <trkpt lat="44.85881" lon="6.04599">
        <ele>1107.1</ele>
        <time>2020-05-26T07:33:48Z</time>
      </trkpt>
      <trkpt lat="44.85874" lon="6.04593">
        <ele>1109.5</ele>
        <time>2020-05-26T07:34:03Z</time>
      </trkpt>
      <trkpt lat="44.8587" lon="6.04589">
        <ele>1113.34</ele>
        <time>2020-05-26T07:34:18Z</time>
      </trkpt>
      <trkpt lat="44.8586" lon="6.04584">
        <ele>1116.23</ele>
        <time>2020-05-26T07:34:34Z</time>
      </trkpt>
      <trkpt lat="44.85852" lon="6.04573">
        <ele>1120.07</ele>
        <time>2020-05-26T07:34:52Z</time>
      </trkpt>
      <trkpt lat="44.85844" lon="6.04559">
        <ele>1122.96</ele>
        <time>2020-05-26T07:35:08Z</time>
      </trkpt>
      <trkpt lat="44.8584" lon="6.04544">
        <ele>1125.36</ele>
        <time>2020-05-26T07:35:25Z</time>
      </trkpt>
      <trkpt lat="44.85846" lon="6.04526">
        <ele>1125.84</ele>
        <time>2020-05-26T07:35:41Z</time>
      </trkpt>
      <trkpt lat="44.85848" lon="6.04525">
        <ele>1125.36</ele>
        <time>2020-05-26T07:35:53Z</time>
      </trkpt>
      <trkpt lat="44.85847" lon="6.04529">
        <ele>1128.24</ele>
        <time>2020-05-26T07:36:07Z</time>
      </trkpt>
      <trkpt lat="44.85843" lon="6.04535">
        <ele>1131.61</ele>
        <time>2020-05-26T07:36:20Z</time>
      </trkpt>
      <trkpt lat="44.85836" lon="6.04542">
        <ele>1134.49</ele>
        <time>2020-05-26T07:36:34Z</time>
      </trkpt>
      <trkpt lat="44.85833" lon="6.04546">
        <ele>1135.94</ele>
        <time>2020-05-26T07:36:50Z</time>
      </trkpt>
      <trkpt lat="44.85832" lon="6.04552">
        <ele>1139.3</ele>
        <time>2020-05-26T07:37:05Z</time>
      </trkpt>
      <trkpt lat="44.85828" lon="6.04556">
        <ele>1142.66</ele>
        <time>2020-05-26T07:37:20Z</time>
      </trkpt>
      <trkpt lat="44.85822" lon="6.04554">
        <ele>1144.59</ele>
        <time>2020-05-26T07:37:32Z</time>
      </trkpt>
      <trkpt lat="44.85806" lon="6.04546">
        <ele>1147.95</ele>
        <time>2020-05-26T07:37:50Z</time>
      </trkpt>
      <trkpt lat="44.85803" lon="6.04537">
        <ele>1150.84</ele>
        <time>2020-05-26T07:38:04Z</time>
      </trkpt>
      <trkpt lat="44.85795" lon="6.04526">
        <ele>1154.2</ele>
        <time>2020-05-26T07:38:22Z</time>
      </trkpt>
      <trkpt lat="44.8579" lon="6.04522">
        <ele>1157.56</ele>
        <time>2020-05-26T07:38:39Z</time>
      </trkpt>
      <trkpt lat="44.85786" lon="6.04518">
        <ele>1160.45</ele>
        <time>2020-05-26T07:38:55Z</time>
      </trkpt>
      <trkpt lat="44.85784" lon="6.04518">
        <ele>1163.33</ele>
        <time>2020-05-26T07:39:08Z</time>
      </trkpt>
      <trkpt lat="44.85775" lon="6.0452">
        <ele>1166.7</ele>
        <time>2020-05-26T07:39:25Z</time>
      </trkpt>
      <trkpt lat="44.85764" lon="6.04518">
        <ele>1169.1</ele>
        <time>2020-05-26T07:39:46Z</time>
      </trkpt>
      <trkpt lat="44.85753" lon="6.04504">
        <ele>1171.98</ele>
        <time>2020-05-26T07:40:05Z</time>
      </trkpt>
      <trkpt lat="44.85745" lon="6.04501">
        <ele>1175.83</ele>
        <time>2020-05-26T07:40:24Z</time>
      </trkpt>
      <trkpt lat="44.85741" lon="6.04492">
        <ele>1178.71</ele>
        <time>2020-05-26T07:40:41Z</time>
      </trkpt>
      <trkpt lat="44.85734" lon="6.04495">
        <ele>1181.6</ele>
        <time>2020-05-26T07:40:58Z</time>
      </trkpt>
      <trkpt lat="44.85727" lon="6.04501">
        <ele>1184.48</ele>
        <time>2020-05-26T07:41:16Z</time>
      </trkpt>
      <trkpt lat="44.85724" lon="6.04503">
        <ele>1187.85</ele>
        <time>2020-05-26T07:41:30Z</time>
      </trkpt>
      <trkpt lat="44.85718" lon="6.04503">
        <ele>1190.73</ele>
        <time>2020-05-26T07:41:47Z</time>
      </trkpt>
      <trkpt lat="44.85723" lon="6.04502">
        <ele>1193.13</ele>
        <time>2020-05-26T07:42:03Z</time>
      </trkpt>
      <trkpt lat="44.85721" lon="6.04515">
        <ele>1196.5</ele>
        <time>2020-05-26T07:42:20Z</time>
      </trkpt>
      <trkpt lat="44.85711" lon="6.04523">
        <ele>1199.86</ele>
        <time>2020-05-26T07:42:36Z</time>
      </trkpt>
      <trkpt lat="44.85703" lon="6.04529">
        <ele>1203.23</ele>
        <time>2020-05-26T07:42:52Z</time>
      </trkpt>
      <trkpt lat="44.857" lon="6.04533">
        <ele>1206.59</ele>
        <time>2020-05-26T07:43:10Z</time>
      </trkpt>
      <trkpt lat="44.85697" lon="6.04549">
        <ele>1209.96</ele>
        <time>2020-05-26T07:43:29Z</time>
      </trkpt>
      <trkpt lat="44.8569" lon="6.04557">
        <ele>1211.4</ele>
        <time>2020-05-26T07:43:44Z</time>
      </trkpt>
      <trkpt lat="44.8568" lon="6.04559">
        <ele>1214.28</ele>
        <time>2020-05-26T07:44:00Z</time>
      </trkpt>
      <trkpt lat="44.85676" lon="6.04564">
        <ele>1217.65</ele>
        <time>2020-05-26T07:44:17Z</time>
      </trkpt>
      <trkpt lat="44.85669" lon="6.04567">
        <ele>1220.53</ele>
        <time>2020-05-26T07:44:33Z</time>
      </trkpt>
      <trkpt lat="44.85662" lon="6.04567">
        <ele>1224.38</ele>
        <time>2020-05-26T07:44:49Z</time>
      </trkpt>
      <trkpt lat="44.85655" lon="6.04571">
        <ele>1227.26</ele>
        <time>2020-05-26T07:45:05Z</time>
      </trkpt>
      <trkpt lat="44.8565" lon="6.04577">
        <ele>1230.62</ele>
        <time>2020-05-26T07:45:25Z</time>
      </trkpt>
      <trkpt lat="44.85638" lon="6.04584">
        <ele>1233.51</ele>
        <time>2020-05-26T07:45:39Z</time>
      </trkpt>
      <trkpt lat="44.85626" lon="6.04586">
        <ele>1236.87</ele>
        <time>2020-05-26T07:45:55Z</time>
      </trkpt>
      <trkpt lat="44.85615" lon="6.04591">
        <ele>1239.76</ele>
        <time>2020-05-26T07:46:14Z</time>
      </trkpt>
      <trkpt lat="44.85602" lon="6.04594">
        <ele>1243.12</ele>
        <time>2020-05-26T07:46:31Z</time>
      </trkpt>
      <trkpt lat="44.85585" lon="6.04597">
        <ele>1246.01</ele>
        <time>2020-05-26T07:46:48Z</time>
      </trkpt>
      <trkpt lat="44.8558" lon="6.046">
        <ele>1246.49</ele>
        <time>2020-05-26T07:46:54Z</time>
      </trkpt>
      <trkpt lat="44.85562" lon="6.04598">
        <ele>1248.89</ele>
        <time>2020-05-26T07:47:16Z</time>
      </trkpt>
      <trkpt lat="44.85547" lon="6.04593">
        <ele>1251.77</ele>
        <time>2020-05-26T07:47:34Z</time>
      </trkpt>
      <trkpt lat="44.8553" lon="6.04586">
        <ele>1253.22</ele>
        <time>2020-05-26T07:47:54Z</time>
      </trkpt>
      <trkpt lat="44.85501" lon="6.04583">
        <ele>1255.62</ele>
        <time>2020-05-26T07:48:14Z</time>
      </trkpt>
      <trkpt lat="44.85486" lon="6.04579">
        <ele>1257.06</ele>
        <time>2020-05-26T07:48:31Z</time>
      </trkpt>
      <trkpt lat="44.85465" lon="6.04583">
        <ele>1258.02</ele>
        <time>2020-05-26T07:48:48Z</time>
      </trkpt>
      <trkpt lat="44.85461" lon="6.04577">
        <ele>1259.46</ele>
        <time>2020-05-26T07:49:02Z</time>
      </trkpt>
      <trkpt lat="44.85462" lon="6.04577">
        <ele>1259.46</ele>
        <time>2020-05-26T07:49:05Z</time>
      </trkpt>
      <trkpt lat="44.85447" lon="6.04569">
        <ele>1259.46</ele>
        <time>2020-05-26T07:49:22Z</time>
      </trkpt>
      <trkpt lat="44.85435" lon="6.04571">
        <ele>1261.39</ele>
        <time>2020-05-26T07:49:36Z</time>
      </trkpt>
      <trkpt lat="44.85432" lon="6.04572">
        <ele>1262.83</ele>
        <time>2020-05-26T07:50:00Z</time>
      </trkpt>
      <trkpt lat="44.85424" lon="6.04569">
        <ele>1265.71</ele>
        <time>2020-05-26T07:50:15Z</time>
      </trkpt>
      <trkpt lat="44.85415" lon="6.04569">
        <ele>1269.08</ele>
        <time>2020-05-26T07:50:29Z</time>
      </trkpt>
      <trkpt lat="44.85408" lon="6.04568">
        <ele>1272.44</ele>
        <time>2020-05-26T07:50:44Z</time>
      </trkpt>
      <trkpt lat="44.85402" lon="6.04565">
        <ele>1275.33</ele>
        <time>2020-05-26T07:50:59Z</time>
      </trkpt>
      <trkpt lat="44.85393" lon="6.04562">
        <ele>1278.21</ele>
        <time>2020-05-26T07:51:15Z</time>
      </trkpt>
      <trkpt lat="44.85386" lon="6.04559">
        <ele>1281.57</ele>
        <time>2020-05-26T07:51:31Z</time>
      </trkpt>
      <trkpt lat="44.85375" lon="6.04562">
        <ele>1284.46</ele>
        <time>2020-05-26T07:51:47Z</time>
      </trkpt>
      <trkpt lat="44.85369" lon="6.04563">
        <ele>1288.3</ele>
        <time>2020-05-26T07:52:02Z</time>
      </trkpt>
      <trkpt lat="44.85362" lon="6.0456">
        <ele>1291.19</ele>
        <time>2020-05-26T07:52:22Z</time>
      </trkpt>
      <trkpt lat="44.85357" lon="6.04559">
        <ele>1294.07</ele>
        <time>2020-05-26T07:52:37Z</time>
      </trkpt>
      <trkpt lat="44.85343" lon="6.04561">
        <ele>1296.48</ele>
        <time>2020-05-26T07:52:52Z</time>
      </trkpt>
      <trkpt lat="44.85334" lon="6.04564">
        <ele>1299.84</ele>
        <time>2020-05-26T07:53:09Z</time>
      </trkpt>
      <trkpt lat="44.85321" lon="6.04567">
        <ele>1302.72</ele>
        <time>2020-05-26T07:53:21Z</time>
      </trkpt>
      <trkpt lat="44.85309" lon="6.04571">
        <ele>1305.61</ele>
        <time>2020-05-26T07:53:36Z</time>
      </trkpt>
      <trkpt lat="44.853" lon="6.04572">
        <ele>1308.49</ele>
        <time>2020-05-26T07:53:49Z</time>
      </trkpt>
      <trkpt lat="44.85294" lon="6.04572">
        <ele>1310.41</ele>
        <time>2020-05-26T07:54:02Z</time>
      </trkpt>
      <trkpt lat="44.85287" lon="6.04575">
        <ele>1313.3</ele>
        <time>2020-05-26T07:54:16Z</time>
      </trkpt>
      <trkpt lat="44.85274" lon="6.04576">
        <ele>1315.7</ele>
        <time>2020-05-26T07:54:30Z</time>
      </trkpt>
      <trkpt lat="44.85263" lon="6.04576">
        <ele>1318.1</ele>
        <time>2020-05-26T07:54:44Z</time>
      </trkpt>
      <trkpt lat="44.85254" lon="6.04578">
        <ele>1320.03</ele>
        <time>2020-05-26T07:54:57Z</time>
      </trkpt>
      <trkpt lat="44.85241" lon="6.04582">
        <ele>1322.91</ele>
        <time>2020-05-26T07:55:14Z</time>
      </trkpt>
      <trkpt lat="44.85232" lon="6.04583">
        <ele>1325.8</ele>
        <time>2020-05-26T07:55:27Z</time>
      </trkpt>
      <trkpt lat="44.85227" lon="6.04581">
        <ele>1328.2</ele>
        <time>2020-05-26T07:55:41Z</time>
      </trkpt>
      <trkpt lat="44.85223" lon="6.04576">
        <ele>1330.6</ele>
        <time>2020-05-26T07:55:55Z</time>
      </trkpt>
      <trkpt lat="44.85215" lon="6.0456">
        <ele>1330.6</ele>
        <time>2020-05-26T07:56:12Z</time>
      </trkpt>
      <trkpt lat="44.85216" lon="6.0456">
        <ele>1329.16</ele>
        <time>2020-05-26T07:56:17Z</time>
      </trkpt>
      <trkpt lat="44.85211" lon="6.0456">
        <ele>1329.64</ele>
        <time>2020-05-26T07:56:47Z</time>
      </trkpt>
      <trkpt lat="44.85209" lon="6.04563">
        <ele>1331.08</ele>
        <time>2020-05-26T07:56:55Z</time>
      </trkpt>
      <trkpt lat="44.85199" lon="6.04565">
        <ele>1332.52</ele>
        <time>2020-05-26T07:57:09Z</time>
      </trkpt>
      <trkpt lat="44.8519" lon="6.04568">
        <ele>1334.45</ele>
        <time>2020-05-26T07:57:23Z</time>
      </trkpt>
      <trkpt lat="44.8518" lon="6.04567">
        <ele>1336.37</ele>
        <time>2020-05-26T07:57:38Z</time>
      </trkpt>
      <trkpt lat="44.85173" lon="6.04566">
        <ele>1338.29</ele>
        <time>2020-05-26T07:57:55Z</time>
      </trkpt>
      <trkpt lat="44.85171" lon="6.04554">
        <ele>1338.29</ele>
        <time>2020-05-26T07:58:15Z</time>
      </trkpt>
      <trkpt lat="44.85163" lon="6.04553">
        <ele>1339.73</ele>
        <time>2020-05-26T07:58:32Z</time>
      </trkpt>
      <trkpt lat="44.85155" lon="6.0456">
        <ele>1342.62</ele>
        <time>2020-05-26T07:58:49Z</time>
      </trkpt>
      <trkpt lat="44.85147" lon="6.04564">
        <ele>1345.02</ele>
        <time>2020-05-26T07:59:05Z</time>
      </trkpt>
      <trkpt lat="44.85137" lon="6.04576">
        <ele>1348.39</ele>
        <time>2020-05-26T07:59:20Z</time>
      </trkpt>
      <trkpt lat="44.85131" lon="6.04587">
        <ele>1349.83</ele>
        <time>2020-05-26T07:59:32Z</time>
      </trkpt>
      <trkpt lat="44.85124" lon="6.04584">
        <ele>1352.71</ele>
        <time>2020-05-26T07:59:50Z</time>
      </trkpt>
      <trkpt lat="44.85113" lon="6.04581">
        <ele>1355.6</ele>
        <time>2020-05-26T08:00:07Z</time>
      </trkpt>
      <trkpt lat="44.85103" lon="6.04581">
        <ele>1358.48</ele>
        <time>2020-05-26T08:00:23Z</time>
      </trkpt>
      <trkpt lat="44.85096" lon="6.04581">
        <ele>1361.84</ele>
        <time>2020-05-26T08:00:39Z</time>
      </trkpt>
      <trkpt lat="44.8509" lon="6.04583">
        <ele>1364.25</ele>
        <time>2020-05-26T08:00:55Z</time>
      </trkpt>
      <trkpt lat="44.85081" lon="6.04589">
        <ele>1366.65</ele>
        <time>2020-05-26T08:01:10Z</time>
      </trkpt>
      <trkpt lat="44.85075" lon="6.04589">
        <ele>1369.05</ele>
        <time>2020-05-26T08:01:24Z</time>
      </trkpt>
      <trkpt lat="44.85067" lon="6.04591">
        <ele>1370.98</ele>
        <time>2020-05-26T08:01:38Z</time>
      </trkpt>
      <trkpt lat="44.85064" lon="6.04595">
        <ele>1372.42</ele>
        <time>2020-05-26T08:01:49Z</time>
      </trkpt>
      <trkpt lat="44.85055" lon="6.04598">
        <ele>1374.34</ele>
        <time>2020-05-26T08:02:03Z</time>
      </trkpt>
      <trkpt lat="44.85049" lon="6.046">
        <ele>1377.23</ele>
        <time>2020-05-26T08:02:19Z</time>
      </trkpt>
      <trkpt lat="44.85044" lon="6.046">
        <ele>1378.67</ele>
        <time>2020-05-26T08:02:30Z</time>
      </trkpt>
      <trkpt lat="44.85038" lon="6.04603">
        <ele>1380.59</ele>
        <time>2020-05-26T08:02:42Z</time>
      </trkpt>
      <trkpt lat="44.8503" lon="6.04603">
        <ele>1383.47</ele>
        <time>2020-05-26T08:02:57Z</time>
      </trkpt>
      <trkpt lat="44.85024" lon="6.04605">
        <ele>1385.4</ele>
        <time>2020-05-26T08:03:11Z</time>
      </trkpt>
      <trkpt lat="44.85017" lon="6.04605">
        <ele>1387.32</ele>
        <time>2020-05-26T08:03:23Z</time>
      </trkpt>
      <trkpt lat="44.8501" lon="6.04607">
        <ele>1390.2</ele>
        <time>2020-05-26T08:03:40Z</time>
      </trkpt>
      <trkpt lat="44.85001" lon="6.04609">
        <ele>1392.13</ele>
        <time>2020-05-26T08:03:56Z</time>
      </trkpt>
      <trkpt lat="44.84995" lon="6.04608">
        <ele>1393.57</ele>
        <time>2020-05-26T08:04:09Z</time>
      </trkpt>
      <trkpt lat="44.84992" lon="6.04608">
        <ele>1395.97</ele>
        <time>2020-05-26T08:04:23Z</time>
      </trkpt>
      <trkpt lat="44.84993" lon="6.04608">
        <ele>1396.93</ele>
        <time>2020-05-26T08:04:41Z</time>
      </trkpt>
      <trkpt lat="44.84993" lon="6.04605">
        <ele>1397.89</ele>
        <time>2020-05-26T08:05:01Z</time>
      </trkpt>
      <trkpt lat="44.84987" lon="6.0461">
        <ele>1398.86</ele>
        <time>2020-05-26T08:05:20Z</time>
      </trkpt>
      <trkpt lat="44.84975" lon="6.04613">
        <ele>1400.3</ele>
        <time>2020-05-26T08:05:32Z</time>
      </trkpt>
      <trkpt lat="44.84964" lon="6.04624">
        <ele>1403.66</ele>
        <time>2020-05-26T08:05:47Z</time>
      </trkpt>
      <trkpt lat="44.84959" lon="6.04623">
        <ele>1404.14</ele>
        <time>2020-05-26T08:06:03Z</time>
      </trkpt>
      <trkpt lat="44.84961" lon="6.04626">
        <ele>1404.62</ele>
        <time>2020-05-26T08:06:34Z</time>
      </trkpt>
      <trkpt lat="44.84958" lon="6.04633">
        <ele>1404.62</ele>
        <time>2020-05-26T08:07:05Z</time>
      </trkpt>
      <trkpt lat="44.84962" lon="6.04627">
        <ele>1405.1</ele>
        <time>2020-05-26T08:07:29Z</time>
      </trkpt>
      <trkpt lat="44.84957" lon="6.04625">
        <ele>1405.1</ele>
        <time>2020-05-26T08:08:06Z</time>
      </trkpt>
      <trkpt lat="44.84952" lon="6.04615">
        <ele>1404.62</ele>
        <time>2020-05-26T08:08:27Z</time>
      </trkpt>
      <trkpt lat="44.84951" lon="6.0461">
        <ele>1405.1</ele>
        <time>2020-05-26T08:08:49Z</time>
      </trkpt>
      <trkpt lat="44.8495" lon="6.0461">
        <ele>1406.55</ele>
        <time>2020-05-26T08:08:55Z</time>
      </trkpt>
      <trkpt lat="44.84952" lon="6.04608">
        <ele>1406.55</ele>
        <time>2020-05-26T08:09:12Z</time>
      </trkpt>
      <trkpt lat="44.84953" lon="6.04608">
        <ele>1407.03</ele>
        <time>2020-05-26T08:09:37Z</time>
      </trkpt>
      <trkpt lat="44.8495" lon="6.04616">
        <ele>1407.51</ele>
        <time>2020-05-26T08:09:53Z</time>
      </trkpt>
      <trkpt lat="44.84945" lon="6.04625">
        <ele>1407.99</ele>
        <time>2020-05-26T08:10:07Z</time>
      </trkpt>
      <trkpt lat="44.8494" lon="6.0463">
        <ele>1411.35</ele>
        <time>2020-05-26T08:10:23Z</time>
      </trkpt>
      <trkpt lat="44.84935" lon="6.04634">
        <ele>1412.79</ele>
        <time>2020-05-26T08:10:38Z</time>
      </trkpt>
      <trkpt lat="44.84931" lon="6.04637">
        <ele>1414.72</ele>
        <time>2020-05-26T08:10:51Z</time>
      </trkpt>
      <trkpt lat="44.84924" lon="6.04644">
        <ele>1417.12</ele>
        <time>2020-05-26T08:11:06Z</time>
      </trkpt>
      <trkpt lat="44.84916" lon="6.04654">
        <ele>1419.52</ele>
        <time>2020-05-26T08:11:21Z</time>
      </trkpt>
      <trkpt lat="44.84909" lon="6.04657">
        <ele>1421.93</ele>
        <time>2020-05-26T08:11:36Z</time>
      </trkpt>
      <trkpt lat="44.849" lon="6.0466">
        <ele>1423.85</ele>
        <time>2020-05-26T08:11:53Z</time>
      </trkpt>
      <trkpt lat="44.84896" lon="6.04664">
        <ele>1426.25</ele>
        <time>2020-05-26T08:12:09Z</time>
      </trkpt>
      <trkpt lat="44.8489" lon="6.04666">
        <ele>1429.62</ele>
        <time>2020-05-26T08:12:28Z</time>
      </trkpt>
      <trkpt lat="44.84886" lon="6.04672">
        <ele>1431.54</ele>
        <time>2020-05-26T08:12:42Z</time>
      </trkpt>
      <trkpt lat="44.84887" lon="6.04673">
        <ele>1432.02</ele>
        <time>2020-05-26T08:13:01Z</time>
      </trkpt>
      <trkpt lat="44.84885" lon="6.04675">
        <ele>1432.98</ele>
        <time>2020-05-26T08:13:16Z</time>
      </trkpt>
      <trkpt lat="44.84878" lon="6.04674">
        <ele>1434.42</ele>
        <time>2020-05-26T08:13:36Z</time>
      </trkpt>
      <trkpt lat="44.84867" lon="6.04675">
        <ele>1437.79</ele>
        <time>2020-05-26T08:13:50Z</time>
      </trkpt>
      <trkpt lat="44.84858" lon="6.04677">
        <ele>1439.71</ele>
        <time>2020-05-26T08:14:03Z</time>
      </trkpt>
      <trkpt lat="44.84854" lon="6.04674">
        <ele>1441.63</ele>
        <time>2020-05-26T08:14:17Z</time>
      </trkpt>
      <trkpt lat="44.84844" lon="6.04674">
        <ele>1443.56</ele>
        <time>2020-05-26T08:14:31Z</time>
      </trkpt>
      <trkpt lat="44.8484" lon="6.0467">
        <ele>1444.04</ele>
        <time>2020-05-26T08:14:44Z</time>
      </trkpt>
      <trkpt lat="44.84837" lon="6.04664">
        <ele>1444.52</ele>
        <time>2020-05-26T08:15:01Z</time>
      </trkpt>
      <trkpt lat="44.84836" lon="6.04664">
        <ele>1444.52</ele>
        <time>2020-05-26T08:15:16Z</time>
      </trkpt>
      <trkpt lat="44.84838" lon="6.04667">
        <ele>1444.52</ele>
        <time>2020-05-26T08:15:39Z</time>
      </trkpt>
      <trkpt lat="44.84835" lon="6.0467">
        <ele>1445</ele>
        <time>2020-05-26T08:16:03Z</time>
      </trkpt>
      <trkpt lat="44.84828" lon="6.04671">
        <ele>1446.92</ele>
        <time>2020-05-26T08:16:18Z</time>
      </trkpt>
      <trkpt lat="44.84822" lon="6.0467">
        <ele>1448.36</ele>
        <time>2020-05-26T08:16:33Z</time>
      </trkpt>
      <trkpt lat="44.84814" lon="6.0467">
        <ele>1450.77</ele>
        <time>2020-05-26T08:16:47Z</time>
      </trkpt>
      <trkpt lat="44.84807" lon="6.04671">
        <ele>1452.69</ele>
        <time>2020-05-26T08:17:03Z</time>
      </trkpt>
      <trkpt lat="44.84798" lon="6.04671">
        <ele>1455.09</ele>
        <time>2020-05-26T08:17:17Z</time>
      </trkpt>
      <trkpt lat="44.8479" lon="6.04672">
        <ele>1457.98</ele>
        <time>2020-05-26T08:17:33Z</time>
      </trkpt>
      <trkpt lat="44.84782" lon="6.04673">
        <ele>1457.98</ele>
        <time>2020-05-26T08:18:02Z</time>
      </trkpt>
      <trkpt lat="44.84776" lon="6.04665">
        <ele>1459.42</ele>
        <time>2020-05-26T08:18:26Z</time>
      </trkpt>
      <trkpt lat="44.84769" lon="6.04666">
        <ele>1462.78</ele>
        <time>2020-05-26T08:18:44Z</time>
      </trkpt>
      <trkpt lat="44.84762" lon="6.04659">
        <ele>1464.71</ele>
        <time>2020-05-26T08:18:58Z</time>
      </trkpt>
      <trkpt lat="44.84759" lon="6.04659">
        <ele>1466.15</ele>
        <time>2020-05-26T08:19:11Z</time>
      </trkpt>
      <trkpt lat="44.84758" lon="6.0466">
        <ele>1468.55</ele>
        <time>2020-05-26T08:19:26Z</time>
      </trkpt>
      <trkpt lat="44.8475" lon="6.0466">
        <ele>1471.44</ele>
        <time>2020-05-26T08:19:43Z</time>
      </trkpt>
      <trkpt lat="44.84742" lon="6.04654">
        <ele>1474.8</ele>
        <time>2020-05-26T08:19:59Z</time>
      </trkpt>
      <trkpt lat="44.84729" lon="6.04658">
        <ele>1476.72</ele>
        <time>2020-05-26T08:20:15Z</time>
      </trkpt>
      <trkpt lat="44.84711" lon="6.04663">
        <ele>1480.09</ele>
        <time>2020-05-26T08:20:31Z</time>
      </trkpt>
      <trkpt lat="44.84702" lon="6.04661">
        <ele>1482.49</ele>
        <time>2020-05-26T08:20:45Z</time>
      </trkpt>
      <trkpt lat="44.84693" lon="6.04661">
        <ele>1485.85</ele>
        <time>2020-05-26T08:21:00Z</time>
      </trkpt>
      <trkpt lat="44.84685" lon="6.04659">
        <ele>1488.74</ele>
        <time>2020-05-26T08:21:15Z</time>
      </trkpt>
      <trkpt lat="44.84678" lon="6.04656">
        <ele>1491.62</ele>
        <time>2020-05-26T08:21:31Z</time>
      </trkpt>
      <trkpt lat="44.84665" lon="6.04654">
        <ele>1494.99</ele>
        <time>2020-05-26T08:21:47Z</time>
      </trkpt>
      <trkpt lat="44.8466" lon="6.04646">
        <ele>1497.87</ele>
        <time>2020-05-26T08:22:05Z</time>
      </trkpt>
      <trkpt lat="44.84643" lon="6.04647">
        <ele>1499.79</ele>
        <time>2020-05-26T08:22:20Z</time>
      </trkpt>
      <trkpt lat="44.84627" lon="6.04646">
        <ele>1501.72</ele>
        <time>2020-05-26T08:22:36Z</time>
      </trkpt>
      <trkpt lat="44.8461" lon="6.04641">
        <ele>1502.68</ele>
        <time>2020-05-26T08:22:53Z</time>
      </trkpt>
      <trkpt lat="44.84592" lon="6.0464">
        <ele>1503.16</ele>
        <time>2020-05-26T08:23:09Z</time>
      </trkpt>
      <trkpt lat="44.84588" lon="6.0464">
        <ele>1504.12</ele>
        <time>2020-05-26T08:23:13Z</time>
      </trkpt>
      <trkpt lat="44.84581" lon="6.04637">
        <ele>1505.56</ele>
        <time>2020-05-26T08:23:23Z</time>
      </trkpt>
      <trkpt lat="44.84565" lon="6.04637">
        <ele>1507.97</ele>
        <time>2020-05-26T08:23:40Z</time>
      </trkpt>
      <trkpt lat="44.84554" lon="6.0464">
        <ele>1509.89</ele>
        <time>2020-05-26T08:23:54Z</time>
      </trkpt>
      <trkpt lat="44.84545" lon="6.04641">
        <ele>1510.37</ele>
        <time>2020-05-26T08:24:04Z</time>
      </trkpt>
      <trkpt lat="44.84536" lon="6.0464">
        <ele>1512.77</ele>
        <time>2020-05-26T08:24:16Z</time>
      </trkpt>
      <trkpt lat="44.84526" lon="6.0464">
        <ele>1515.18</ele>
        <time>2020-05-26T08:24:28Z</time>
      </trkpt>
      <trkpt lat="44.84513" lon="6.04642">
        <ele>1516.62</ele>
        <time>2020-05-26T08:24:43Z</time>
      </trkpt>
      <trkpt lat="44.84512" lon="6.04642">
        <ele>1516.62</ele>
        <time>2020-05-26T08:24:44Z</time>
      </trkpt>
      <trkpt lat="44.84496" lon="6.04645">
        <ele>1518.54</ele>
        <time>2020-05-26T08:24:59Z</time>
      </trkpt>
      <trkpt lat="44.8448" lon="6.04645">
        <ele>1520.46</ele>
        <time>2020-05-26T08:25:14Z</time>
      </trkpt>
      <trkpt lat="44.84471" lon="6.04642">
        <ele>1523.35</ele>
        <time>2020-05-26T08:25:31Z</time>
      </trkpt>
      <trkpt lat="44.84457" lon="6.04645">
        <ele>1525.75</ele>
        <time>2020-05-26T08:25:49Z</time>
      </trkpt>
      <trkpt lat="44.84439" lon="6.0465">
        <ele>1528.15</ele>
        <time>2020-05-26T08:26:08Z</time>
      </trkpt>
      <trkpt lat="44.84423" lon="6.04653">
        <ele>1528.63</ele>
        <time>2020-05-26T08:26:24Z</time>
      </trkpt>
      <trkpt lat="44.84406" lon="6.04659">
        <ele>1529.11</ele>
        <time>2020-05-26T08:26:40Z</time>
      </trkpt>
      <trkpt lat="44.84392" lon="6.04666">
        <ele>1527.67</ele>
        <time>2020-05-26T08:26:55Z</time>
      </trkpt>
      <trkpt lat="44.84373" lon="6.04675">
        <ele>1530.56</ele>
        <time>2020-05-26T08:27:09Z</time>
      </trkpt>
      <trkpt lat="44.84359" lon="6.04681">
        <ele>1532.96</ele>
        <time>2020-05-26T08:27:28Z</time>
      </trkpt>
      <trkpt lat="44.84344" lon="6.04689">
        <ele>1533.92</ele>
        <time>2020-05-26T08:27:44Z</time>
      </trkpt>
      <trkpt lat="44.84329" lon="6.04703">
        <ele>1535.36</ele>
        <time>2020-05-26T08:28:00Z</time>
      </trkpt>
      <trkpt lat="44.84325" lon="6.04706">
        <ele>1535.36</ele>
        <time>2020-05-26T08:28:03Z</time>
      </trkpt>
      <trkpt lat="44.84319" lon="6.04721">
        <ele>1533.92</ele>
        <time>2020-05-26T08:28:13Z</time>
      </trkpt>
      <trkpt lat="44.84309" lon="6.0473">
        <ele>1533.92</ele>
        <time>2020-05-26T08:28:28Z</time>
      </trkpt>
      <trkpt lat="44.84309" lon="6.04732">
        <ele>1535.36</ele>
        <time>2020-05-26T08:28:30Z</time>
      </trkpt>
      <trkpt lat="44.84306" lon="6.04734">
        <ele>1535.36</ele>
        <time>2020-05-26T08:28:34Z</time>
      </trkpt>
      <trkpt lat="44.84289" lon="6.04742">
        <ele>1538.73</ele>
        <time>2020-05-26T08:28:52Z</time>
      </trkpt>
      <trkpt lat="44.84277" lon="6.04749">
        <ele>1541.13</ele>
        <time>2020-05-26T08:29:08Z</time>
      </trkpt>
      <trkpt lat="44.84266" lon="6.04758">
        <ele>1544.01</ele>
        <time>2020-05-26T08:29:23Z</time>
      </trkpt>
      <trkpt lat="44.84259" lon="6.04764">
        <ele>1546.9</ele>
        <time>2020-05-26T08:29:37Z</time>
      </trkpt>
      <trkpt lat="44.84248" lon="6.04771">
        <ele>1549.78</ele>
        <time>2020-05-26T08:29:53Z</time>
      </trkpt>
      <trkpt lat="44.84238" lon="6.04783">
        <ele>1553.15</ele>
        <time>2020-05-26T08:30:11Z</time>
      </trkpt>
      <trkpt lat="44.84224" lon="6.04791">
        <ele>1556.03</ele>
        <time>2020-05-26T08:30:27Z</time>
      </trkpt>
      <trkpt lat="44.84222" lon="6.04792">
        <ele>1558.43</ele>
        <time>2020-05-26T08:30:41Z</time>
      </trkpt>
      <trkpt lat="44.84212" lon="6.04793">
        <ele>1561.32</ele>
        <time>2020-05-26T08:30:58Z</time>
      </trkpt>
      <trkpt lat="44.84198" lon="6.04792">
        <ele>1564.2</ele>
        <time>2020-05-26T08:31:16Z</time>
      </trkpt>
      <trkpt lat="44.84195" lon="6.0479">
        <ele>1567.09</ele>
        <time>2020-05-26T08:31:29Z</time>
      </trkpt>
      <trkpt lat="44.84193" lon="6.048">
        <ele>1569.97</ele>
        <time>2020-05-26T08:31:45Z</time>
      </trkpt>
      <trkpt lat="44.84185" lon="6.04811">
        <ele>1572.85</ele>
        <time>2020-05-26T08:31:59Z</time>
      </trkpt>
      <trkpt lat="44.84174" lon="6.04816">
        <ele>1575.26</ele>
        <time>2020-05-26T08:32:16Z</time>
      </trkpt>
      <trkpt lat="44.84157" lon="6.04819">
        <ele>1578.14</ele>
        <time>2020-05-26T08:32:36Z</time>
      </trkpt>
      <trkpt lat="44.84144" lon="6.04827">
        <ele>1580.06</ele>
        <time>2020-05-26T08:32:51Z</time>
      </trkpt>
      <trkpt lat="44.8414" lon="6.04831">
        <ele>1581.99</ele>
        <time>2020-05-26T08:33:03Z</time>
      </trkpt>
      <trkpt lat="44.84123" lon="6.04833">
        <ele>1581.99</ele>
        <time>2020-05-26T08:33:13Z</time>
      </trkpt>
      <trkpt lat="44.84112" lon="6.04832">
        <ele>1581.99</ele>
        <time>2020-05-26T08:33:20Z</time>
      </trkpt>
      <trkpt lat="44.84108" lon="6.04835">
        <ele>1581.03</ele>
        <time>2020-05-26T08:33:25Z</time>
      </trkpt>
      <trkpt lat="44.84095" lon="6.04829">
        <ele>1580.06</ele>
        <time>2020-05-26T08:33:40Z</time>
      </trkpt>
      <trkpt lat="44.8408" lon="6.04817">
        <ele>1579.1</ele>
        <time>2020-05-26T08:33:55Z</time>
      </trkpt>
      <trkpt lat="44.84077" lon="6.04815">
        <ele>1579.1</ele>
        <time>2020-05-26T08:33:57Z</time>
      </trkpt>
      <trkpt lat="44.84075" lon="6.04815">
        <ele>1578.14</ele>
        <time>2020-05-26T08:33:59Z</time>
      </trkpt>
      <trkpt lat="44.84072" lon="6.04815">
        <ele>1578.14</ele>
        <time>2020-05-26T08:34:01Z</time>
      </trkpt>
      <trkpt lat="44.84054" lon="6.04824">
        <ele>1577.18</ele>
        <time>2020-05-26T08:34:18Z</time>
      </trkpt>
      <trkpt lat="44.84046" lon="6.04824">
        <ele>1577.18</ele>
        <time>2020-05-26T08:34:25Z</time>
      </trkpt>
      <trkpt lat="44.84033" lon="6.04826">
        <ele>1577.18</ele>
        <time>2020-05-26T08:34:37Z</time>
      </trkpt>
      <trkpt lat="44.84029" lon="6.04825">
        <ele>1577.18</ele>
        <time>2020-05-26T08:34:41Z</time>
      </trkpt>
      <trkpt lat="44.84014" lon="6.04831">
        <ele>1577.18</ele>
        <time>2020-05-26T08:34:57Z</time>
      </trkpt>
      <trkpt lat="44.84007" lon="6.04826">
        <ele>1577.66</ele>
        <time>2020-05-26T08:35:14Z</time>
      </trkpt>
      <trkpt lat="44.84009" lon="6.04825">
        <ele>1577.66</ele>
        <time>2020-05-26T08:35:39Z</time>
      </trkpt>
      <trkpt lat="44.84006" lon="6.04827">
        <ele>1577.66</ele>
        <time>2020-05-26T08:36:08Z</time>
      </trkpt>
      <trkpt lat="44.84" lon="6.04836">
        <ele>1577.66</ele>
        <time>2020-05-26T08:36:28Z</time>
      </trkpt>
      <trkpt lat="44.83998" lon="6.04838">
        <ele>1577.66</ele>
        <time>2020-05-26T08:36:31Z</time>
      </trkpt>
      <trkpt lat="44.83995" lon="6.04839">
        <ele>1578.62</ele>
        <time>2020-05-26T08:36:35Z</time>
      </trkpt>
      <trkpt lat="44.83983" lon="6.04844">
        <ele>1580.54</ele>
        <time>2020-05-26T08:36:50Z</time>
      </trkpt>
      <trkpt lat="44.8397" lon="6.04847">
        <ele>1582.47</ele>
        <time>2020-05-26T08:37:05Z</time>
      </trkpt>
      <trkpt lat="44.83959" lon="6.04848">
        <ele>1584.39</ele>
        <time>2020-05-26T08:37:21Z</time>
      </trkpt>
      <trkpt lat="44.83949" lon="6.0485">
        <ele>1586.79</ele>
        <time>2020-05-26T08:37:35Z</time>
      </trkpt>
      <trkpt lat="44.83945" lon="6.04861">
        <ele>1587.75</ele>
        <time>2020-05-26T08:37:49Z</time>
      </trkpt>
      <trkpt lat="44.83936" lon="6.04869">
        <ele>1590.64</ele>
        <time>2020-05-26T08:38:04Z</time>
      </trkpt>
      <trkpt lat="44.83927" lon="6.04873">
        <ele>1593.04</ele>
        <time>2020-05-26T08:38:17Z</time>
      </trkpt>
      <trkpt lat="44.83917" lon="6.04883">
        <ele>1594.96</ele>
        <time>2020-05-26T08:38:34Z</time>
      </trkpt>
      <trkpt lat="44.83906" lon="6.04888">
        <ele>1597.37</ele>
        <time>2020-05-26T08:38:49Z</time>
      </trkpt>
      <trkpt lat="44.83895" lon="6.04893">
        <ele>1599.29</ele>
        <time>2020-05-26T08:39:04Z</time>
      </trkpt>
      <trkpt lat="44.83887" lon="6.04902">
        <ele>1602.66</ele>
        <time>2020-05-26T08:39:19Z</time>
      </trkpt>
      <trkpt lat="44.83877" lon="6.04908">
        <ele>1604.1</ele>
        <time>2020-05-26T08:39:32Z</time>
      </trkpt>
      <trkpt lat="44.83862" lon="6.04912">
        <ele>1605.54</ele>
        <time>2020-05-26T08:39:49Z</time>
      </trkpt>
      <trkpt lat="44.83853" lon="6.04915">
        <ele>1607.94</ele>
        <time>2020-05-26T08:40:04Z</time>
      </trkpt>
      <trkpt lat="44.83841" lon="6.04913">
        <ele>1609.86</ele>
        <time>2020-05-26T08:40:19Z</time>
      </trkpt>
      <trkpt lat="44.8383" lon="6.04915">
        <ele>1612.27</ele>
        <time>2020-05-26T08:40:36Z</time>
      </trkpt>
      <trkpt lat="44.83815" lon="6.04919">
        <ele>1614.19</ele>
        <time>2020-05-26T08:40:53Z</time>
      </trkpt>
      <trkpt lat="44.83807" lon="6.04924">
        <ele>1618.04</ele>
        <time>2020-05-26T08:41:10Z</time>
      </trkpt>
      <trkpt lat="44.83804" lon="6.04932">
        <ele>1619.48</ele>
        <time>2020-05-26T08:41:22Z</time>
      </trkpt>
      <trkpt lat="44.83796" lon="6.04943">
        <ele>1621.88</ele>
        <time>2020-05-26T08:41:37Z</time>
      </trkpt>
      <trkpt lat="44.83787" lon="6.0495">
        <ele>1624.77</ele>
        <time>2020-05-26T08:41:53Z</time>
      </trkpt>
      <trkpt lat="44.83786" lon="6.04952">
        <ele>1625.73</ele>
        <time>2020-05-26T08:41:56Z</time>
      </trkpt>
      <trkpt lat="44.83778" lon="6.04961">
        <ele>1628.13</ele>
        <time>2020-05-26T08:42:10Z</time>
      </trkpt>
      <trkpt lat="44.83769" lon="6.04966">
        <ele>1628.61</ele>
        <time>2020-05-26T08:42:20Z</time>
      </trkpt>
      <trkpt lat="44.8376" lon="6.04976">
        <ele>1629.57</ele>
        <time>2020-05-26T08:42:36Z</time>
      </trkpt>
      <trkpt lat="44.83756" lon="6.04981">
        <ele>1630.05</ele>
        <time>2020-05-26T08:42:52Z</time>
      </trkpt>
      <trkpt lat="44.83749" lon="6.0499">
        <ele>1631.49</ele>
        <time>2020-05-26T08:43:06Z</time>
      </trkpt>
      <trkpt lat="44.83737" lon="6.04998">
        <ele>1632.94</ele>
        <time>2020-05-26T08:43:21Z</time>
      </trkpt>
      <trkpt lat="44.83726" lon="6.05004">
        <ele>1633.9</ele>
        <time>2020-05-26T08:43:36Z</time>
      </trkpt>
      <trkpt lat="44.83711" lon="6.05011">
        <ele>1634.86</ele>
        <time>2020-05-26T08:43:52Z</time>
      </trkpt>
      <trkpt lat="44.8371" lon="6.05012">
        <ele>1634.86</ele>
        <time>2020-05-26T08:43:54Z</time>
      </trkpt>
      <trkpt lat="44.83696" lon="6.05015">
        <ele>1634.86</ele>
        <time>2020-05-26T08:44:09Z</time>
      </trkpt>
      <trkpt lat="44.83681" lon="6.05019">
        <ele>1635.34</ele>
        <time>2020-05-26T08:44:24Z</time>
      </trkpt>
      <trkpt lat="44.83677" lon="6.05021">
        <ele>1635.34</ele>
        <time>2020-05-26T08:44:29Z</time>
      </trkpt>
      <trkpt lat="44.83661" lon="6.05028">
        <ele>1635.34</ele>
        <time>2020-05-26T08:44:45Z</time>
      </trkpt>
      <trkpt lat="44.83642" lon="6.05029">
        <ele>1635.34</ele>
        <time>2020-05-26T08:45:00Z</time>
      </trkpt>
      <trkpt lat="44.83639" lon="6.05027">
        <ele>1635.34</ele>
        <time>2020-05-26T08:45:03Z</time>
      </trkpt>
      <trkpt lat="44.83626" lon="6.05029">
        <ele>1635.82</ele>
        <time>2020-05-26T08:45:18Z</time>
      </trkpt>
      <trkpt lat="44.83624" lon="6.0503">
        <ele>1635.82</ele>
        <time>2020-05-26T08:45:21Z</time>
      </trkpt>
      <trkpt lat="44.8361" lon="6.05021">
        <ele>1636.3</ele>
        <time>2020-05-26T08:45:36Z</time>
      </trkpt>
      <trkpt lat="44.83605" lon="6.05013">
        <ele>1636.78</ele>
        <time>2020-05-26T08:45:44Z</time>
      </trkpt>
      <trkpt lat="44.83598" lon="6.05008">
        <ele>1636.78</ele>
        <time>2020-05-26T08:45:51Z</time>
      </trkpt>
      <trkpt lat="44.83595" lon="6.05007">
        <ele>1636.78</ele>
        <time>2020-05-26T08:45:54Z</time>
      </trkpt>
      <trkpt lat="44.83593" lon="6.05004">
        <ele>1636.78</ele>
        <time>2020-05-26T08:45:57Z</time>
      </trkpt>
      <trkpt lat="44.83587" lon="6.05">
        <ele>1637.26</ele>
        <time>2020-05-26T08:46:04Z</time>
      </trkpt>
      <trkpt lat="44.83585" lon="6.04999">
        <ele>1637.26</ele>
        <time>2020-05-26T08:46:06Z</time>
      </trkpt>
      <trkpt lat="44.83582" lon="6.04997">
        <ele>1637.26</ele>
        <time>2020-05-26T08:46:09Z</time>
      </trkpt>
      <trkpt lat="44.83564" lon="6.04996">
        <ele>1637.26</ele>
        <time>2020-05-26T08:46:27Z</time>
      </trkpt>
      <trkpt lat="44.83555" lon="6.05002">
        <ele>1637.74</ele>
        <time>2020-05-26T08:46:37Z</time>
      </trkpt>
      <trkpt lat="44.83549" lon="6.05004">
        <ele>1638.22</ele>
        <time>2020-05-26T08:46:45Z</time>
      </trkpt>
      <trkpt lat="44.83545" lon="6.05004">
        <ele>1638.22</ele>
        <time>2020-05-26T08:46:49Z</time>
      </trkpt>
      <trkpt lat="44.8354" lon="6.05005">
        <ele>1638.22</ele>
        <time>2020-05-26T08:46:53Z</time>
      </trkpt>
      <trkpt lat="44.83538" lon="6.05006">
        <ele>1638.22</ele>
        <time>2020-05-26T08:46:55Z</time>
      </trkpt>
      <trkpt lat="44.83531" lon="6.0501">
        <ele>1638.22</ele>
        <time>2020-05-26T08:47:09Z</time>
      </trkpt>
      <trkpt lat="44.83526" lon="6.05013">
        <ele>1638.7</ele>
        <time>2020-05-26T08:47:33Z</time>
      </trkpt>
      <trkpt lat="44.83524" lon="6.05016">
        <ele>1639.19</ele>
        <time>2020-05-26T08:47:37Z</time>
      </trkpt>
      <trkpt lat="44.8352" lon="6.05022">
        <ele>1639.19</ele>
        <time>2020-05-26T08:47:43Z</time>
      </trkpt>
      <trkpt lat="44.83503" lon="6.05027">
        <ele>1640.15</ele>
        <time>2020-05-26T08:48:00Z</time>
      </trkpt>
      <trkpt lat="44.83499" lon="6.05027">
        <ele>1640.15</ele>
        <time>2020-05-26T08:48:04Z</time>
      </trkpt>
      <trkpt lat="44.83493" lon="6.05027">
        <ele>1640.15</ele>
        <time>2020-05-26T08:48:10Z</time>
      </trkpt>
      <trkpt lat="44.83479" lon="6.0503">
        <ele>1642.07</ele>
        <time>2020-05-26T08:48:25Z</time>
      </trkpt>
      <trkpt lat="44.83476" lon="6.05032">
        <ele>1642.55</ele>
        <time>2020-05-26T08:48:29Z</time>
      </trkpt>
      <trkpt lat="44.83466" lon="6.05036">
        <ele>1644.47</ele>
        <time>2020-05-26T08:48:42Z</time>
      </trkpt>
      <trkpt lat="44.83464" lon="6.05036">
        <ele>1644.47</ele>
        <time>2020-05-26T08:48:44Z</time>
      </trkpt>
      <trkpt lat="44.83449" lon="6.05029">
        <ele>1645.91</ele>
        <time>2020-05-26T08:49:00Z</time>
      </trkpt>
      <trkpt lat="44.83439" lon="6.05025">
        <ele>1647.36</ele>
        <time>2020-05-26T08:49:15Z</time>
      </trkpt>
      <trkpt lat="44.83436" lon="6.05025">
        <ele>1647.84</ele>
        <time>2020-05-26T08:49:18Z</time>
      </trkpt>
      <trkpt lat="44.83421" lon="6.05018">
        <ele>1648.8</ele>
        <time>2020-05-26T08:49:33Z</time>
      </trkpt>
      <trkpt lat="44.83416" lon="6.05016">
        <ele>1649.28</ele>
        <time>2020-05-26T08:49:39Z</time>
      </trkpt>
      <trkpt lat="44.83402" lon="6.05017">
        <ele>1650.24</ele>
        <time>2020-05-26T08:49:55Z</time>
      </trkpt>
      <trkpt lat="44.83391" lon="6.05021">
        <ele>1651.68</ele>
        <time>2020-05-26T08:50:11Z</time>
      </trkpt>
      <trkpt lat="44.83381" lon="6.05025">
        <ele>1652.64</ele>
        <time>2020-05-26T08:50:25Z</time>
      </trkpt>
      <trkpt lat="44.83371" lon="6.05028">
        <ele>1653.6</ele>
        <time>2020-05-26T08:50:38Z</time>
      </trkpt>
      <trkpt lat="44.83362" lon="6.05033">
        <ele>1655.53</ele>
        <time>2020-05-26T08:50:52Z</time>
      </trkpt>
      <trkpt lat="44.83351" lon="6.05039">
        <ele>1656.49</ele>
        <time>2020-05-26T08:51:08Z</time>
      </trkpt>
      <trkpt lat="44.83342" lon="6.05044">
        <ele>1657.45</ele>
        <time>2020-05-26T08:51:21Z</time>
      </trkpt>
      <trkpt lat="44.83332" lon="6.05052">
        <ele>1658.89</ele>
        <time>2020-05-26T08:51:37Z</time>
      </trkpt>
      <trkpt lat="44.8332" lon="6.05051">
        <ele>1660.33</ele>
        <time>2020-05-26T08:51:51Z</time>
      </trkpt>
      <trkpt lat="44.8331" lon="6.05056">
        <ele>1661.78</ele>
        <time>2020-05-26T08:52:05Z</time>
      </trkpt>
      <trkpt lat="44.833" lon="6.05062">
        <ele>1663.22</ele>
        <time>2020-05-26T08:52:21Z</time>
      </trkpt>
      <trkpt lat="44.83294" lon="6.05075">
        <ele>1665.62</ele>
        <time>2020-05-26T08:52:36Z</time>
      </trkpt>
      <trkpt lat="44.83287" lon="6.05085">
        <ele>1667.54</ele>
        <time>2020-05-26T08:52:50Z</time>
      </trkpt>
      <trkpt lat="44.83281" lon="6.05092">
        <ele>1669.47</ele>
        <time>2020-05-26T08:53:04Z</time>
      </trkpt>
      <trkpt lat="44.83277" lon="6.05103">
        <ele>1669.47</ele>
        <time>2020-05-26T08:53:18Z</time>
      </trkpt>
      <trkpt lat="44.83276" lon="6.05115">
        <ele>1672.83</ele>
        <time>2020-05-26T08:53:32Z</time>
      </trkpt>
      <trkpt lat="44.83271" lon="6.05124">
        <ele>1675.23</ele>
        <time>2020-05-26T08:53:47Z</time>
      </trkpt>
      <trkpt lat="44.83267" lon="6.05133">
        <ele>1677.64</ele>
        <time>2020-05-26T08:54:02Z</time>
      </trkpt>
      <trkpt lat="44.83264" lon="6.05144">
        <ele>1679.08</ele>
        <time>2020-05-26T08:54:14Z</time>
      </trkpt>
      <trkpt lat="44.83262" lon="6.05155">
        <ele>1681</ele>
        <time>2020-05-26T08:54:29Z</time>
      </trkpt>
      <trkpt lat="44.83256" lon="6.05166">
        <ele>1683.41</ele>
        <time>2020-05-26T08:54:43Z</time>
      </trkpt>
      <trkpt lat="44.83248" lon="6.05172">
        <ele>1685.33</ele>
        <time>2020-05-26T08:54:58Z</time>
      </trkpt>
      <trkpt lat="44.83243" lon="6.05177">
        <ele>1687.73</ele>
        <time>2020-05-26T08:55:12Z</time>
      </trkpt>
      <trkpt lat="44.83235" lon="6.05182">
        <ele>1690.14</ele>
        <time>2020-05-26T08:55:27Z</time>
      </trkpt>
      <trkpt lat="44.8323" lon="6.05187">
        <ele>1691.1</ele>
        <time>2020-05-26T08:55:40Z</time>
      </trkpt>
      <trkpt lat="44.8322" lon="6.05198">
        <ele>1693.02</ele>
        <time>2020-05-26T08:55:54Z</time>
      </trkpt>
      <trkpt lat="44.83216" lon="6.05205">
        <ele>1695.42</ele>
        <time>2020-05-26T08:56:07Z</time>
      </trkpt>
      <trkpt lat="44.83209" lon="6.05216">
        <ele>1697.83</ele>
        <time>2020-05-26T08:56:19Z</time>
      </trkpt>
      <trkpt lat="44.83201" lon="6.05223">
        <ele>1699.75</ele>
        <time>2020-05-26T08:56:34Z</time>
      </trkpt>
      <trkpt lat="44.8319" lon="6.05227">
        <ele>1702.15</ele>
        <time>2020-05-26T08:56:49Z</time>
      </trkpt>
      <trkpt lat="44.83181" lon="6.05237">
        <ele>1705.04</ele>
        <time>2020-05-26T08:57:07Z</time>
      </trkpt>
      <trkpt lat="44.83175" lon="6.05248">
        <ele>1707.92</ele>
        <time>2020-05-26T08:57:23Z</time>
      </trkpt>
      <trkpt lat="44.83167" lon="6.05251">
        <ele>1710.8</ele>
        <time>2020-05-26T08:57:38Z</time>
      </trkpt>
      <trkpt lat="44.83156" lon="6.05256">
        <ele>1712.73</ele>
        <time>2020-05-26T08:57:55Z</time>
      </trkpt>
      <trkpt lat="44.83149" lon="6.05262">
        <ele>1714.65</ele>
        <time>2020-05-26T08:58:10Z</time>
      </trkpt>
      <trkpt lat="44.83143" lon="6.05269">
        <ele>1717.05</ele>
        <time>2020-05-26T08:58:25Z</time>
      </trkpt>
      <trkpt lat="44.83138" lon="6.05277">
        <ele>1719.46</ele>
        <time>2020-05-26T08:58:40Z</time>
      </trkpt>
      <trkpt lat="44.83132" lon="6.05287">
        <ele>1720.42</ele>
        <time>2020-05-26T08:58:53Z</time>
      </trkpt>
      <trkpt lat="44.8313" lon="6.0529">
        <ele>1721.86</ele>
        <time>2020-05-26T08:58:56Z</time>
      </trkpt>
      <trkpt lat="44.83125" lon="6.05301">
        <ele>1723.78</ele>
        <time>2020-05-26T08:59:12Z</time>
      </trkpt>
      <trkpt lat="44.83125" lon="6.05294">
        <ele>1723.78</ele>
        <time>2020-05-26T08:59:37Z</time>
      </trkpt>
      <trkpt lat="44.83127" lon="6.05292">
        <ele>1723.78</ele>
        <time>2020-05-26T09:00:11Z</time>
      </trkpt>
      <trkpt lat="44.83127" lon="6.05298">
        <ele>1723.78</ele>
        <time>2020-05-26T09:00:41Z</time>
      </trkpt>
      <trkpt lat="44.83126" lon="6.05301">
        <ele>1723.78</ele>
        <time>2020-05-26T09:01:13Z</time>
      </trkpt>
      <trkpt lat="44.83123" lon="6.05314">
        <ele>1726.18</ele>
        <time>2020-05-26T09:01:26Z</time>
      </trkpt>
      <trkpt lat="44.83122" lon="6.05315">
        <ele>1726.18</ele>
        <time>2020-05-26T09:01:27Z</time>
      </trkpt>
      <trkpt lat="44.83116" lon="6.05326">
        <ele>1728.59</ele>
        <time>2020-05-26T09:01:42Z</time>
      </trkpt>
      <trkpt lat="44.83111" lon="6.05338">
        <ele>1730.03</ele>
        <time>2020-05-26T09:01:57Z</time>
      </trkpt>
      <trkpt lat="44.83108" lon="6.05345">
        <ele>1733.39</ele>
        <time>2020-05-26T09:02:07Z</time>
      </trkpt>
      <trkpt lat="44.83105" lon="6.05352">
        <ele>1734.84</ele>
        <time>2020-05-26T09:02:16Z</time>
      </trkpt>
      <trkpt lat="44.83098" lon="6.05359">
        <ele>1735.8</ele>
        <time>2020-05-26T09:02:28Z</time>
      </trkpt>
      <trkpt lat="44.83093" lon="6.05363">
        <ele>1739.16</ele>
        <time>2020-05-26T09:02:42Z</time>
      </trkpt>
      <trkpt lat="44.83087" lon="6.05365">
        <ele>1740.6</ele>
        <time>2020-05-26T09:02:57Z</time>
      </trkpt>
      <trkpt lat="44.83079" lon="6.05378">
        <ele>1743.49</ele>
        <time>2020-05-26T09:03:13Z</time>
      </trkpt>
      <trkpt lat="44.83077" lon="6.05386">
        <ele>1743.97</ele>
        <time>2020-05-26T09:03:26Z</time>
      </trkpt>
      <trkpt lat="44.83075" lon="6.05398">
        <ele>1746.37</ele>
        <time>2020-05-26T09:03:40Z</time>
      </trkpt>
      <trkpt lat="44.83071" lon="6.05408">
        <ele>1748.29</ele>
        <time>2020-05-26T09:03:55Z</time>
      </trkpt>
      <trkpt lat="44.83069" lon="6.05424">
        <ele>1749.74</ele>
        <time>2020-05-26T09:04:11Z</time>
      </trkpt>
      <trkpt lat="44.83064" lon="6.05438">
        <ele>1751.18</ele>
        <time>2020-05-26T09:04:25Z</time>
      </trkpt>
      <trkpt lat="44.83063" lon="6.0544">
        <ele>1751.18</ele>
        <time>2020-05-26T09:04:27Z</time>
      </trkpt>
      <trkpt lat="44.83063" lon="6.0545">
        <ele>1752.62</ele>
        <time>2020-05-26T09:04:40Z</time>
      </trkpt>
      <trkpt lat="44.83064" lon="6.05455">
        <ele>1753.1</ele>
        <time>2020-05-26T09:04:51Z</time>
      </trkpt>
      <trkpt lat="44.83064" lon="6.05463">
        <ele>1755.02</ele>
        <time>2020-05-26T09:05:04Z</time>
      </trkpt>
      <trkpt lat="44.83064" lon="6.0547">
        <ele>1755.5</ele>
        <time>2020-05-26T09:05:17Z</time>
      </trkpt>
      <trkpt lat="44.83059" lon="6.05478">
        <ele>1756.95</ele>
        <time>2020-05-26T09:05:35Z</time>
      </trkpt>
      <trkpt lat="44.83055" lon="6.05483">
        <ele>1758.39</ele>
        <time>2020-05-26T09:05:46Z</time>
      </trkpt>
      <trkpt lat="44.83053" lon="6.05485">
        <ele>1759.35</ele>
        <time>2020-05-26T09:06:00Z</time>
      </trkpt>
      <trkpt lat="44.83047" lon="6.05485">
        <ele>1761.27</ele>
        <time>2020-05-26T09:06:19Z</time>
      </trkpt>
      <trkpt lat="44.83045" lon="6.05489">
        <ele>1762.23</ele>
        <time>2020-05-26T09:06:36Z</time>
      </trkpt>
      <trkpt lat="44.83042" lon="6.05488">
        <ele>1763.68</ele>
        <time>2020-05-26T09:06:43Z</time>
      </trkpt>
      <trkpt lat="44.83041" lon="6.05492">
        <ele>1765.6</ele>
        <time>2020-05-26T09:06:57Z</time>
      </trkpt>
      <trkpt lat="44.83035" lon="6.05495">
        <ele>1766.08</ele>
        <time>2020-05-26T09:07:08Z</time>
      </trkpt>
      <trkpt lat="44.83032" lon="6.055">
        <ele>1767.04</ele>
        <time>2020-05-26T09:07:22Z</time>
      </trkpt>
      <trkpt lat="44.83027" lon="6.05512">
        <ele>1769.44</ele>
        <time>2020-05-26T09:07:38Z</time>
      </trkpt>
      <trkpt lat="44.83026" lon="6.05518">
        <ele>1769.92</ele>
        <time>2020-05-26T09:07:52Z</time>
      </trkpt>
      <trkpt lat="44.83026" lon="6.05525">
        <ele>1770.89</ele>
        <time>2020-05-26T09:08:03Z</time>
      </trkpt>
      <trkpt lat="44.83022" lon="6.05533">
        <ele>1771.85</ele>
        <time>2020-05-26T09:08:19Z</time>
      </trkpt>
      <trkpt lat="44.83018" lon="6.05538">
        <ele>1774.25</ele>
        <time>2020-05-26T09:08:35Z</time>
      </trkpt>
      <trkpt lat="44.83018" lon="6.05547">
        <ele>1775.69</ele>
        <time>2020-05-26T09:08:48Z</time>
      </trkpt>
      <trkpt lat="44.8302" lon="6.05553">
        <ele>1777.13</ele>
        <time>2020-05-26T09:09:03Z</time>
      </trkpt>
      <trkpt lat="44.83019" lon="6.05573">
        <ele>1779.06</ele>
        <time>2020-05-26T09:09:19Z</time>
      </trkpt>
      <trkpt lat="44.83021" lon="6.05581">
        <ele>1781.94</ele>
        <time>2020-05-26T09:09:33Z</time>
      </trkpt>
      <trkpt lat="44.83023" lon="6.0559">
        <ele>1783.86</ele>
        <time>2020-05-26T09:09:47Z</time>
      </trkpt>
      <trkpt lat="44.83027" lon="6.05592">
        <ele>1786.75</ele>
        <time>2020-05-26T09:10:02Z</time>
      </trkpt>
      <trkpt lat="44.83033" lon="6.05605">
        <ele>1788.67</ele>
        <time>2020-05-26T09:10:17Z</time>
      </trkpt>
      <trkpt lat="44.83031" lon="6.05622">
        <ele>1791.55</ele>
        <time>2020-05-26T09:10:32Z</time>
      </trkpt>
      <trkpt lat="44.83026" lon="6.05636">
        <ele>1793</ele>
        <time>2020-05-26T09:10:48Z</time>
      </trkpt>
      <trkpt lat="44.83029" lon="6.05639">
        <ele>1795.88</ele>
        <time>2020-05-26T09:11:03Z</time>
      </trkpt>
      <trkpt lat="44.83033" lon="6.05644">
        <ele>1798.28</ele>
        <time>2020-05-26T09:11:18Z</time>
      </trkpt>
      <trkpt lat="44.83037" lon="6.05651">
        <ele>1800.21</ele>
        <time>2020-05-26T09:11:34Z</time>
      </trkpt>
      <trkpt lat="44.83042" lon="6.05656">
        <ele>1803.09</ele>
        <time>2020-05-26T09:11:50Z</time>
      </trkpt>
      <trkpt lat="44.83047" lon="6.05661">
        <ele>1805.49</ele>
        <time>2020-05-26T09:12:07Z</time>
      </trkpt>
      <trkpt lat="44.83046" lon="6.05677">
        <ele>1808.38</ele>
        <time>2020-05-26T09:12:24Z</time>
      </trkpt>
      <trkpt lat="44.83044" lon="6.05687">
        <ele>1811.26</ele>
        <time>2020-05-26T09:12:38Z</time>
      </trkpt>
      <trkpt lat="44.83048" lon="6.05694">
        <ele>1812.7</ele>
        <time>2020-05-26T09:12:56Z</time>
      </trkpt>
      <trkpt lat="44.83049" lon="6.05703">
        <ele>1815.11</ele>
        <time>2020-05-26T09:13:11Z</time>
      </trkpt>
      <trkpt lat="44.83047" lon="6.05711">
        <ele>1818.47</ele>
        <time>2020-05-26T09:13:29Z</time>
      </trkpt>
      <trkpt lat="44.83052" lon="6.05711">
        <ele>1819.91</ele>
        <time>2020-05-26T09:13:44Z</time>
      </trkpt>
      <trkpt lat="44.83048" lon="6.05714">
        <ele>1819.91</ele>
        <time>2020-05-26T09:14:12Z</time>
      </trkpt>
      <trkpt lat="44.8305" lon="6.05714">
        <ele>1819.43</ele>
        <time>2020-05-26T09:14:40Z</time>
      </trkpt>
      <trkpt lat="44.83051" lon="6.05714">
        <ele>1819.43</ele>
        <time>2020-05-26T09:14:55Z</time>
      </trkpt>
      <trkpt lat="44.83045" lon="6.05717">
        <ele>1819.43</ele>
        <time>2020-05-26T09:15:30Z</time>
      </trkpt>
      <trkpt lat="44.83045" lon="6.05716">
        <ele>1819.91</ele>
        <time>2020-05-26T09:16:02Z</time>
      </trkpt>
      <trkpt lat="44.83049" lon="6.05713">
        <ele>1819.91</ele>
        <time>2020-05-26T09:16:36Z</time>
      </trkpt>
      <trkpt lat="44.83051" lon="6.05709">
        <ele>1820.39</ele>
        <time>2020-05-26T09:17:00Z</time>
      </trkpt>
      <trkpt lat="44.83054" lon="6.05708">
        <ele>1820.39</ele>
        <time>2020-05-26T09:17:17Z</time>
      </trkpt>
      <trkpt lat="44.83058" lon="6.0571">
        <ele>1822.8</ele>
        <time>2020-05-26T09:17:31Z</time>
      </trkpt>
      <trkpt lat="44.83063" lon="6.05716">
        <ele>1824.24</ele>
        <time>2020-05-26T09:17:43Z</time>
      </trkpt>
      <trkpt lat="44.83059" lon="6.05733">
        <ele>1827.6</ele>
        <time>2020-05-26T09:17:59Z</time>
      </trkpt>
      <trkpt lat="44.83063" lon="6.05736">
        <ele>1829.53</ele>
        <time>2020-05-26T09:18:11Z</time>
      </trkpt>
      <trkpt lat="44.8307" lon="6.05735">
        <ele>1831.45</ele>
        <time>2020-05-26T09:18:26Z</time>
      </trkpt>
      <trkpt lat="44.83073" lon="6.05747">
        <ele>1833.85</ele>
        <time>2020-05-26T09:18:40Z</time>
      </trkpt>
      <trkpt lat="44.83076" lon="6.05755">
        <ele>1836.26</ele>
        <time>2020-05-26T09:18:55Z</time>
      </trkpt>
      <trkpt lat="44.83078" lon="6.05764">
        <ele>1838.66</ele>
        <time>2020-05-26T09:19:09Z</time>
      </trkpt>
      <trkpt lat="44.83076" lon="6.05769">
        <ele>1840.58</ele>
        <time>2020-05-26T09:19:23Z</time>
      </trkpt>
      <trkpt lat="44.83073" lon="6.05774">
        <ele>1842.98</ele>
        <time>2020-05-26T09:19:40Z</time>
      </trkpt>
      <trkpt lat="44.83077" lon="6.05774">
        <ele>1845.87</ele>
        <time>2020-05-26T09:19:57Z</time>
      </trkpt>
      <trkpt lat="44.83081" lon="6.05776">
        <ele>1847.79</ele>
        <time>2020-05-26T09:20:11Z</time>
      </trkpt>
      <trkpt lat="44.83082" lon="6.05787">
        <ele>1850.19</ele>
        <time>2020-05-26T09:20:27Z</time>
      </trkpt>
      <trkpt lat="44.83081" lon="6.05792">
        <ele>1852.12</ele>
        <time>2020-05-26T09:20:42Z</time>
      </trkpt>
      <trkpt lat="44.83079" lon="6.05796">
        <ele>1855</ele>
        <time>2020-05-26T09:20:58Z</time>
      </trkpt>
      <trkpt lat="44.83074" lon="6.05801">
        <ele>1857.89</ele>
        <time>2020-05-26T09:21:16Z</time>
      </trkpt>
      <trkpt lat="44.83071" lon="6.05803">
        <ele>1860.77</ele>
        <time>2020-05-26T09:21:34Z</time>
      </trkpt>
      <trkpt lat="44.83067" lon="6.05808">
        <ele>1863.17</ele>
        <time>2020-05-26T09:21:53Z</time>
      </trkpt>
      <trkpt lat="44.83067" lon="6.05817">
        <ele>1865.58</ele>
        <time>2020-05-26T09:22:09Z</time>
      </trkpt>
      <trkpt lat="44.83066" lon="6.05824">
        <ele>1867.5</ele>
        <time>2020-05-26T09:22:21Z</time>
      </trkpt>
      <trkpt lat="44.83065" lon="6.05828">
        <ele>1868.94</ele>
        <time>2020-05-26T09:22:34Z</time>
      </trkpt>
      <trkpt lat="44.83066" lon="6.05838">
        <ele>1871.82</ele>
        <time>2020-05-26T09:22:50Z</time>
      </trkpt>
      <trkpt lat="44.83068" lon="6.05845">
        <ele>1873.75</ele>
        <time>2020-05-26T09:23:07Z</time>
      </trkpt>
      <trkpt lat="44.83068" lon="6.05841">
        <ele>1874.23</ele>
        <time>2020-05-26T09:23:29Z</time>
      </trkpt>
      <trkpt lat="44.83067" lon="6.05846">
        <ele>1874.71</ele>
        <time>2020-05-26T09:23:50Z</time>
      </trkpt>
      <trkpt lat="44.83063" lon="6.05855">
        <ele>1877.59</ele>
        <time>2020-05-26T09:24:04Z</time>
      </trkpt>
      <trkpt lat="44.83062" lon="6.05862">
        <ele>1880</ele>
        <time>2020-05-26T09:24:19Z</time>
      </trkpt>
      <trkpt lat="44.83059" lon="6.05869">
        <ele>1882.4</ele>
        <time>2020-05-26T09:24:35Z</time>
      </trkpt>
      <trkpt lat="44.8306" lon="6.05875">
        <ele>1885.28</ele>
        <time>2020-05-26T09:24:50Z</time>
      </trkpt>
      <trkpt lat="44.83059" lon="6.05882">
        <ele>1888.17</ele>
        <time>2020-05-26T09:25:06Z</time>
      </trkpt>
      <trkpt lat="44.83059" lon="6.05883">
        <ele>1888.65</ele>
        <time>2020-05-26T09:25:07Z</time>
      </trkpt>
      <trkpt lat="44.83058" lon="6.05889">
        <ele>1891.05</ele>
        <time>2020-05-26T09:25:24Z</time>
      </trkpt>
      <trkpt lat="44.83055" lon="6.05895">
        <ele>1893.45</ele>
        <time>2020-05-26T09:25:40Z</time>
      </trkpt>
      <trkpt lat="44.83056" lon="6.05898">
        <ele>1895.86</ele>
        <time>2020-05-26T09:25:55Z</time>
      </trkpt>
      <trkpt lat="44.83056" lon="6.059">
        <ele>1896.82</ele>
        <time>2020-05-26T09:25:58Z</time>
      </trkpt>
      <trkpt lat="44.83052" lon="6.05906">
        <ele>1897.78</ele>
        <time>2020-05-26T09:26:15Z</time>
      </trkpt>
      <trkpt lat="44.83052" lon="6.05907">
        <ele>1899.22</ele>
        <time>2020-05-26T09:26:18Z</time>
      </trkpt>
      <trkpt lat="44.83049" lon="6.05913">
        <ele>1901.63</ele>
        <time>2020-05-26T09:26:33Z</time>
      </trkpt>
      <trkpt lat="44.83048" lon="6.05918">
        <ele>1904.03</ele>
        <time>2020-05-26T09:26:49Z</time>
      </trkpt>
      <trkpt lat="44.83044" lon="6.05922">
        <ele>1906.43</ele>
        <time>2020-05-26T09:27:07Z</time>
      </trkpt>
      <trkpt lat="44.83041" lon="6.05925">
        <ele>1908.83</ele>
        <time>2020-05-26T09:27:24Z</time>
      </trkpt>
      <trkpt lat="44.83036" lon="6.05927">
        <ele>1911.72</ele>
        <time>2020-05-26T09:27:40Z</time>
      </trkpt>
      <trkpt lat="44.83032" lon="6.05935">
        <ele>1915.08</ele>
        <time>2020-05-26T09:28:00Z</time>
      </trkpt>
      <trkpt lat="44.83031" lon="6.05935">
        <ele>1915.08</ele>
        <time>2020-05-26T09:28:01Z</time>
      </trkpt>
      <trkpt lat="44.83031" lon="6.05944">
        <ele>1917.49</ele>
        <time>2020-05-26T09:28:19Z</time>
      </trkpt>
      <trkpt lat="44.83035" lon="6.05949">
        <ele>1920.37</ele>
        <time>2020-05-26T09:28:36Z</time>
      </trkpt>
      <trkpt lat="44.83031" lon="6.05956">
        <ele>1923.74</ele>
        <time>2020-05-26T09:28:55Z</time>
      </trkpt>
      <trkpt lat="44.8303" lon="6.05962">
        <ele>1927.1</ele>
        <time>2020-05-26T09:29:13Z</time>
      </trkpt>
      <trkpt lat="44.8303" lon="6.05962">
        <ele>1927.1</ele>
        <time>2020-05-26T09:29:18Z</time>
      </trkpt>
      <trkpt lat="44.83026" lon="6.05963">
        <ele>1927.1</ele>
        <time>2020-05-26T09:29:51Z</time>
      </trkpt>
      <trkpt lat="44.83024" lon="6.0597">
        <ele>1930.46</ele>
        <time>2020-05-26T09:30:09Z</time>
      </trkpt>
      <trkpt lat="44.83021" lon="6.05979">
        <ele>1933.83</ele>
        <time>2020-05-26T09:30:25Z</time>
      </trkpt>
      <trkpt lat="44.83023" lon="6.05983">
        <ele>1936.23</ele>
        <time>2020-05-26T09:30:40Z</time>
      </trkpt>
      <trkpt lat="44.8302" lon="6.05989">
        <ele>1938.16</ele>
        <time>2020-05-26T09:30:53Z</time>
      </trkpt>
      <trkpt lat="44.83018" lon="6.05993">
        <ele>1940.56</ele>
        <time>2020-05-26T09:31:08Z</time>
      </trkpt>
      <trkpt lat="44.83016" lon="6.05997">
        <ele>1942.96</ele>
        <time>2020-05-26T09:31:24Z</time>
      </trkpt>
      <trkpt lat="44.83015" lon="6.05999">
        <ele>1944.88</ele>
        <time>2020-05-26T09:31:35Z</time>
      </trkpt>
      <trkpt lat="44.83014" lon="6.06002">
        <ele>1945.36</ele>
        <time>2020-05-26T09:31:59Z</time>
      </trkpt>
      <trkpt lat="44.83013" lon="6.06005">
        <ele>1947.77</ele>
        <time>2020-05-26T09:32:15Z</time>
      </trkpt>
      <trkpt lat="44.8301" lon="6.06008">
        <ele>1950.17</ele>
        <time>2020-05-26T09:32:31Z</time>
      </trkpt>
      <trkpt lat="44.83009" lon="6.06013">
        <ele>1953.06</ele>
        <time>2020-05-26T09:32:47Z</time>
      </trkpt>
      <trkpt lat="44.83008" lon="6.06015">
        <ele>1954.98</ele>
        <time>2020-05-26T09:33:03Z</time>
      </trkpt>
      <trkpt lat="44.83005" lon="6.0602">
        <ele>1957.38</ele>
        <time>2020-05-26T09:33:22Z</time>
      </trkpt>
      <trkpt lat="44.83005" lon="6.06024">
        <ele>1960.27</ele>
        <time>2020-05-26T09:33:37Z</time>
      </trkpt>
      <trkpt lat="44.83002" lon="6.0603">
        <ele>1962.19</ele>
        <time>2020-05-26T09:33:55Z</time>
      </trkpt>
      <trkpt lat="44.83002" lon="6.06034">
        <ele>1965.55</ele>
        <time>2020-05-26T09:34:12Z</time>
      </trkpt>
      <trkpt lat="44.83003" lon="6.06034">
        <ele>1965.55</ele>
        <time>2020-05-26T09:34:13Z</time>
      </trkpt>
      <trkpt lat="44.83008" lon="6.06031">
        <ele>1967.48</ele>
        <time>2020-05-26T09:34:27Z</time>
      </trkpt>
      <trkpt lat="44.83009" lon="6.06028">
        <ele>1968.92</ele>
        <time>2020-05-26T09:34:40Z</time>
      </trkpt>
      <trkpt lat="44.83013" lon="6.06025">
        <ele>1971.8</ele>
        <time>2020-05-26T09:34:57Z</time>
      </trkpt>
      <trkpt lat="44.83015" lon="6.06026">
        <ele>1972.76</ele>
        <time>2020-05-26T09:35:16Z</time>
      </trkpt>
      <trkpt lat="44.83018" lon="6.0603">
        <ele>1973.24</ele>
        <time>2020-05-26T09:35:45Z</time>
      </trkpt>
      <trkpt lat="44.83016" lon="6.06041">
        <ele>1976.61</ele>
        <time>2020-05-26T09:35:58Z</time>
      </trkpt>
      <trkpt lat="44.83008" lon="6.06047">
        <ele>1979.01</ele>
        <time>2020-05-26T09:36:15Z</time>
      </trkpt>
      <trkpt lat="44.83" lon="6.06053">
        <ele>1979.49</ele>
        <time>2020-05-26T09:36:30Z</time>
      </trkpt>
      <trkpt lat="44.82997" lon="6.06053">
        <ele>1978.05</ele>
        <time>2020-05-26T09:36:34Z</time>
      </trkpt>
      <trkpt lat="44.82998" lon="6.06052">
        <ele>1978.53</ele>
        <time>2020-05-26T09:36:57Z</time>
      </trkpt>
      <trkpt lat="44.83" lon="6.06051">
        <ele>1979.49</ele>
        <time>2020-05-26T09:37:04Z</time>
      </trkpt>
      <trkpt lat="44.83004" lon="6.0605">
        <ele>1982.38</ele>
        <time>2020-05-26T09:37:21Z</time>
      </trkpt>
      <trkpt lat="44.83009" lon="6.06055">
        <ele>1985.26</ele>
        <time>2020-05-26T09:37:36Z</time>
      </trkpt>
      <trkpt lat="44.83011" lon="6.06063">
        <ele>1987.18</ele>
        <time>2020-05-26T09:37:51Z</time>
      </trkpt>
      <trkpt lat="44.83013" lon="6.0606">
        <ele>1987.18</ele>
        <time>2020-05-26T09:38:21Z</time>
      </trkpt>
      <trkpt lat="44.83012" lon="6.06069">
        <ele>1988.62</ele>
        <time>2020-05-26T09:38:40Z</time>
      </trkpt>
      <trkpt lat="44.83011" lon="6.06073">
        <ele>1990.55</ele>
        <time>2020-05-26T09:38:57Z</time>
      </trkpt>
      <trkpt lat="44.83009" lon="6.06069">
        <ele>1991.03</ele>
        <time>2020-05-26T09:39:30Z</time>
      </trkpt>
      <trkpt lat="44.83007" lon="6.06072">
        <ele>1991.99</ele>
        <time>2020-05-26T09:39:53Z</time>
      </trkpt>
      <trkpt lat="44.83004" lon="6.06075">
        <ele>1994.39</ele>
        <time>2020-05-26T09:40:04Z</time>
      </trkpt>
      <trkpt lat="44.83005" lon="6.06078">
        <ele>1994.39</ele>
        <time>2020-05-26T09:40:19Z</time>
      </trkpt>
      <trkpt lat="44.83007" lon="6.06076">
        <ele>1994.39</ele>
        <time>2020-05-26T09:40:44Z</time>
      </trkpt>
      <trkpt lat="44.83005" lon="6.0608">
        <ele>1994.39</ele>
        <time>2020-05-26T09:41:11Z</time>
      </trkpt>
      <trkpt lat="44.83002" lon="6.06083">
        <ele>1996.32</ele>
        <time>2020-05-26T09:41:27Z</time>
      </trkpt>
      <trkpt lat="44.83001" lon="6.06088">
        <ele>1998.24</ele>
        <time>2020-05-26T09:41:42Z</time>
      </trkpt>
      <trkpt lat="44.83002" lon="6.0609">
        <ele>2001.12</ele>
        <time>2020-05-26T09:41:54Z</time>
      </trkpt>
      <trkpt lat="44.83003" lon="6.06091">
        <ele>2003.04</ele>
        <time>2020-05-26T09:42:10Z</time>
      </trkpt>
      <trkpt lat="44.83003" lon="6.06092">
        <ele>2004.49</ele>
        <time>2020-05-26T09:42:25Z</time>
      </trkpt>
      <trkpt lat="44.83005" lon="6.06085">
        <ele>2005.93</ele>
        <time>2020-05-26T09:42:42Z</time>
      </trkpt>
      <trkpt lat="44.83009" lon="6.06091">
        <ele>2007.37</ele>
        <time>2020-05-26T09:42:55Z</time>
      </trkpt>
      <trkpt lat="44.83007" lon="6.06096">
        <ele>2008.81</ele>
        <time>2020-05-26T09:43:10Z</time>
      </trkpt>
      <trkpt lat="44.83003" lon="6.06098">
        <ele>2012.18</ele>
        <time>2020-05-26T09:43:25Z</time>
      </trkpt>
      <trkpt lat="44.83003" lon="6.06103">
        <ele>2013.62</ele>
        <time>2020-05-26T09:43:40Z</time>
      </trkpt>
      <trkpt lat="44.83004" lon="6.06111">
        <ele>2016.5</ele>
        <time>2020-05-26T09:43:57Z</time>
      </trkpt>
      <trkpt lat="44.83002" lon="6.06113">
        <ele>2018.43</ele>
        <time>2020-05-26T09:44:10Z</time>
      </trkpt>
      <trkpt lat="44.82998" lon="6.06113">
        <ele>2020.83</ele>
        <time>2020-05-26T09:44:29Z</time>
      </trkpt>
      <trkpt lat="44.82993" lon="6.06112">
        <ele>2022.75</ele>
        <time>2020-05-26T09:44:43Z</time>
      </trkpt>
      <trkpt lat="44.82988" lon="6.06112">
        <ele>2024.67</ele>
        <time>2020-05-26T09:45:01Z</time>
      </trkpt>
      <trkpt lat="44.82982" lon="6.06109">
        <ele>2025.64</ele>
        <time>2020-05-26T09:45:15Z</time>
      </trkpt>
      <trkpt lat="44.82982" lon="6.06109">
        <ele>2027.08</ele>
        <time>2020-05-26T09:45:17Z</time>
      </trkpt>
      <trkpt lat="44.82974" lon="6.06108">
        <ele>2028.04</ele>
        <time>2020-05-26T09:45:34Z</time>
      </trkpt>
      <trkpt lat="44.82964" lon="6.06103">
        <ele>2029.96</ele>
        <time>2020-05-26T09:45:51Z</time>
      </trkpt>
      <trkpt lat="44.82955" lon="6.06099">
        <ele>2030.44</ele>
        <time>2020-05-26T09:46:07Z</time>
      </trkpt>
      <trkpt lat="44.8295" lon="6.06094">
        <ele>2032.84</ele>
        <time>2020-05-26T09:46:21Z</time>
      </trkpt>
      <trkpt lat="44.82945" lon="6.0609">
        <ele>2034.77</ele>
        <time>2020-05-26T09:46:36Z</time>
      </trkpt>
      <trkpt lat="44.82933" lon="6.06085">
        <ele>2036.69</ele>
        <time>2020-05-26T09:46:53Z</time>
      </trkpt>
      <trkpt lat="44.82926" lon="6.06082">
        <ele>2036.69</ele>
        <time>2020-05-26T09:47:08Z</time>
      </trkpt>
      <trkpt lat="44.82923" lon="6.0608">
        <ele>2036.69</ele>
        <time>2020-05-26T09:47:14Z</time>
      </trkpt>
      <trkpt lat="44.82914" lon="6.06074">
        <ele>2034.77</ele>
        <time>2020-05-26T09:47:29Z</time>
      </trkpt>
      <trkpt lat="44.82906" lon="6.06068">
        <ele>2035.73</ele>
        <time>2020-05-26T09:47:43Z</time>
      </trkpt>
      <trkpt lat="44.829" lon="6.06063">
        <ele>2035.73</ele>
        <time>2020-05-26T09:47:59Z</time>
      </trkpt>
      <trkpt lat="44.82895" lon="6.06057">
        <ele>2034.29</ele>
        <time>2020-05-26T09:48:13Z</time>
      </trkpt>
      <trkpt lat="44.8289" lon="6.06051">
        <ele>2035.73</ele>
        <time>2020-05-26T09:48:26Z</time>
      </trkpt>
      <trkpt lat="44.82888" lon="6.06047">
        <ele>2035.73</ele>
        <time>2020-05-26T09:48:44Z</time>
      </trkpt>
      <trkpt lat="44.82885" lon="6.06041">
        <ele>2034.77</ele>
        <time>2020-05-26T09:49:05Z</time>
      </trkpt>
      <trkpt lat="44.82879" lon="6.06025">
        <ele>2032.84</ele>
        <time>2020-05-26T09:49:19Z</time>
      </trkpt>
      <trkpt lat="44.82877" lon="6.06013">
        <ele>2032.84</ele>
        <time>2020-05-26T09:49:31Z</time>
      </trkpt>
      <trkpt lat="44.82875" lon="6.06">
        <ele>2032.84</ele>
        <time>2020-05-26T09:49:45Z</time>
      </trkpt>
      <trkpt lat="44.82875" lon="6.05999">
        <ele>2032.84</ele>
        <time>2020-05-26T09:50:03Z</time>
      </trkpt>
      <trkpt lat="44.82873" lon="6.05999">
        <ele>2032.84</ele>
        <time>2020-05-26T09:50:25Z</time>
      </trkpt>
      <trkpt lat="44.82873" lon="6.06001">
        <ele>2033.33</ele>
        <time>2020-05-26T09:50:39Z</time>
      </trkpt>
      <trkpt lat="44.82874" lon="6.06002">
        <ele>2033.33</ele>
        <time>2020-05-26T09:51:09Z</time>
      </trkpt>
      <trkpt lat="44.82871" lon="6.06">
        <ele>2033.33</ele>
        <time>2020-05-26T09:51:40Z</time>
      </trkpt>
      <trkpt lat="44.82868" lon="6.05997">
        <ele>2033.33</ele>
        <time>2020-05-26T09:52:04Z</time>
      </trkpt>
      <trkpt lat="44.82868" lon="6.05989">
        <ele>2033.33</ele>
        <time>2020-05-26T09:52:22Z</time>
      </trkpt>
      <trkpt lat="44.82867" lon="6.05978">
        <ele>2034.29</ele>
        <time>2020-05-26T09:52:38Z</time>
      </trkpt>
      <trkpt lat="44.8287" lon="6.05977">
        <ele>2034.77</ele>
        <time>2020-05-26T09:53:03Z</time>
      </trkpt>
      <trkpt lat="44.82869" lon="6.05972">
        <ele>2034.77</ele>
        <time>2020-05-26T09:53:23Z</time>
      </trkpt>
      <trkpt lat="44.82866" lon="6.05971">
        <ele>2034.29</ele>
        <time>2020-05-26T09:53:50Z</time>
      </trkpt>
      <trkpt lat="44.82867" lon="6.0597">
        <ele>2034.29</ele>
        <time>2020-05-26T09:54:14Z</time>
      </trkpt>
      <trkpt lat="44.8287" lon="6.05974">
        <ele>2034.29</ele>
        <time>2020-05-26T09:54:45Z</time>
      </trkpt>
      <trkpt lat="44.82869" lon="6.05972">
        <ele>2035.73</ele>
        <time>2020-05-26T09:55:12Z</time>
      </trkpt>
      <trkpt lat="44.82873" lon="6.05976">
        <ele>2034.29</ele>
        <time>2020-05-26T09:55:30Z</time>
      </trkpt>
      <trkpt lat="44.82877" lon="6.05975">
        <ele>2034.29</ele>
        <time>2020-05-26T09:56:02Z</time>
      </trkpt>
      <trkpt lat="44.82875" lon="6.05971">
        <ele>2034.29</ele>
        <time>2020-05-26T09:56:34Z</time>
      </trkpt>
      <trkpt lat="44.82872" lon="6.05971">
        <ele>2033.81</ele>
        <time>2020-05-26T09:57:02Z</time>
      </trkpt>
      <trkpt lat="44.82872" lon="6.0597">
        <ele>2033.81</ele>
        <time>2020-05-26T09:57:19Z</time>
      </trkpt>
      <trkpt lat="44.82871" lon="6.05967">
        <ele>2033.33</ele>
        <time>2020-05-26T09:57:50Z</time>
      </trkpt>
      <trkpt lat="44.82874" lon="6.05974">
        <ele>2033.33</ele>
        <time>2020-05-26T09:58:14Z</time>
      </trkpt>
      <trkpt lat="44.82872" lon="6.05973">
        <ele>2033.33</ele>
        <time>2020-05-26T09:58:47Z</time>
      </trkpt>
      <trkpt lat="44.82872" lon="6.0597">
        <ele>2033.33</ele>
        <time>2020-05-26T09:59:23Z</time>
      </trkpt>
      <trkpt lat="44.82873" lon="6.05976">
        <ele>2032.84</ele>
        <time>2020-05-26T09:59:45Z</time>
      </trkpt>
      <trkpt lat="44.82873" lon="6.05979">
        <ele>2033.81</ele>
        <time>2020-05-26T09:59:57Z</time>
      </trkpt>
      <trkpt lat="44.82871" lon="6.05979">
        <ele>2033.81</ele>
        <time>2020-05-26T10:00:26Z</time>
      </trkpt>
      <trkpt lat="44.8287" lon="6.05976">
        <ele>2032.84</ele>
        <time>2020-05-26T10:00:39Z</time>
      </trkpt>
      <trkpt lat="44.82866" lon="6.05974">
        <ele>2032.84</ele>
        <time>2020-05-26T10:01:11Z</time>
      </trkpt>
      <trkpt lat="44.82868" lon="6.05975">
        <ele>2032.84</ele>
        <time>2020-05-26T10:01:45Z</time>
      </trkpt>
      <trkpt lat="44.82866" lon="6.05972">
        <ele>2032.36</ele>
        <time>2020-05-26T10:02:14Z</time>
      </trkpt>
      <trkpt lat="44.82866" lon="6.05972">
        <ele>2034.29</ele>
        <time>2020-05-26T10:02:18Z</time>
      </trkpt>
      <trkpt lat="44.82864" lon="6.05977">
        <ele>2034.29</ele>
        <time>2020-05-26T10:02:28Z</time>
      </trkpt>
      <trkpt lat="44.82864" lon="6.05977">
        <ele>2034.29</ele>
        <time>2020-05-26T10:02:52Z</time>
      </trkpt>
      <trkpt lat="44.82865" lon="6.05977">
        <ele>2032.84</ele>
        <time>2020-05-26T10:03:21Z</time>
      </trkpt>
      <trkpt lat="44.82863" lon="6.05976">
        <ele>2033.33</ele>
        <time>2020-05-26T10:03:24Z</time>
      </trkpt>
      <trkpt lat="44.82858" lon="6.05979">
        <ele>2033.33</ele>
        <time>2020-05-26T10:03:36Z</time>
      </trkpt>
      <trkpt lat="44.82857" lon="6.05977">
        <ele>2034.77</ele>
        <time>2020-05-26T10:03:40Z</time>
      </trkpt>
      <trkpt lat="44.82862" lon="6.05974">
        <ele>2034.77</ele>
        <time>2020-05-26T10:03:53Z</time>
      </trkpt>
      <trkpt lat="44.82863" lon="6.05973">
        <ele>2034.77</ele>
        <time>2020-05-26T10:04:11Z</time>
      </trkpt>
      <trkpt lat="44.82867" lon="6.05972">
        <ele>2034.77</ele>
        <time>2020-05-26T10:04:26Z</time>
      </trkpt>
      <trkpt lat="44.82863" lon="6.05977">
        <ele>2034.77</ele>
        <time>2020-05-26T10:04:43Z</time>
      </trkpt>
      <trkpt lat="44.82857" lon="6.05981">
        <ele>2034.77</ele>
        <time>2020-05-26T10:04:57Z</time>
      </trkpt>
      <trkpt lat="44.82857" lon="6.0598">
        <ele>2033.33</ele>
        <time>2020-05-26T10:05:10Z</time>
      </trkpt>
      <trkpt lat="44.82852" lon="6.0598">
        <ele>2033.33</ele>
        <time>2020-05-26T10:05:26Z</time>
      </trkpt>
      <trkpt lat="44.82843" lon="6.05981">
        <ele>2032.36</ele>
        <time>2020-05-26T10:05:40Z</time>
      </trkpt>
      <trkpt lat="44.82838" lon="6.05981">
        <ele>2031.88</ele>
        <time>2020-05-26T10:05:53Z</time>
      </trkpt>
      <trkpt lat="44.82834" lon="6.05978">
        <ele>2033.33</ele>
        <time>2020-05-26T10:06:12Z</time>
      </trkpt>
      <trkpt lat="44.82831" lon="6.05977">
        <ele>2034.29</ele>
        <time>2020-05-26T10:06:27Z</time>
      </trkpt>
      <trkpt lat="44.82827" lon="6.05977">
        <ele>2034.77</ele>
        <time>2020-05-26T10:06:41Z</time>
      </trkpt>
      <trkpt lat="44.82827" lon="6.05976">
        <ele>2034.77</ele>
        <time>2020-05-26T10:06:58Z</time>
      </trkpt>
      <trkpt lat="44.82825" lon="6.05975">
        <ele>2034.77</ele>
        <time>2020-05-26T10:07:06Z</time>
      </trkpt>
      <trkpt lat="44.82827" lon="6.05975">
        <ele>2033.81</ele>
        <time>2020-05-26T10:07:40Z</time>
      </trkpt>
      <trkpt lat="44.82822" lon="6.05975">
        <ele>2033.81</ele>
        <time>2020-05-26T10:08:18Z</time>
      </trkpt>
      <trkpt lat="44.82825" lon="6.05977">
        <ele>2033.81</ele>
        <time>2020-05-26T10:08:54Z</time>
      </trkpt>
      <trkpt lat="44.82822" lon="6.05975">
        <ele>2033.81</ele>
        <time>2020-05-26T10:09:25Z</time>
      </trkpt>
      <trkpt lat="44.82823" lon="6.05976">
        <ele>2034.29</ele>
        <time>2020-05-26T10:10:07Z</time>
      </trkpt>
      <trkpt lat="44.82825" lon="6.05975">
        <ele>2034.29</ele>
        <time>2020-05-26T10:10:45Z</time>
      </trkpt>
      <trkpt lat="44.82823" lon="6.05973">
        <ele>2034.29</ele>
        <time>2020-05-26T10:11:14Z</time>
      </trkpt>
      <trkpt lat="44.82825" lon="6.05977">
        <ele>2034.29</ele>
        <time>2020-05-26T10:11:50Z</time>
      </trkpt>
      <trkpt lat="44.82824" lon="6.05978">
        <ele>2033.81</ele>
        <time>2020-05-26T10:12:24Z</time>
      </trkpt>
      <trkpt lat="44.82825" lon="6.05976">
        <ele>2033.81</ele>
        <time>2020-05-26T10:13:06Z</time>
      </trkpt>
      <trkpt lat="44.82824" lon="6.05976">
        <ele>2033.81</ele>
        <time>2020-05-26T10:13:37Z</time>
      </trkpt>
      <trkpt lat="44.82825" lon="6.05978">
        <ele>2033.81</ele>
        <time>2020-05-26T10:14:15Z</time>
      </trkpt>
      <trkpt lat="44.82822" lon="6.05978">
        <ele>2033.81</ele>
        <time>2020-05-26T10:14:38Z</time>
      </trkpt>
      <trkpt lat="44.82823" lon="6.05979">
        <ele>2033.81</ele>
        <time>2020-05-26T10:15:14Z</time>
      </trkpt>
      <trkpt lat="44.82822" lon="6.05978">
        <ele>2033.81</ele>
        <time>2020-05-26T10:15:41Z</time>
      </trkpt>
      <trkpt lat="44.82824" lon="6.05979">
        <ele>2033.81</ele>
        <time>2020-05-26T10:16:11Z</time>
      </trkpt>
      <trkpt lat="44.82824" lon="6.05979">
        <ele>2033.81</ele>
        <time>2020-05-26T10:16:41Z</time>
      </trkpt>
      <trkpt lat="44.82826" lon="6.05977">
        <ele>2033.81</ele>
        <time>2020-05-26T10:17:21Z</time>
      </trkpt>
      <trkpt lat="44.82826" lon="6.05979">
        <ele>2033.81</ele>
        <time>2020-05-26T10:17:51Z</time>
      </trkpt>
      <trkpt lat="44.82824" lon="6.05976">
        <ele>2033.81</ele>
        <time>2020-05-26T10:18:27Z</time>
      </trkpt>
      <trkpt lat="44.82823" lon="6.05974">
        <ele>2033.81</ele>
        <time>2020-05-26T10:18:56Z</time>
      </trkpt>
      <trkpt lat="44.82824" lon="6.05976">
        <ele>2033.81</ele>
        <time>2020-05-26T10:19:19Z</time>
      </trkpt>
      <trkpt lat="44.82824" lon="6.05977">
        <ele>2033.81</ele>
        <time>2020-05-26T10:19:56Z</time>
      </trkpt>
      <trkpt lat="44.82825" lon="6.05981">
        <ele>2033.81</ele>
        <time>2020-05-26T10:20:31Z</time>
      </trkpt>
      <trkpt lat="44.82825" lon="6.05981">
        <ele>2033.81</ele>
        <time>2020-05-26T10:21:00Z</time>
      </trkpt>
      <trkpt lat="44.82826" lon="6.05982">
        <ele>2033.33</ele>
        <time>2020-05-26T10:21:22Z</time>
      </trkpt>
      <trkpt lat="44.82827" lon="6.05981">
        <ele>2033.81</ele>
        <time>2020-05-26T10:21:52Z</time>
      </trkpt>
      <trkpt lat="44.82826" lon="6.05978">
        <ele>2033.81</ele>
        <time>2020-05-26T10:22:24Z</time>
      </trkpt>
      <trkpt lat="44.82825" lon="6.05983">
        <ele>2033.81</ele>
        <time>2020-05-26T10:22:49Z</time>
      </trkpt>
      <trkpt lat="44.82825" lon="6.05979">
        <ele>2033.81</ele>
        <time>2020-05-26T10:23:18Z</time>
      </trkpt>
      <trkpt lat="44.82825" lon="6.0598">
        <ele>2033.81</ele>
        <time>2020-05-26T10:23:42Z</time>
      </trkpt>
      <trkpt lat="44.82826" lon="6.05982">
        <ele>2033.81</ele>
        <time>2020-05-26T10:24:08Z</time>
      </trkpt>
      <trkpt lat="44.82826" lon="6.05977">
        <ele>2033.81</ele>
        <time>2020-05-26T10:24:29Z</time>
      </trkpt>
      <trkpt lat="44.82825" lon="6.05978">
        <ele>2033.81</ele>
        <time>2020-05-26T10:24:58Z</time>
      </trkpt>
      <trkpt lat="44.82826" lon="6.0598">
        <ele>2033.81</ele>
        <time>2020-05-26T10:25:29Z</time>
      </trkpt>
      <trkpt lat="44.82824" lon="6.0598">
        <ele>2033.81</ele>
        <time>2020-05-26T10:25:59Z</time>
      </trkpt>
      <trkpt lat="44.82826" lon="6.0598">
        <ele>2034.29</ele>
        <time>2020-05-26T10:26:35Z</time>
      </trkpt>
      <trkpt lat="44.82827" lon="6.0598">
        <ele>2034.29</ele>
        <time>2020-05-26T10:27:04Z</time>
      </trkpt>
      <trkpt lat="44.82826" lon="6.05977">
        <ele>2034.29</ele>
        <time>2020-05-26T10:27:34Z</time>
      </trkpt>
      <trkpt lat="44.82826" lon="6.05978">
        <ele>2034.29</ele>
        <time>2020-05-26T10:27:57Z</time>
      </trkpt>
      <trkpt lat="44.82827" lon="6.05977">
        <ele>2034.29</ele>
        <time>2020-05-26T10:28:19Z</time>
      </trkpt>
      <trkpt lat="44.82826" lon="6.05978">
        <ele>2034.77</ele>
        <time>2020-05-26T10:28:42Z</time>
      </trkpt>
      <trkpt lat="44.82826" lon="6.05978">
        <ele>2034.77</ele>
        <time>2020-05-26T10:29:05Z</time>
      </trkpt>
      <trkpt lat="44.82826" lon="6.05978">
        <ele>2034.77</ele>
        <time>2020-05-26T10:29:37Z</time>
      </trkpt>
      <trkpt lat="44.82824" lon="6.05984">
        <ele>2034.77</ele>
        <time>2020-05-26T10:29:59Z</time>
      </trkpt>
      <trkpt lat="44.82824" lon="6.05978">
        <ele>2034.77</ele>
        <time>2020-05-26T10:30:24Z</time>
      </trkpt>
      <trkpt lat="44.82828" lon="6.05976">
        <ele>2034.77</ele>
        <time>2020-05-26T10:30:52Z</time>
      </trkpt>
      <trkpt lat="44.82827" lon="6.05979">
        <ele>2034.77</ele>
        <time>2020-05-26T10:31:20Z</time>
      </trkpt>
      <trkpt lat="44.82825" lon="6.05974">
        <ele>2034.77</ele>
        <time>2020-05-26T10:31:45Z</time>
      </trkpt>
      <trkpt lat="44.82824" lon="6.05982">
        <ele>2035.25</ele>
        <time>2020-05-26T10:32:11Z</time>
      </trkpt>
      <trkpt lat="44.82822" lon="6.05979">
        <ele>2035.25</ele>
        <time>2020-05-26T10:32:44Z</time>
      </trkpt>
      <trkpt lat="44.82822" lon="6.05982">
        <ele>2035.25</ele>
        <time>2020-05-26T10:33:07Z</time>
      </trkpt>
      <trkpt lat="44.82824" lon="6.05974">
        <ele>2035.73</ele>
        <time>2020-05-26T10:33:34Z</time>
      </trkpt>
      <trkpt lat="44.82826" lon="6.05977">
        <ele>2035.73</ele>
        <time>2020-05-26T10:33:58Z</time>
      </trkpt>
      <trkpt lat="44.82829" lon="6.05973">
        <ele>2035.73</ele>
        <time>2020-05-26T10:34:21Z</time>
      </trkpt>
      <trkpt lat="44.82827" lon="6.05976">
        <ele>2035.73</ele>
        <time>2020-05-26T10:34:46Z</time>
      </trkpt>
      <trkpt lat="44.8283" lon="6.05975">
        <ele>2035.73</ele>
        <time>2020-05-26T10:35:16Z</time>
      </trkpt>
      <trkpt lat="44.82831" lon="6.05971">
        <ele>2035.73</ele>
        <time>2020-05-26T10:35:47Z</time>
      </trkpt>
      <trkpt lat="44.82829" lon="6.05975">
        <ele>2036.21</ele>
        <time>2020-05-26T10:36:16Z</time>
      </trkpt>
      <trkpt lat="44.82825" lon="6.05976">
        <ele>2036.21</ele>
        <time>2020-05-26T10:36:48Z</time>
      </trkpt>
      <trkpt lat="44.82826" lon="6.05976">
        <ele>2036.21</ele>
        <time>2020-05-26T10:37:19Z</time>
      </trkpt>
      <trkpt lat="44.82827" lon="6.05975">
        <ele>2036.21</ele>
        <time>2020-05-26T10:37:40Z</time>
      </trkpt>
      <trkpt lat="44.82826" lon="6.05983">
        <ele>2036.69</ele>
        <time>2020-05-26T10:38:07Z</time>
      </trkpt>
      <trkpt lat="44.82823" lon="6.05982">
        <ele>2036.69</ele>
        <time>2020-05-26T10:38:34Z</time>
      </trkpt>
      <trkpt lat="44.82823" lon="6.05981">
        <ele>2036.69</ele>
        <time>2020-05-26T10:38:57Z</time>
      </trkpt>
      <trkpt lat="44.82824" lon="6.05986">
        <ele>2037.17</ele>
        <time>2020-05-26T10:39:37Z</time>
      </trkpt>
      <trkpt lat="44.8282" lon="6.05979">
        <ele>2037.17</ele>
        <time>2020-05-26T10:40:09Z</time>
      </trkpt>
      <trkpt lat="44.82823" lon="6.05975">
        <ele>2037.17</ele>
        <time>2020-05-26T10:40:34Z</time>
      </trkpt>
      <trkpt lat="44.82823" lon="6.05972">
        <ele>2037.17</ele>
        <time>2020-05-26T10:41:09Z</time>
      </trkpt>
      <trkpt lat="44.82822" lon="6.05974">
        <ele>2037.65</ele>
        <time>2020-05-26T10:41:31Z</time>
      </trkpt>
      <trkpt lat="44.82821" lon="6.05974">
        <ele>2037.65</ele>
        <time>2020-05-26T10:41:54Z</time>
      </trkpt>
      <trkpt lat="44.8282" lon="6.05976">
        <ele>2037.65</ele>
        <time>2020-05-26T10:42:10Z</time>
      </trkpt>
      <trkpt lat="44.8282" lon="6.05973">
        <ele>2037.65</ele>
        <time>2020-05-26T10:42:30Z</time>
      </trkpt>
      <trkpt lat="44.8282" lon="6.05975">
        <ele>2037.65</ele>
        <time>2020-05-26T10:42:49Z</time>
      </trkpt>
      <trkpt lat="44.82818" lon="6.05978">
        <ele>2037.65</ele>
        <time>2020-05-26T10:43:07Z</time>
      </trkpt>
      <trkpt lat="44.82819" lon="6.05974">
        <ele>2038.13</ele>
        <time>2020-05-26T10:43:34Z</time>
      </trkpt>
      <trkpt lat="44.8282" lon="6.05972">
        <ele>2038.13</ele>
        <time>2020-05-26T10:44:03Z</time>
      </trkpt>
      <trkpt lat="44.82819" lon="6.05978">
        <ele>2038.61</ele>
        <time>2020-05-26T10:44:33Z</time>
      </trkpt>
      <trkpt lat="44.8282" lon="6.05975">
        <ele>2038.61</ele>
        <time>2020-05-26T10:44:59Z</time>
      </trkpt>
      <trkpt lat="44.82822" lon="6.05977">
        <ele>2039.09</ele>
        <time>2020-05-26T10:45:27Z</time>
      </trkpt>
      <trkpt lat="44.82821" lon="6.05974">
        <ele>2039.09</ele>
        <time>2020-05-26T10:46:03Z</time>
      </trkpt>
      <trkpt lat="44.8282" lon="6.05978">
        <ele>2039.09</ele>
        <time>2020-05-26T10:46:45Z</time>
      </trkpt>
      <trkpt lat="44.82821" lon="6.05977">
        <ele>2040.54</ele>
        <time>2020-05-26T10:47:20Z</time>
      </trkpt>
      <trkpt lat="44.82821" lon="6.05979">
        <ele>2040.54</ele>
        <time>2020-05-26T10:48:02Z</time>
      </trkpt>
      <trkpt lat="44.82819" lon="6.05975">
        <ele>2041.02</ele>
        <time>2020-05-26T10:48:37Z</time>
      </trkpt>
      <trkpt lat="44.82821" lon="6.05974">
        <ele>2041.02</ele>
        <time>2020-05-26T10:49:09Z</time>
      </trkpt>
      <trkpt lat="44.82819" lon="6.05977">
        <ele>2041.02</ele>
        <time>2020-05-26T10:49:36Z</time>
      </trkpt>
      <trkpt lat="44.82822" lon="6.05974">
        <ele>2041.5</ele>
        <time>2020-05-26T10:50:03Z</time>
      </trkpt>
      <trkpt lat="44.82823" lon="6.05975">
        <ele>2041.5</ele>
        <time>2020-05-26T10:50:33Z</time>
      </trkpt>
      <trkpt lat="44.82821" lon="6.05974">
        <ele>2041.5</ele>
        <time>2020-05-26T10:51:09Z</time>
      </trkpt>
      <trkpt lat="44.82824" lon="6.05976">
        <ele>2041.5</ele>
        <time>2020-05-26T10:51:44Z</time>
      </trkpt>
      <trkpt lat="44.82823" lon="6.05979">
        <ele>2041.98</ele>
        <time>2020-05-26T10:52:20Z</time>
      </trkpt>
      <trkpt lat="44.8282" lon="6.05976">
        <ele>2041.98</ele>
        <time>2020-05-26T10:52:46Z</time>
      </trkpt>
      <trkpt lat="44.82819" lon="6.05974">
        <ele>2041.98</ele>
        <time>2020-05-26T10:53:22Z</time>
      </trkpt>
      <trkpt lat="44.8282" lon="6.05977">
        <ele>2042.46</ele>
        <time>2020-05-26T10:53:58Z</time>
      </trkpt>
      <trkpt lat="44.82818" lon="6.05975">
        <ele>2042.46</ele>
        <time>2020-05-26T10:54:31Z</time>
      </trkpt>
      <trkpt lat="44.8282" lon="6.05975">
        <ele>2042.94</ele>
        <time>2020-05-26T10:55:03Z</time>
      </trkpt>
      <trkpt lat="44.82819" lon="6.05978">
        <ele>2042.94</ele>
        <time>2020-05-26T10:55:38Z</time>
      </trkpt>
      <trkpt lat="44.82821" lon="6.05974">
        <ele>2042.94</ele>
        <time>2020-05-26T10:56:14Z</time>
      </trkpt>
      <trkpt lat="44.82822" lon="6.05973">
        <ele>2042.94</ele>
        <time>2020-05-26T10:56:39Z</time>
      </trkpt>
      <trkpt lat="44.82821" lon="6.05975">
        <ele>2042.94</ele>
        <time>2020-05-26T10:57:07Z</time>
      </trkpt>
      <trkpt lat="44.82821" lon="6.05975">
        <ele>2042.94</ele>
        <time>2020-05-26T10:57:30Z</time>
      </trkpt>
      <trkpt lat="44.82821" lon="6.05975">
        <ele>2043.42</ele>
        <time>2020-05-26T10:58:01Z</time>
      </trkpt>
      <trkpt lat="44.82821" lon="6.05982">
        <ele>2043.42</ele>
        <time>2020-05-26T10:58:23Z</time>
      </trkpt>
      <trkpt lat="44.82822" lon="6.05976">
        <ele>2043.42</ele>
        <time>2020-05-26T10:58:49Z</time>
      </trkpt>
      <trkpt lat="44.82822" lon="6.05974">
        <ele>2043.42</ele>
        <time>2020-05-26T10:59:10Z</time>
      </trkpt>
      <trkpt lat="44.82818" lon="6.05975">
        <ele>2043.42</ele>
        <time>2020-05-26T10:59:45Z</time>
      </trkpt>
      <trkpt lat="44.82821" lon="6.05977">
        <ele>2043.42</ele>
        <time>2020-05-26T11:00:18Z</time>
      </trkpt>
      <trkpt lat="44.82819" lon="6.05979">
        <ele>2043.9</ele>
        <time>2020-05-26T11:00:49Z</time>
      </trkpt>
      <trkpt lat="44.82817" lon="6.05979">
        <ele>2043.9</ele>
        <time>2020-05-26T11:01:20Z</time>
      </trkpt>
      <trkpt lat="44.82819" lon="6.05975">
        <ele>2043.9</ele>
        <time>2020-05-26T11:01:51Z</time>
      </trkpt>
      <trkpt lat="44.82819" lon="6.05978">
        <ele>2043.9</ele>
        <time>2020-05-26T11:02:20Z</time>
      </trkpt>
      <trkpt lat="44.8282" lon="6.05975">
        <ele>2043.9</ele>
        <time>2020-05-26T11:02:50Z</time>
      </trkpt>
      <trkpt lat="44.82822" lon="6.05976">
        <ele>2044.38</ele>
        <time>2020-05-26T11:03:26Z</time>
      </trkpt>
      <trkpt lat="44.82819" lon="6.05975">
        <ele>2044.38</ele>
        <time>2020-05-26T11:04:05Z</time>
      </trkpt>
      <trkpt lat="44.82822" lon="6.05977">
        <ele>2044.38</ele>
        <time>2020-05-26T11:04:34Z</time>
      </trkpt>
      <trkpt lat="44.82823" lon="6.05978">
        <ele>2044.38</ele>
        <time>2020-05-26T11:05:03Z</time>
      </trkpt>
      <trkpt lat="44.82823" lon="6.05979">
        <ele>2044.38</ele>
        <time>2020-05-26T11:05:34Z</time>
      </trkpt>
      <trkpt lat="44.82821" lon="6.05974">
        <ele>2044.38</ele>
        <time>2020-05-26T11:06:03Z</time>
      </trkpt>
      <trkpt lat="44.82823" lon="6.05979">
        <ele>2044.38</ele>
        <time>2020-05-26T11:06:38Z</time>
      </trkpt>
      <trkpt lat="44.82821" lon="6.05976">
        <ele>2044.38</ele>
        <time>2020-05-26T11:07:04Z</time>
      </trkpt>
      <trkpt lat="44.82822" lon="6.05978">
        <ele>2044.38</ele>
        <time>2020-05-26T11:07:40Z</time>
      </trkpt>
      <trkpt lat="44.82823" lon="6.05976">
        <ele>2044.38</ele>
        <time>2020-05-26T11:08:21Z</time>
      </trkpt>
      <trkpt lat="44.82819" lon="6.05978">
        <ele>2044.38</ele>
        <time>2020-05-26T11:08:53Z</time>
      </trkpt>
      <trkpt lat="44.82821" lon="6.05979">
        <ele>2044.86</ele>
        <time>2020-05-26T11:09:28Z</time>
      </trkpt>
      <trkpt lat="44.82821" lon="6.0598">
        <ele>2044.86</ele>
        <time>2020-05-26T11:10:07Z</time>
      </trkpt>
      <trkpt lat="44.82821" lon="6.0598">
        <ele>2045.34</ele>
        <time>2020-05-26T11:10:37Z</time>
      </trkpt>
      <trkpt lat="44.8282" lon="6.05979">
        <ele>2045.34</ele>
        <time>2020-05-26T11:11:21Z</time>
      </trkpt>
      <trkpt lat="44.8282" lon="6.05981">
        <ele>2045.34</ele>
        <time>2020-05-26T11:11:57Z</time>
      </trkpt>
      <trkpt lat="44.82819" lon="6.05979">
        <ele>2045.34</ele>
        <time>2020-05-26T11:12:40Z</time>
      </trkpt>
      <trkpt lat="44.8282" lon="6.0598">
        <ele>2045.34</ele>
        <time>2020-05-26T11:13:19Z</time>
      </trkpt>
      <trkpt lat="44.82821" lon="6.0598">
        <ele>2045.82</ele>
        <time>2020-05-26T11:13:57Z</time>
      </trkpt>
      <trkpt lat="44.82822" lon="6.05977">
        <ele>2045.82</ele>
        <time>2020-05-26T11:14:25Z</time>
      </trkpt>
      <trkpt lat="44.82823" lon="6.05976">
        <ele>2045.82</ele>
        <time>2020-05-26T11:14:59Z</time>
      </trkpt>
      <trkpt lat="44.82824" lon="6.05975">
        <ele>2045.82</ele>
        <time>2020-05-26T11:15:30Z</time>
      </trkpt>
      <trkpt lat="44.82823" lon="6.05975">
        <ele>2045.82</ele>
        <time>2020-05-26T11:15:45Z</time>
      </trkpt>
      <trkpt lat="44.82821" lon="6.05973">
        <ele>2045.34</ele>
        <time>2020-05-26T11:16:11Z</time>
      </trkpt>
      <trkpt lat="44.82822" lon="6.05974">
        <ele>2045.34</ele>
        <time>2020-05-26T11:16:32Z</time>
      </trkpt>
      <trkpt lat="44.82823" lon="6.05977">
        <ele>2044.38</ele>
        <time>2020-05-26T11:16:39Z</time>
      </trkpt>
      <trkpt lat="44.82822" lon="6.05976">
        <ele>2045.34</ele>
        <time>2020-05-26T11:16:47Z</time>
      </trkpt>
      <trkpt lat="44.82825" lon="6.05976">
        <ele>2045.34</ele>
        <time>2020-05-26T11:17:09Z</time>
      </trkpt>
      <trkpt lat="44.82825" lon="6.05976">
        <ele>2046.3</ele>
        <time>2020-05-26T11:17:23Z</time>
      </trkpt>
      <trkpt lat="44.82825" lon="6.05975">
        <ele>2044.86</ele>
        <time>2020-05-26T11:17:25Z</time>
      </trkpt>
      <trkpt lat="44.82825" lon="6.05971">
        <ele>2043.9</ele>
        <time>2020-05-26T11:17:50Z</time>
      </trkpt>
      <trkpt lat="44.82826" lon="6.0597">
        <ele>2043.9</ele>
        <time>2020-05-26T11:18:08Z</time>
      </trkpt>
      <trkpt lat="44.82828" lon="6.05972">
        <ele>2043.9</ele>
        <time>2020-05-26T11:18:32Z</time>
      </trkpt>
      <trkpt lat="44.82831" lon="6.0597">
        <ele>2042.94</ele>
        <time>2020-05-26T11:18:56Z</time>
      </trkpt>
      <trkpt lat="44.82835" lon="6.05973">
        <ele>2041.98</ele>
        <time>2020-05-26T11:19:05Z</time>
      </trkpt>
      <trkpt lat="44.8284" lon="6.05978">
        <ele>2041.5</ele>
        <time>2020-05-26T11:19:17Z</time>
      </trkpt>
      <trkpt lat="44.82848" lon="6.05977">
        <ele>2041.5</ele>
        <time>2020-05-26T11:19:30Z</time>
      </trkpt>
      <trkpt lat="44.8285" lon="6.05978">
        <ele>2042.94</ele>
        <time>2020-05-26T11:19:33Z</time>
      </trkpt>
      <trkpt lat="44.82858" lon="6.05979">
        <ele>2043.9</ele>
        <time>2020-05-26T11:19:47Z</time>
      </trkpt>
      <trkpt lat="44.82859" lon="6.0598">
        <ele>2043.42</ele>
        <time>2020-05-26T11:20:04Z</time>
      </trkpt>
      <trkpt lat="44.82861" lon="6.05977">
        <ele>2043.42</ele>
        <time>2020-05-26T11:20:10Z</time>
      </trkpt>
      <trkpt lat="44.82871" lon="6.05976">
        <ele>2042.94</ele>
        <time>2020-05-26T11:20:20Z</time>
      </trkpt>
      <trkpt lat="44.8288" lon="6.05983">
        <ele>2040.54</ele>
        <time>2020-05-26T11:20:34Z</time>
      </trkpt>
      <trkpt lat="44.82885" lon="6.05989">
        <ele>2039.57</ele>
        <time>2020-05-26T11:20:46Z</time>
      </trkpt>
      <trkpt lat="44.82893" lon="6.05999">
        <ele>2037.65</ele>
        <time>2020-05-26T11:21:01Z</time>
      </trkpt>
      <trkpt lat="44.82895" lon="6.06002">
        <ele>2037.65</ele>
        <time>2020-05-26T11:21:04Z</time>
      </trkpt>
      <trkpt lat="44.82897" lon="6.06014">
        <ele>2036.69</ele>
        <time>2020-05-26T11:21:18Z</time>
      </trkpt>
      <trkpt lat="44.82895" lon="6.06018">
        <ele>2037.65</ele>
        <time>2020-05-26T11:21:31Z</time>
      </trkpt>
      <trkpt lat="44.82891" lon="6.06023">
        <ele>2041.02</ele>
        <time>2020-05-26T11:21:45Z</time>
      </trkpt>
      <trkpt lat="44.82886" lon="6.06023">
        <ele>2041.5</ele>
        <time>2020-05-26T11:21:56Z</time>
      </trkpt>
      <trkpt lat="44.82881" lon="6.06034">
        <ele>2041.5</ele>
        <time>2020-05-26T11:22:09Z</time>
      </trkpt>
      <trkpt lat="44.82881" lon="6.06049">
        <ele>2044.38</ele>
        <time>2020-05-26T11:22:26Z</time>
      </trkpt>
      <trkpt lat="44.82891" lon="6.06057">
        <ele>2044.86</ele>
        <time>2020-05-26T11:22:42Z</time>
      </trkpt>
      <trkpt lat="44.82896" lon="6.0606">
        <ele>2044.38</ele>
        <time>2020-05-26T11:22:55Z</time>
      </trkpt>
      <trkpt lat="44.82897" lon="6.06059">
        <ele>2043.42</ele>
        <time>2020-05-26T11:22:57Z</time>
      </trkpt>
      <trkpt lat="44.82902" lon="6.06058">
        <ele>2041.98</ele>
        <time>2020-05-26T11:23:06Z</time>
      </trkpt>
      <trkpt lat="44.82909" lon="6.06063">
        <ele>2041.5</ele>
        <time>2020-05-26T11:23:19Z</time>
      </trkpt>
      <trkpt lat="44.82913" lon="6.06067">
        <ele>2042.94</ele>
        <time>2020-05-26T11:23:26Z</time>
      </trkpt>
      <trkpt lat="44.82922" lon="6.06073">
        <ele>2043.9</ele>
        <time>2020-05-26T11:23:40Z</time>
      </trkpt>
      <trkpt lat="44.82927" lon="6.06076">
        <ele>2044.38</ele>
        <time>2020-05-26T11:23:47Z</time>
      </trkpt>
      <trkpt lat="44.82933" lon="6.06079">
        <ele>2042.94</ele>
        <time>2020-05-26T11:23:54Z</time>
      </trkpt>
      <trkpt lat="44.82943" lon="6.06084">
        <ele>2041.02</ele>
        <time>2020-05-26T11:24:08Z</time>
      </trkpt>
      <trkpt lat="44.82949" lon="6.06088">
        <ele>2039.57</ele>
        <time>2020-05-26T11:24:20Z</time>
      </trkpt>
      <trkpt lat="44.8296" lon="6.06095">
        <ele>2036.69</ele>
        <time>2020-05-26T11:24:36Z</time>
      </trkpt>
      <trkpt lat="44.82968" lon="6.06097">
        <ele>2036.21</ele>
        <time>2020-05-26T11:24:50Z</time>
      </trkpt>
      <trkpt lat="44.82977" lon="6.06101">
        <ele>2034.77</ele>
        <time>2020-05-26T11:25:04Z</time>
      </trkpt>
      <trkpt lat="44.82987" lon="6.06103">
        <ele>2031.4</ele>
        <time>2020-05-26T11:25:20Z</time>
      </trkpt>
      <trkpt lat="44.82994" lon="6.06104">
        <ele>2028.52</ele>
        <time>2020-05-26T11:25:35Z</time>
      </trkpt>
      <trkpt lat="44.83" lon="6.06105">
        <ele>2025.64</ele>
        <time>2020-05-26T11:25:49Z</time>
      </trkpt>
      <trkpt lat="44.83005" lon="6.06104">
        <ele>2022.75</ele>
        <time>2020-05-26T11:26:04Z</time>
      </trkpt>
      <trkpt lat="44.83003" lon="6.06103">
        <ele>2021.31</ele>
        <time>2020-05-26T11:26:19Z</time>
      </trkpt>
      <trkpt lat="44.83003" lon="6.06095">
        <ele>2018.91</ele>
        <time>2020-05-26T11:26:32Z</time>
      </trkpt>
      <trkpt lat="44.83008" lon="6.06093">
        <ele>2016.98</ele>
        <time>2020-05-26T11:26:45Z</time>
      </trkpt>
      <trkpt lat="44.8301" lon="6.06092">
        <ele>2014.58</ele>
        <time>2020-05-26T11:27:00Z</time>
      </trkpt>
      <trkpt lat="44.83008" lon="6.06089">
        <ele>2013.14</ele>
        <time>2020-05-26T11:27:14Z</time>
      </trkpt>
      <trkpt lat="44.83003" lon="6.06087">
        <ele>2010.73</ele>
        <time>2020-05-26T11:27:28Z</time>
      </trkpt>
      <trkpt lat="44.83002" lon="6.06085">
        <ele>2009.29</ele>
        <time>2020-05-26T11:27:43Z</time>
      </trkpt>
      <trkpt lat="44.83004" lon="6.06083">
        <ele>2007.85</ele>
        <time>2020-05-26T11:28:00Z</time>
      </trkpt>
      <trkpt lat="44.83001" lon="6.06081">
        <ele>2005.93</ele>
        <time>2020-05-26T11:28:13Z</time>
      </trkpt>
      <trkpt lat="44.83005" lon="6.06077">
        <ele>2002.56</ele>
        <time>2020-05-26T11:28:24Z</time>
      </trkpt>
      <trkpt lat="44.83007" lon="6.06071">
        <ele>1999.68</ele>
        <time>2020-05-26T11:28:38Z</time>
      </trkpt>
      <trkpt lat="44.83012" lon="6.06072">
        <ele>1996.32</ele>
        <time>2020-05-26T11:28:51Z</time>
      </trkpt>
      <trkpt lat="44.8301" lon="6.06064">
        <ele>1992.95</ele>
        <time>2020-05-26T11:29:06Z</time>
      </trkpt>
      <trkpt lat="44.83009" lon="6.0606">
        <ele>1991.51</ele>
        <time>2020-05-26T11:29:12Z</time>
      </trkpt>
      <trkpt lat="44.83007" lon="6.06058">
        <ele>1990.07</ele>
        <time>2020-05-26T11:29:19Z</time>
      </trkpt>
      <trkpt lat="44.83001" lon="6.06055">
        <ele>1988.62</ele>
        <time>2020-05-26T11:29:33Z</time>
      </trkpt>
      <trkpt lat="44.83004" lon="6.06049">
        <ele>1986.22</ele>
        <time>2020-05-26T11:29:47Z</time>
      </trkpt>
      <trkpt lat="44.83012" lon="6.0604">
        <ele>1983.82</ele>
        <time>2020-05-26T11:30:03Z</time>
      </trkpt>
      <trkpt lat="44.83015" lon="6.06038">
        <ele>1980.93</ele>
        <time>2020-05-26T11:30:16Z</time>
      </trkpt>
      <trkpt lat="44.8301" lon="6.06036">
        <ele>1978.53</ele>
        <time>2020-05-26T11:30:29Z</time>
      </trkpt>
      <trkpt lat="44.83009" lon="6.06037">
        <ele>1976.13</ele>
        <time>2020-05-26T11:30:44Z</time>
      </trkpt>
      <trkpt lat="44.83005" lon="6.06036">
        <ele>1972.76</ele>
        <time>2020-05-26T11:30:57Z</time>
      </trkpt>
      <trkpt lat="44.83002" lon="6.06029">
        <ele>1969.4</ele>
        <time>2020-05-26T11:31:09Z</time>
      </trkpt>
      <trkpt lat="44.83002" lon="6.06023">
        <ele>1966.99</ele>
        <time>2020-05-26T11:31:23Z</time>
      </trkpt>
      <trkpt lat="44.83006" lon="6.06016">
        <ele>1964.11</ele>
        <time>2020-05-26T11:31:36Z</time>
      </trkpt>
      <trkpt lat="44.83007" lon="6.0601">
        <ele>1961.23</ele>
        <time>2020-05-26T11:31:47Z</time>
      </trkpt>
      <trkpt lat="44.83008" lon="6.06005">
        <ele>1957.38</ele>
        <time>2020-05-26T11:31:57Z</time>
      </trkpt>
      <trkpt lat="44.83011" lon="6.06006">
        <ele>1955.94</ele>
        <time>2020-05-26T11:32:12Z</time>
      </trkpt>
      <trkpt lat="44.83013" lon="6.05999">
        <ele>1953.54</ele>
        <time>2020-05-26T11:32:24Z</time>
      </trkpt>
      <trkpt lat="44.83015" lon="6.05993">
        <ele>1950.65</ele>
        <time>2020-05-26T11:32:37Z</time>
      </trkpt>
      <trkpt lat="44.8302" lon="6.05987">
        <ele>1946.81</ele>
        <time>2020-05-26T11:32:51Z</time>
      </trkpt>
      <trkpt lat="44.83022" lon="6.05981">
        <ele>1943.92</ele>
        <time>2020-05-26T11:33:03Z</time>
      </trkpt>
      <trkpt lat="44.83021" lon="6.05978">
        <ele>1941.04</ele>
        <time>2020-05-26T11:33:17Z</time>
      </trkpt>
      <trkpt lat="44.83023" lon="6.05971">
        <ele>1937.67</ele>
        <time>2020-05-26T11:33:28Z</time>
      </trkpt>
      <trkpt lat="44.83023" lon="6.05971">
        <ele>1937.67</ele>
        <time>2020-05-26T11:33:29Z</time>
      </trkpt>
      <trkpt lat="44.83025" lon="6.05964">
        <ele>1935.27</ele>
        <time>2020-05-26T11:33:41Z</time>
      </trkpt>
      <trkpt lat="44.83029" lon="6.05958">
        <ele>1932.39</ele>
        <time>2020-05-26T11:33:53Z</time>
      </trkpt>
      <trkpt lat="44.83029" lon="6.05954">
        <ele>1929.98</ele>
        <time>2020-05-26T11:34:00Z</time>
      </trkpt>
      <trkpt lat="44.83032" lon="6.05948">
        <ele>1927.1</ele>
        <time>2020-05-26T11:34:13Z</time>
      </trkpt>
      <trkpt lat="44.83029" lon="6.05941">
        <ele>1923.25</ele>
        <time>2020-05-26T11:34:25Z</time>
      </trkpt>
      <trkpt lat="44.8303" lon="6.05936">
        <ele>1921.81</ele>
        <time>2020-05-26T11:34:30Z</time>
      </trkpt>
      <trkpt lat="44.83034" lon="6.05927">
        <ele>1918.45</ele>
        <time>2020-05-26T11:34:43Z</time>
      </trkpt>
      <trkpt lat="44.8304" lon="6.05922">
        <ele>1915.08</ele>
        <time>2020-05-26T11:34:55Z</time>
      </trkpt>
      <trkpt lat="44.83046" lon="6.05918">
        <ele>1912.2</ele>
        <time>2020-05-26T11:35:05Z</time>
      </trkpt>
      <trkpt lat="44.83049" lon="6.05913">
        <ele>1909.32</ele>
        <time>2020-05-26T11:35:19Z</time>
      </trkpt>
      <trkpt lat="44.83052" lon="6.05905">
        <ele>1906.43</ele>
        <time>2020-05-26T11:35:31Z</time>
      </trkpt>
      <trkpt lat="44.83053" lon="6.05901">
        <ele>1904.99</ele>
        <time>2020-05-26T11:35:35Z</time>
      </trkpt>
      <trkpt lat="44.83054" lon="6.05897">
        <ele>1901.63</ele>
        <time>2020-05-26T11:35:47Z</time>
      </trkpt>
      <trkpt lat="44.83055" lon="6.05888">
        <ele>1898.26</ele>
        <time>2020-05-26T11:36:00Z</time>
      </trkpt>
      <trkpt lat="44.83059" lon="6.05882">
        <ele>1895.38</ele>
        <time>2020-05-26T11:36:15Z</time>
      </trkpt>
      <trkpt lat="44.83059" lon="6.05881">
        <ele>1894.42</ele>
        <time>2020-05-26T11:36:17Z</time>
      </trkpt>
      <trkpt lat="44.83061" lon="6.05872">
        <ele>1890.57</ele>
        <time>2020-05-26T11:36:30Z</time>
      </trkpt>
      <trkpt lat="44.8306" lon="6.05867">
        <ele>1887.69</ele>
        <time>2020-05-26T11:36:41Z</time>
      </trkpt>
      <trkpt lat="44.83061" lon="6.05866">
        <ele>1887.69</ele>
        <time>2020-05-26T11:36:42Z</time>
      </trkpt>
      <trkpt lat="44.83063" lon="6.05855">
        <ele>1884.8</ele>
        <time>2020-05-26T11:36:55Z</time>
      </trkpt>
      <trkpt lat="44.83065" lon="6.05847">
        <ele>1881.44</ele>
        <time>2020-05-26T11:37:06Z</time>
      </trkpt>
      <trkpt lat="44.83066" lon="6.05838">
        <ele>1878.55</ele>
        <time>2020-05-26T11:37:19Z</time>
      </trkpt>
      <trkpt lat="44.83064" lon="6.05832">
        <ele>1875.67</ele>
        <time>2020-05-26T11:37:31Z</time>
      </trkpt>
      <trkpt lat="44.83063" lon="6.0583">
        <ele>1874.23</ele>
        <time>2020-05-26T11:37:35Z</time>
      </trkpt>
      <trkpt lat="44.83063" lon="6.05822">
        <ele>1871.34</ele>
        <time>2020-05-26T11:37:49Z</time>
      </trkpt>
      <trkpt lat="44.83061" lon="6.05811">
        <ele>1867.98</ele>
        <time>2020-05-26T11:38:05Z</time>
      </trkpt>
      <trkpt lat="44.83068" lon="6.05802">
        <ele>1865.09</ele>
        <time>2020-05-26T11:38:18Z</time>
      </trkpt>
      <trkpt lat="44.83073" lon="6.05796">
        <ele>1861.25</ele>
        <time>2020-05-26T11:38:33Z</time>
      </trkpt>
      <trkpt lat="44.83076" lon="6.05794">
        <ele>1858.85</ele>
        <time>2020-05-26T11:38:40Z</time>
      </trkpt>
      <trkpt lat="44.83077" lon="6.05786">
        <ele>1856.44</ele>
        <time>2020-05-26T11:38:55Z</time>
      </trkpt>
      <trkpt lat="44.83081" lon="6.05781">
        <ele>1853.56</ele>
        <time>2020-05-26T11:39:08Z</time>
      </trkpt>
      <trkpt lat="44.83079" lon="6.05781">
        <ele>1851.64</ele>
        <time>2020-05-26T11:39:23Z</time>
      </trkpt>
      <trkpt lat="44.83077" lon="6.05778">
        <ele>1850.19</ele>
        <time>2020-05-26T11:39:39Z</time>
      </trkpt>
      <trkpt lat="44.83075" lon="6.05772">
        <ele>1847.31</ele>
        <time>2020-05-26T11:39:53Z</time>
      </trkpt>
      <trkpt lat="44.83077" lon="6.05768">
        <ele>1844.91</ele>
        <time>2020-05-26T11:40:04Z</time>
      </trkpt>
      <trkpt lat="44.83078" lon="6.05761">
        <ele>1842.98</ele>
        <time>2020-05-26T11:40:24Z</time>
      </trkpt>
      <trkpt lat="44.83075" lon="6.05757">
        <ele>1840.1</ele>
        <time>2020-05-26T11:40:38Z</time>
      </trkpt>
      <trkpt lat="44.83074" lon="6.05756">
        <ele>1839.62</ele>
        <time>2020-05-26T11:40:39Z</time>
      </trkpt>
      <trkpt lat="44.83074" lon="6.05747">
        <ele>1837.22</ele>
        <time>2020-05-26T11:40:52Z</time>
      </trkpt>
      <trkpt lat="44.8307" lon="6.05741">
        <ele>1835.29</ele>
        <time>2020-05-26T11:41:04Z</time>
      </trkpt>
      <trkpt lat="44.83064" lon="6.05738">
        <ele>1832.41</ele>
        <time>2020-05-26T11:41:16Z</time>
      </trkpt>
      <trkpt lat="44.83064" lon="6.05727">
        <ele>1829.05</ele>
        <time>2020-05-26T11:41:27Z</time>
      </trkpt>
      <trkpt lat="44.8306" lon="6.05723">
        <ele>1826.16</ele>
        <time>2020-05-26T11:41:42Z</time>
      </trkpt>
      <trkpt lat="44.83054" lon="6.0572">
        <ele>1823.28</ele>
        <time>2020-05-26T11:41:56Z</time>
      </trkpt>
      <trkpt lat="44.8305" lon="6.05712">
        <ele>1819.91</ele>
        <time>2020-05-26T11:42:10Z</time>
      </trkpt>
      <trkpt lat="44.83051" lon="6.05698">
        <ele>1817.03</ele>
        <time>2020-05-26T11:42:25Z</time>
      </trkpt>
      <trkpt lat="44.83048" lon="6.05695">
        <ele>1814.15</ele>
        <time>2020-05-26T11:42:40Z</time>
      </trkpt>
      <trkpt lat="44.83046" lon="6.05689">
        <ele>1812.7</ele>
        <time>2020-05-26T11:42:45Z</time>
      </trkpt>
      <trkpt lat="44.83045" lon="6.05674">
        <ele>1809.82</ele>
        <time>2020-05-26T11:43:01Z</time>
      </trkpt>
      <trkpt lat="44.83043" lon="6.05668">
        <ele>1807.42</ele>
        <time>2020-05-26T11:43:15Z</time>
      </trkpt>
      <trkpt lat="44.8304" lon="6.05661">
        <ele>1804.53</ele>
        <time>2020-05-26T11:43:27Z</time>
      </trkpt>
      <trkpt lat="44.83035" lon="6.05655">
        <ele>1802.13</ele>
        <time>2020-05-26T11:43:39Z</time>
      </trkpt>
      <trkpt lat="44.83031" lon="6.05646">
        <ele>1798.76</ele>
        <time>2020-05-26T11:43:51Z</time>
      </trkpt>
      <trkpt lat="44.83027" lon="6.0564">
        <ele>1796.36</ele>
        <time>2020-05-26T11:44:06Z</time>
      </trkpt>
      <trkpt lat="44.83029" lon="6.05628">
        <ele>1793</ele>
        <time>2020-05-26T11:44:17Z</time>
      </trkpt>
      <trkpt lat="44.83029" lon="6.05626">
        <ele>1792.52</ele>
        <time>2020-05-26T11:44:33Z</time>
      </trkpt>
      <trkpt lat="44.83031" lon="6.0562">
        <ele>1792.03</ele>
        <time>2020-05-26T11:44:47Z</time>
      </trkpt>
      <trkpt lat="44.83032" lon="6.0562">
        <ele>1792.03</ele>
        <time>2020-05-26T11:45:17Z</time>
      </trkpt>
      <trkpt lat="44.83031" lon="6.0562">
        <ele>1792.03</ele>
        <time>2020-05-26T11:45:36Z</time>
      </trkpt>
      <trkpt lat="44.83036" lon="6.05611">
        <ele>1790.59</ele>
        <time>2020-05-26T11:46:04Z</time>
      </trkpt>
      <trkpt lat="44.83036" lon="6.05605">
        <ele>1789.63</ele>
        <time>2020-05-26T11:46:22Z</time>
      </trkpt>
      <trkpt lat="44.83026" lon="6.05602">
        <ele>1787.23</ele>
        <time>2020-05-26T11:46:36Z</time>
      </trkpt>
      <trkpt lat="44.83018" lon="6.05595">
        <ele>1783.38</ele>
        <time>2020-05-26T11:46:50Z</time>
      </trkpt>
      <trkpt lat="44.83015" lon="6.05584">
        <ele>1781.46</ele>
        <time>2020-05-26T11:47:04Z</time>
      </trkpt>
      <trkpt lat="44.83017" lon="6.05567">
        <ele>1778.1</ele>
        <time>2020-05-26T11:47:19Z</time>
      </trkpt>
      <trkpt lat="44.83014" lon="6.05552">
        <ele>1776.17</ele>
        <time>2020-05-26T11:47:32Z</time>
      </trkpt>
      <trkpt lat="44.83012" lon="6.05545">
        <ele>1774.73</ele>
        <time>2020-05-26T11:47:46Z</time>
      </trkpt>
      <trkpt lat="44.83013" lon="6.05537">
        <ele>1773.77</ele>
        <time>2020-05-26T11:47:57Z</time>
      </trkpt>
      <trkpt lat="44.8302" lon="6.05532">
        <ele>1771.85</ele>
        <time>2020-05-26T11:48:14Z</time>
      </trkpt>
      <trkpt lat="44.83021" lon="6.05528">
        <ele>1768.96</ele>
        <time>2020-05-26T11:48:33Z</time>
      </trkpt>
      <trkpt lat="44.83022" lon="6.05522">
        <ele>1770.41</ele>
        <time>2020-05-26T11:48:51Z</time>
      </trkpt>
      <trkpt lat="44.83021" lon="6.05521">
        <ele>1770.41</ele>
        <time>2020-05-26T11:48:55Z</time>
      </trkpt>
      <trkpt lat="44.83023" lon="6.05514">
        <ele>1768.96</ele>
        <time>2020-05-26T11:49:02Z</time>
      </trkpt>
      <trkpt lat="44.83026" lon="6.05507">
        <ele>1767.52</ele>
        <time>2020-05-26T11:49:17Z</time>
      </trkpt>
      <trkpt lat="44.83027" lon="6.05501">
        <ele>1766.08</ele>
        <time>2020-05-26T11:49:33Z</time>
      </trkpt>
      <trkpt lat="44.8303" lon="6.05496">
        <ele>1764.64</ele>
        <time>2020-05-26T11:49:44Z</time>
      </trkpt>
      <trkpt lat="44.83036" lon="6.05489">
        <ele>1762.23</ele>
        <time>2020-05-26T11:49:59Z</time>
      </trkpt>
      <trkpt lat="44.8304" lon="6.05491">
        <ele>1761.75</ele>
        <time>2020-05-26T11:50:20Z</time>
      </trkpt>
      <trkpt lat="44.83043" lon="6.05485">
        <ele>1759.83</ele>
        <time>2020-05-26T11:50:34Z</time>
      </trkpt>
      <trkpt lat="44.83047" lon="6.0548">
        <ele>1758.39</ele>
        <time>2020-05-26T11:50:48Z</time>
      </trkpt>
      <trkpt lat="44.83051" lon="6.05478">
        <ele>1757.91</ele>
        <time>2020-05-26T11:51:09Z</time>
      </trkpt>
      <trkpt lat="44.83056" lon="6.05475">
        <ele>1755.5</ele>
        <time>2020-05-26T11:51:22Z</time>
      </trkpt>
      <trkpt lat="44.83059" lon="6.05472">
        <ele>1754.06</ele>
        <time>2020-05-26T11:51:38Z</time>
      </trkpt>
      <trkpt lat="44.83059" lon="6.05465">
        <ele>1752.14</ele>
        <time>2020-05-26T11:51:52Z</time>
      </trkpt>
      <trkpt lat="44.8306" lon="6.05456">
        <ele>1749.74</ele>
        <time>2020-05-26T11:52:08Z</time>
      </trkpt>
      <trkpt lat="44.83059" lon="6.05444">
        <ele>1749.26</ele>
        <time>2020-05-26T11:52:14Z</time>
      </trkpt>
      <trkpt lat="44.83064" lon="6.05429">
        <ele>1747.33</ele>
        <time>2020-05-26T11:52:28Z</time>
      </trkpt>
      <trkpt lat="44.83063" lon="6.05415">
        <ele>1745.41</ele>
        <time>2020-05-26T11:52:43Z</time>
      </trkpt>
      <trkpt lat="44.83067" lon="6.05403">
        <ele>1743.01</ele>
        <time>2020-05-26T11:52:57Z</time>
      </trkpt>
      <trkpt lat="44.83068" lon="6.05391">
        <ele>1741.57</ele>
        <time>2020-05-26T11:53:09Z</time>
      </trkpt>
      <trkpt lat="44.83074" lon="6.05378">
        <ele>1739.16</ele>
        <time>2020-05-26T11:53:22Z</time>
      </trkpt>
      <trkpt lat="44.83081" lon="6.05367">
        <ele>1737.72</ele>
        <time>2020-05-26T11:53:36Z</time>
      </trkpt>
      <trkpt lat="44.83089" lon="6.05361">
        <ele>1734.84</ele>
        <time>2020-05-26T11:53:50Z</time>
      </trkpt>
      <trkpt lat="44.83093" lon="6.05359">
        <ele>1733.39</ele>
        <time>2020-05-26T11:53:54Z</time>
      </trkpt>
      <trkpt lat="44.83101" lon="6.05351">
        <ele>1730.99</ele>
        <time>2020-05-26T11:54:07Z</time>
      </trkpt>
      <trkpt lat="44.83104" lon="6.0534">
        <ele>1727.63</ele>
        <time>2020-05-26T11:54:20Z</time>
      </trkpt>
      <trkpt lat="44.83103" lon="6.05339">
        <ele>1727.63</ele>
        <time>2020-05-26T11:54:22Z</time>
      </trkpt>
      <trkpt lat="44.83108" lon="6.05328">
        <ele>1725.7</ele>
        <time>2020-05-26T11:54:33Z</time>
      </trkpt>
      <trkpt lat="44.83116" lon="6.05316">
        <ele>1723.3</ele>
        <time>2020-05-26T11:54:48Z</time>
      </trkpt>
      <trkpt lat="44.83118" lon="6.05304">
        <ele>1719.94</ele>
        <time>2020-05-26T11:55:02Z</time>
      </trkpt>
      <trkpt lat="44.83123" lon="6.05293">
        <ele>1717.53</ele>
        <time>2020-05-26T11:55:16Z</time>
      </trkpt>
      <trkpt lat="44.83127" lon="6.05284">
        <ele>1716.09</ele>
        <time>2020-05-26T11:55:29Z</time>
      </trkpt>
      <trkpt lat="44.8313" lon="6.05275">
        <ele>1714.17</ele>
        <time>2020-05-26T11:55:44Z</time>
      </trkpt>
      <trkpt lat="44.83139" lon="6.05265">
        <ele>1710.8</ele>
        <time>2020-05-26T11:55:57Z</time>
      </trkpt>
      <trkpt lat="44.83146" lon="6.05255">
        <ele>1708.4</ele>
        <time>2020-05-26T11:56:09Z</time>
      </trkpt>
      <trkpt lat="44.83153" lon="6.05252">
        <ele>1707.92</ele>
        <time>2020-05-26T11:56:18Z</time>
      </trkpt>
      <trkpt lat="44.83157" lon="6.0525">
        <ele>1707.44</ele>
        <time>2020-05-26T11:56:37Z</time>
      </trkpt>
      <trkpt lat="44.83158" lon="6.05249">
        <ele>1706.96</ele>
        <time>2020-05-26T11:57:00Z</time>
      </trkpt>
      <trkpt lat="44.83158" lon="6.05253">
        <ele>1706</ele>
        <time>2020-05-26T11:57:21Z</time>
      </trkpt>
      <trkpt lat="44.83159" lon="6.05252">
        <ele>1705.52</ele>
        <time>2020-05-26T11:57:23Z</time>
      </trkpt>
      <trkpt lat="44.83161" lon="6.05251">
        <ele>1704.55</ele>
        <time>2020-05-26T11:57:25Z</time>
      </trkpt>
      <trkpt lat="44.83168" lon="6.05245">
        <ele>1703.11</ele>
        <time>2020-05-26T11:57:35Z</time>
      </trkpt>
      <trkpt lat="44.83177" lon="6.05234">
        <ele>1699.75</ele>
        <time>2020-05-26T11:57:48Z</time>
      </trkpt>
      <trkpt lat="44.83184" lon="6.05224">
        <ele>1696.86</ele>
        <time>2020-05-26T11:58:02Z</time>
      </trkpt>
      <trkpt lat="44.83192" lon="6.05223">
        <ele>1694.94</ele>
        <time>2020-05-26T11:58:18Z</time>
      </trkpt>
      <trkpt lat="44.83198" lon="6.05221">
        <ele>1693.02</ele>
        <time>2020-05-26T11:58:38Z</time>
      </trkpt>
      <trkpt lat="44.83206" lon="6.0521">
        <ele>1690.14</ele>
        <time>2020-05-26T11:58:53Z</time>
      </trkpt>
      <trkpt lat="44.83213" lon="6.05197">
        <ele>1687.73</ele>
        <time>2020-05-26T11:59:07Z</time>
      </trkpt>
      <trkpt lat="44.83218" lon="6.05193">
        <ele>1685.33</ele>
        <time>2020-05-26T11:59:15Z</time>
      </trkpt>
      <trkpt lat="44.83227" lon="6.05182">
        <ele>1684.85</ele>
        <time>2020-05-26T11:59:28Z</time>
      </trkpt>
      <trkpt lat="44.83234" lon="6.05174">
        <ele>1681.96</ele>
        <time>2020-05-26T11:59:40Z</time>
      </trkpt>
      <trkpt lat="44.83241" lon="6.0517">
        <ele>1679.56</ele>
        <time>2020-05-26T11:59:54Z</time>
      </trkpt>
      <trkpt lat="44.83247" lon="6.05164">
        <ele>1677.16</ele>
        <time>2020-05-26T12:00:06Z</time>
      </trkpt>
      <trkpt lat="44.8325" lon="6.05159">
        <ele>1675.23</ele>
        <time>2020-05-26T12:00:18Z</time>
      </trkpt>
      <trkpt lat="44.8325" lon="6.05154">
        <ele>1673.79</ele>
        <time>2020-05-26T12:00:23Z</time>
      </trkpt>
      <trkpt lat="44.83253" lon="6.05149">
        <ele>1673.31</ele>
        <time>2020-05-26T12:00:34Z</time>
      </trkpt>
      <trkpt lat="44.83257" lon="6.05141">
        <ele>1672.35</ele>
        <time>2020-05-26T12:00:54Z</time>
      </trkpt>
      <trkpt lat="44.83261" lon="6.0513">
        <ele>1669.95</ele>
        <time>2020-05-26T12:01:09Z</time>
      </trkpt>
      <trkpt lat="44.83266" lon="6.05119">
        <ele>1667.54</ele>
        <time>2020-05-26T12:01:22Z</time>
      </trkpt>
      <trkpt lat="44.8327" lon="6.05113">
        <ele>1666.1</ele>
        <time>2020-05-26T12:01:29Z</time>
      </trkpt>
      <trkpt lat="44.83273" lon="6.05098">
        <ele>1663.22</ele>
        <time>2020-05-26T12:01:45Z</time>
      </trkpt>
      <trkpt lat="44.83277" lon="6.05087">
        <ele>1662.26</ele>
        <time>2020-05-26T12:01:53Z</time>
      </trkpt>
      <trkpt lat="44.83287" lon="6.05075">
        <ele>1659.85</ele>
        <time>2020-05-26T12:02:08Z</time>
      </trkpt>
      <trkpt lat="44.83292" lon="6.05068">
        <ele>1658.41</ele>
        <time>2020-05-26T12:02:17Z</time>
      </trkpt>
      <trkpt lat="44.83294" lon="6.05056">
        <ele>1656.49</ele>
        <time>2020-05-26T12:02:26Z</time>
      </trkpt>
      <trkpt lat="44.833" lon="6.05053">
        <ele>1656.01</ele>
        <time>2020-05-26T12:02:33Z</time>
      </trkpt>
      <trkpt lat="44.83312" lon="6.05044">
        <ele>1654.09</ele>
        <time>2020-05-26T12:02:47Z</time>
      </trkpt>
      <trkpt lat="44.83317" lon="6.05045">
        <ele>1653.6</ele>
        <time>2020-05-26T12:02:52Z</time>
      </trkpt>
      <trkpt lat="44.83324" lon="6.05045">
        <ele>1652.64</ele>
        <time>2020-05-26T12:02:59Z</time>
      </trkpt>
      <trkpt lat="44.83338" lon="6.05035">
        <ele>1651.2</ele>
        <time>2020-05-26T12:03:13Z</time>
      </trkpt>
      <trkpt lat="44.83343" lon="6.05034">
        <ele>1650.72</ele>
        <time>2020-05-26T12:03:17Z</time>
      </trkpt>
      <trkpt lat="44.83351" lon="6.05028">
        <ele>1648.8</ele>
        <time>2020-05-26T12:03:26Z</time>
      </trkpt>
      <trkpt lat="44.83362" lon="6.05023">
        <ele>1647.36</ele>
        <time>2020-05-26T12:03:40Z</time>
      </trkpt>
      <trkpt lat="44.83368" lon="6.05023">
        <ele>1646.88</ele>
        <time>2020-05-26T12:03:46Z</time>
      </trkpt>
      <trkpt lat="44.83371" lon="6.05022">
        <ele>1646.4</ele>
        <time>2020-05-26T12:03:49Z</time>
      </trkpt>
      <trkpt lat="44.83373" lon="6.05021">
        <ele>1646.4</ele>
        <time>2020-05-26T12:03:52Z</time>
      </trkpt>
      <trkpt lat="44.83389" lon="6.05014">
        <ele>1643.99</ele>
        <time>2020-05-26T12:04:09Z</time>
      </trkpt>
      <trkpt lat="44.83403" lon="6.05007">
        <ele>1642.07</ele>
        <time>2020-05-26T12:04:25Z</time>
      </trkpt>
      <trkpt lat="44.83416" lon="6.05006">
        <ele>1641.11</ele>
        <time>2020-05-26T12:04:39Z</time>
      </trkpt>
      <trkpt lat="44.83423" lon="6.05009">
        <ele>1641.11</ele>
        <time>2020-05-26T12:04:46Z</time>
      </trkpt>
      <trkpt lat="44.83433" lon="6.0501">
        <ele>1640.15</ele>
        <time>2020-05-26T12:04:59Z</time>
      </trkpt>
      <trkpt lat="44.83434" lon="6.05012">
        <ele>1639.67</ele>
        <time>2020-05-26T12:05:16Z</time>
      </trkpt>
      <trkpt lat="44.83439" lon="6.05013">
        <ele>1638.7</ele>
        <time>2020-05-26T12:05:38Z</time>
      </trkpt>
      <trkpt lat="44.8344" lon="6.05013">
        <ele>1638.7</ele>
        <time>2020-05-26T12:05:41Z</time>
      </trkpt>
      <trkpt lat="44.83452" lon="6.05021">
        <ele>1637.26</ele>
        <time>2020-05-26T12:05:54Z</time>
      </trkpt>
      <trkpt lat="44.83459" lon="6.05025">
        <ele>1635.82</ele>
        <time>2020-05-26T12:06:01Z</time>
      </trkpt>
      <trkpt lat="44.83465" lon="6.05026">
        <ele>1634.38</ele>
        <time>2020-05-26T12:06:13Z</time>
      </trkpt>
      <trkpt lat="44.83466" lon="6.05025">
        <ele>1634.38</ele>
        <time>2020-05-26T12:06:14Z</time>
      </trkpt>
      <trkpt lat="44.83481" lon="6.05018">
        <ele>1631.98</ele>
        <time>2020-05-26T12:06:29Z</time>
      </trkpt>
      <trkpt lat="44.83484" lon="6.05017">
        <ele>1631.49</ele>
        <time>2020-05-26T12:06:33Z</time>
      </trkpt>
      <trkpt lat="44.83493" lon="6.05017">
        <ele>1631.01</ele>
        <time>2020-05-26T12:06:42Z</time>
      </trkpt>
      <trkpt lat="44.83506" lon="6.05016">
        <ele>1630.53</ele>
        <time>2020-05-26T12:06:56Z</time>
      </trkpt>
      <trkpt lat="44.83513" lon="6.05013">
        <ele>1630.53</ele>
        <time>2020-05-26T12:07:03Z</time>
      </trkpt>
      <trkpt lat="44.83528" lon="6.05002">
        <ele>1629.09</ele>
        <time>2020-05-26T12:07:16Z</time>
      </trkpt>
      <trkpt lat="44.83543" lon="6.04997">
        <ele>1628.13</ele>
        <time>2020-05-26T12:07:31Z</time>
      </trkpt>
      <trkpt lat="44.83556" lon="6.04993">
        <ele>1628.13</ele>
        <time>2020-05-26T12:07:44Z</time>
      </trkpt>
      <trkpt lat="44.8356" lon="6.04992">
        <ele>1627.65</ele>
        <time>2020-05-26T12:07:47Z</time>
      </trkpt>
      <trkpt lat="44.83564" lon="6.04989">
        <ele>1627.65</ele>
        <time>2020-05-26T12:07:52Z</time>
      </trkpt>
      <trkpt lat="44.83576" lon="6.04977">
        <ele>1627.17</ele>
        <time>2020-05-26T12:08:06Z</time>
      </trkpt>
      <trkpt lat="44.83584" lon="6.0498">
        <ele>1627.17</ele>
        <time>2020-05-26T12:08:12Z</time>
      </trkpt>
      <trkpt lat="44.83598" lon="6.04996">
        <ele>1627.17</ele>
        <time>2020-05-26T12:08:26Z</time>
      </trkpt>
      <trkpt lat="44.83607" lon="6.05008">
        <ele>1625.73</ele>
        <time>2020-05-26T12:08:38Z</time>
      </trkpt>
      <trkpt lat="44.83613" lon="6.05015">
        <ele>1625.73</ele>
        <time>2020-05-26T12:08:45Z</time>
      </trkpt>
      <trkpt lat="44.83616" lon="6.05011">
        <ele>1624.77</ele>
        <time>2020-05-26T12:08:49Z</time>
      </trkpt>
      <trkpt lat="44.83623" lon="6.05009">
        <ele>1625.73</ele>
        <time>2020-05-26T12:08:56Z</time>
      </trkpt>
      <trkpt lat="44.83626" lon="6.05009">
        <ele>1624.28</ele>
        <time>2020-05-26T12:08:59Z</time>
      </trkpt>
      <trkpt lat="44.83632" lon="6.05008">
        <ele>1624.28</ele>
        <time>2020-05-26T12:09:05Z</time>
      </trkpt>
      <trkpt lat="44.83637" lon="6.05011">
        <ele>1624.28</ele>
        <time>2020-05-26T12:09:11Z</time>
      </trkpt>
      <trkpt lat="44.83645" lon="6.05018">
        <ele>1624.28</ele>
        <time>2020-05-26T12:09:18Z</time>
      </trkpt>
      <trkpt lat="44.83663" lon="6.0502">
        <ele>1624.28</ele>
        <time>2020-05-26T12:09:33Z</time>
      </trkpt>
      <trkpt lat="44.83667" lon="6.0502">
        <ele>1624.28</ele>
        <time>2020-05-26T12:09:36Z</time>
      </trkpt>
      <trkpt lat="44.83671" lon="6.05019">
        <ele>1624.28</ele>
        <time>2020-05-26T12:09:42Z</time>
      </trkpt>
      <trkpt lat="44.83686" lon="6.05016">
        <ele>1623.8</ele>
        <time>2020-05-26T12:09:56Z</time>
      </trkpt>
      <trkpt lat="44.83692" lon="6.05014">
        <ele>1623.8</ele>
        <time>2020-05-26T12:10:02Z</time>
      </trkpt>
      <trkpt lat="44.837" lon="6.05013">
        <ele>1623.32</ele>
        <time>2020-05-26T12:10:09Z</time>
      </trkpt>
      <trkpt lat="44.83709" lon="6.05015">
        <ele>1623.32</ele>
        <time>2020-05-26T12:10:17Z</time>
      </trkpt>
      <trkpt lat="44.83723" lon="6.05009">
        <ele>1622.36</ele>
        <time>2020-05-26T12:10:31Z</time>
      </trkpt>
      <trkpt lat="44.83731" lon="6.05007">
        <ele>1622.36</ele>
        <time>2020-05-26T12:10:38Z</time>
      </trkpt>
      <trkpt lat="44.83734" lon="6.05005">
        <ele>1622.36</ele>
        <time>2020-05-26T12:10:41Z</time>
      </trkpt>
      <trkpt lat="44.83736" lon="6.05004">
        <ele>1621.88</ele>
        <time>2020-05-26T12:10:43Z</time>
      </trkpt>
      <trkpt lat="44.83742" lon="6.05003">
        <ele>1620.92</ele>
        <time>2020-05-26T12:10:50Z</time>
      </trkpt>
      <trkpt lat="44.83753" lon="6.04994">
        <ele>1619</ele>
        <time>2020-05-26T12:11:04Z</time>
      </trkpt>
      <trkpt lat="44.83757" lon="6.04985">
        <ele>1617.56</ele>
        <time>2020-05-26T12:11:11Z</time>
      </trkpt>
      <trkpt lat="44.83758" lon="6.0498">
        <ele>1616.59</ele>
        <time>2020-05-26T12:11:16Z</time>
      </trkpt>
      <trkpt lat="44.83756" lon="6.04975">
        <ele>1616.59</ele>
        <time>2020-05-26T12:11:20Z</time>
      </trkpt>
      <trkpt lat="44.83754" lon="6.04958">
        <ele>1616.59</ele>
        <time>2020-05-26T12:11:33Z</time>
      </trkpt>
      <trkpt lat="44.83752" lon="6.04949">
        <ele>1617.56</ele>
        <time>2020-05-26T12:11:45Z</time>
      </trkpt>
      <trkpt lat="44.83748" lon="6.0494">
        <ele>1617.56</ele>
        <time>2020-05-26T12:12:00Z</time>
      </trkpt>
      <trkpt lat="44.83743" lon="6.04928">
        <ele>1618.04</ele>
        <time>2020-05-26T12:12:17Z</time>
      </trkpt>
      <trkpt lat="44.83744" lon="6.04921">
        <ele>1617.56</ele>
        <time>2020-05-26T12:12:31Z</time>
      </trkpt>
      <trkpt lat="44.83744" lon="6.04921">
        <ele>1619</ele>
        <time>2020-05-26T12:12:33Z</time>
      </trkpt>
      <trkpt lat="44.83748" lon="6.04917">
        <ele>1619</ele>
        <time>2020-05-26T12:12:49Z</time>
      </trkpt>
      <trkpt lat="44.83747" lon="6.04922">
        <ele>1618.52</ele>
        <time>2020-05-26T12:13:23Z</time>
      </trkpt>
      <trkpt lat="44.83749" lon="6.04922">
        <ele>1618.04</ele>
        <time>2020-05-26T12:13:35Z</time>
      </trkpt>
      <trkpt lat="44.83751" lon="6.04917">
        <ele>1618.04</ele>
        <time>2020-05-26T12:13:59Z</time>
      </trkpt>
      <trkpt lat="44.83748" lon="6.04916">
        <ele>1618.04</ele>
        <time>2020-05-26T12:14:26Z</time>
      </trkpt>
      <trkpt lat="44.83748" lon="6.04921">
        <ele>1618.04</ele>
        <time>2020-05-26T12:14:52Z</time>
      </trkpt>
      <trkpt lat="44.83751" lon="6.04924">
        <ele>1618.04</ele>
        <time>2020-05-26T12:15:17Z</time>
      </trkpt>
      <trkpt lat="44.83753" lon="6.04924">
        <ele>1617.56</ele>
        <time>2020-05-26T12:15:38Z</time>
      </trkpt>
      <trkpt lat="44.83748" lon="6.04921">
        <ele>1617.56</ele>
        <time>2020-05-26T12:16:01Z</time>
      </trkpt>
      <trkpt lat="44.83747" lon="6.04914">
        <ele>1617.56</ele>
        <time>2020-05-26T12:16:29Z</time>
      </trkpt>
      <trkpt lat="44.83744" lon="6.04915">
        <ele>1617.56</ele>
        <time>2020-05-26T12:16:46Z</time>
      </trkpt>
      <trkpt lat="44.83743" lon="6.04924">
        <ele>1617.56</ele>
        <time>2020-05-26T12:17:15Z</time>
      </trkpt>
      <trkpt lat="44.83741" lon="6.04919">
        <ele>1617.56</ele>
        <time>2020-05-26T12:17:43Z</time>
      </trkpt>
      <trkpt lat="44.83739" lon="6.04924">
        <ele>1617.56</ele>
        <time>2020-05-26T12:18:13Z</time>
      </trkpt>
      <trkpt lat="44.83742" lon="6.04929">
        <ele>1617.07</ele>
        <time>2020-05-26T12:18:46Z</time>
      </trkpt>
      <trkpt lat="44.83747" lon="6.04933">
        <ele>1617.07</ele>
        <time>2020-05-26T12:19:20Z</time>
      </trkpt>
      <trkpt lat="44.83749" lon="6.04932">
        <ele>1616.59</ele>
        <time>2020-05-26T12:19:57Z</time>
      </trkpt>
      <trkpt lat="44.83756" lon="6.0493">
        <ele>1615.15</ele>
        <time>2020-05-26T12:20:11Z</time>
      </trkpt>
      <trkpt lat="44.83756" lon="6.04939">
        <ele>1613.71</ele>
        <time>2020-05-26T12:20:27Z</time>
      </trkpt>
      <trkpt lat="44.83758" lon="6.04945">
        <ele>1613.71</ele>
        <time>2020-05-26T12:20:36Z</time>
      </trkpt>
      <trkpt lat="44.83758" lon="6.04949">
        <ele>1613.23</ele>
        <time>2020-05-26T12:20:44Z</time>
      </trkpt>
      <trkpt lat="44.83759" lon="6.0496">
        <ele>1614.19</ele>
        <time>2020-05-26T12:20:53Z</time>
      </trkpt>
      <trkpt lat="44.83763" lon="6.04965">
        <ele>1614.19</ele>
        <time>2020-05-26T12:21:05Z</time>
      </trkpt>
      <trkpt lat="44.8377" lon="6.04963">
        <ele>1612.75</ele>
        <time>2020-05-26T12:21:17Z</time>
      </trkpt>
      <trkpt lat="44.83783" lon="6.04956">
        <ele>1609.86</ele>
        <time>2020-05-26T12:21:32Z</time>
      </trkpt>
      <trkpt lat="44.83789" lon="6.04953">
        <ele>1607.46</ele>
        <time>2020-05-26T12:21:46Z</time>
      </trkpt>
      <trkpt lat="44.83795" lon="6.04943">
        <ele>1604.58</ele>
        <time>2020-05-26T12:21:59Z</time>
      </trkpt>
      <trkpt lat="44.83798" lon="6.04929">
        <ele>1602.66</ele>
        <time>2020-05-26T12:22:15Z</time>
      </trkpt>
      <trkpt lat="44.83813" lon="6.04923">
        <ele>1599.77</ele>
        <time>2020-05-26T12:22:28Z</time>
      </trkpt>
      <trkpt lat="44.83827" lon="6.04922">
        <ele>1598.33</ele>
        <time>2020-05-26T12:22:42Z</time>
      </trkpt>
      <trkpt lat="44.83834" lon="6.04921">
        <ele>1596.41</ele>
        <time>2020-05-26T12:22:48Z</time>
      </trkpt>
      <trkpt lat="44.83847" lon="6.04918">
        <ele>1594.48</ele>
        <time>2020-05-26T12:23:04Z</time>
      </trkpt>
      <trkpt lat="44.83851" lon="6.04918">
        <ele>1593.04</ele>
        <time>2020-05-26T12:23:08Z</time>
      </trkpt>
      <trkpt lat="44.83861" lon="6.04917">
        <ele>1591.6</ele>
        <time>2020-05-26T12:23:21Z</time>
      </trkpt>
      <trkpt lat="44.83863" lon="6.04917">
        <ele>1590.16</ele>
        <time>2020-05-26T12:23:23Z</time>
      </trkpt>
      <trkpt lat="44.83873" lon="6.04917">
        <ele>1590.16</ele>
        <time>2020-05-26T12:23:35Z</time>
      </trkpt>
      <trkpt lat="44.8388" lon="6.04911">
        <ele>1587.75</ele>
        <time>2020-05-26T12:23:45Z</time>
      </trkpt>
      <trkpt lat="44.8389" lon="6.04901">
        <ele>1585.35</ele>
        <time>2020-05-26T12:24:00Z</time>
      </trkpt>
      <trkpt lat="44.83902" lon="6.04896">
        <ele>1582.95</ele>
        <time>2020-05-26T12:24:14Z</time>
      </trkpt>
      <trkpt lat="44.83904" lon="6.04891">
        <ele>1581.99</ele>
        <time>2020-05-26T12:24:18Z</time>
      </trkpt>
      <trkpt lat="44.83919" lon="6.04882">
        <ele>1579.58</ele>
        <time>2020-05-26T12:24:34Z</time>
      </trkpt>
      <trkpt lat="44.83928" lon="6.04876">
        <ele>1577.18</ele>
        <time>2020-05-26T12:24:49Z</time>
      </trkpt>
      <trkpt lat="44.83939" lon="6.04869">
        <ele>1574.3</ele>
        <time>2020-05-26T12:25:05Z</time>
      </trkpt>
      <trkpt lat="44.83944" lon="6.04861">
        <ele>1571.89</ele>
        <time>2020-05-26T12:25:18Z</time>
      </trkpt>
      <trkpt lat="44.83949" lon="6.04849">
        <ele>1570.93</ele>
        <time>2020-05-26T12:25:29Z</time>
      </trkpt>
      <trkpt lat="44.83952" lon="6.04849">
        <ele>1570.45</ele>
        <time>2020-05-26T12:25:31Z</time>
      </trkpt>
      <trkpt lat="44.83967" lon="6.0485">
        <ele>1568.53</ele>
        <time>2020-05-26T12:25:46Z</time>
      </trkpt>
      <trkpt lat="44.83974" lon="6.04847">
        <ele>1566.61</ele>
        <time>2020-05-26T12:25:54Z</time>
      </trkpt>
      <trkpt lat="44.83987" lon="6.04846">
        <ele>1565.64</ele>
        <time>2020-05-26T12:26:06Z</time>
      </trkpt>
      <trkpt lat="44.84001" lon="6.04836">
        <ele>1563.72</ele>
        <time>2020-05-26T12:26:21Z</time>
      </trkpt>
      <trkpt lat="44.84005" lon="6.04832">
        <ele>1563.72</ele>
        <time>2020-05-26T12:26:27Z</time>
      </trkpt>
      <trkpt lat="44.84008" lon="6.04832">
        <ele>1562.76</ele>
        <time>2020-05-26T12:26:44Z</time>
      </trkpt>
      <trkpt lat="44.84008" lon="6.04833">
        <ele>1564.2</ele>
        <time>2020-05-26T12:26:46Z</time>
      </trkpt>
      <trkpt lat="44.84009" lon="6.04835">
        <ele>1564.2</ele>
        <time>2020-05-26T12:27:04Z</time>
      </trkpt>
      <trkpt lat="44.84013" lon="6.04826">
        <ele>1563.72</ele>
        <time>2020-05-26T12:27:33Z</time>
      </trkpt>
      <trkpt lat="44.84009" lon="6.04835">
        <ele>1563.72</ele>
        <time>2020-05-26T12:27:54Z</time>
      </trkpt>
      <trkpt lat="44.84008" lon="6.04832">
        <ele>1563.72</ele>
        <time>2020-05-26T12:28:28Z</time>
      </trkpt>
      <trkpt lat="44.84005" lon="6.04824">
        <ele>1561.32</ele>
        <time>2020-05-26T12:28:54Z</time>
      </trkpt>
      <trkpt lat="44.84005" lon="6.04825">
        <ele>1562.76</ele>
        <time>2020-05-26T12:28:59Z</time>
      </trkpt>
      <trkpt lat="44.84006" lon="6.04823">
        <ele>1562.76</ele>
        <time>2020-05-26T12:29:21Z</time>
      </trkpt>
      <trkpt lat="44.84009" lon="6.04821">
        <ele>1563.24</ele>
        <time>2020-05-26T12:29:55Z</time>
      </trkpt>
      <trkpt lat="44.84006" lon="6.04822">
        <ele>1563.24</ele>
        <time>2020-05-26T12:30:11Z</time>
      </trkpt>
      <trkpt lat="44.84005" lon="6.04819">
        <ele>1563.24</ele>
        <time>2020-05-26T12:30:14Z</time>
      </trkpt>
      <trkpt lat="44.83996" lon="6.0481">
        <ele>1563.24</ele>
        <time>2020-05-26T12:30:30Z</time>
      </trkpt>
      <trkpt lat="44.84002" lon="6.04799">
        <ele>1562.76</ele>
        <time>2020-05-26T12:30:45Z</time>
      </trkpt>
      <trkpt lat="44.83996" lon="6.0478">
        <ele>1566.12</ele>
        <time>2020-05-26T12:30:59Z</time>
      </trkpt>
      <trkpt lat="44.8399" lon="6.04767">
        <ele>1569.01</ele>
        <time>2020-05-26T12:31:16Z</time>
      </trkpt>
      <trkpt lat="44.83985" lon="6.0476">
        <ele>1571.41</ele>
        <time>2020-05-26T12:31:28Z</time>
      </trkpt>
      <trkpt lat="44.83984" lon="6.04758">
        <ele>1569.97</ele>
        <time>2020-05-26T12:31:30Z</time>
      </trkpt>
      <trkpt lat="44.83982" lon="6.0474">
        <ele>1571.41</ele>
        <time>2020-05-26T12:31:41Z</time>
      </trkpt>
      <trkpt lat="44.83991" lon="6.04727">
        <ele>1574.3</ele>
        <time>2020-05-26T12:31:57Z</time>
      </trkpt>
      <trkpt lat="44.83997" lon="6.04717">
        <ele>1578.14</ele>
        <time>2020-05-26T12:32:13Z</time>
      </trkpt>
      <trkpt lat="44.83993" lon="6.04697">
        <ele>1580.54</ele>
        <time>2020-05-26T12:32:30Z</time>
      </trkpt>
      <trkpt lat="44.83991" lon="6.04692">
        <ele>1581.99</ele>
        <time>2020-05-26T12:32:34Z</time>
      </trkpt>
      <trkpt lat="44.8399" lon="6.04688">
        <ele>1583.91</ele>
        <time>2020-05-26T12:32:48Z</time>
      </trkpt>
      <trkpt lat="44.83988" lon="6.04688">
        <ele>1587.27</ele>
        <time>2020-05-26T12:33:01Z</time>
      </trkpt>
      <trkpt lat="44.83985" lon="6.04691">
        <ele>1588.24</ele>
        <time>2020-05-26T12:33:07Z</time>
      </trkpt>
      <trkpt lat="44.83979" lon="6.04699">
        <ele>1590.16</ele>
        <time>2020-05-26T12:33:20Z</time>
      </trkpt>
      <trkpt lat="44.83981" lon="6.04697">
        <ele>1593.52</ele>
        <time>2020-05-26T12:33:34Z</time>
      </trkpt>
      <trkpt lat="44.83991" lon="6.04685">
        <ele>1596.89</ele>
        <time>2020-05-26T12:33:51Z</time>
      </trkpt>
      <trkpt lat="44.83994" lon="6.04675">
        <ele>1599.77</ele>
        <time>2020-05-26T12:34:07Z</time>
      </trkpt>
      <trkpt lat="44.84002" lon="6.04668">
        <ele>1602.17</ele>
        <time>2020-05-26T12:34:21Z</time>
      </trkpt>
      <trkpt lat="44.84008" lon="6.04657">
        <ele>1606.5</ele>
        <time>2020-05-26T12:34:37Z</time>
      </trkpt>
      <trkpt lat="44.84014" lon="6.04649">
        <ele>1609.38</ele>
        <time>2020-05-26T12:34:53Z</time>
      </trkpt>
      <trkpt lat="44.84019" lon="6.0464">
        <ele>1612.75</ele>
        <time>2020-05-26T12:35:09Z</time>
      </trkpt>
      <trkpt lat="44.84028" lon="6.04632">
        <ele>1615.15</ele>
        <time>2020-05-26T12:35:24Z</time>
      </trkpt>
      <trkpt lat="44.84036" lon="6.04625">
        <ele>1618.52</ele>
        <time>2020-05-26T12:35:43Z</time>
      </trkpt>
      <trkpt lat="44.84036" lon="6.04625">
        <ele>1618.52</ele>
        <time>2020-05-26T12:35:44Z</time>
      </trkpt>
      <trkpt lat="44.84045" lon="6.04623">
        <ele>1621.88</ele>
        <time>2020-05-26T12:35:59Z</time>
      </trkpt>
      <trkpt lat="44.84058" lon="6.04614">
        <ele>1624.77</ele>
        <time>2020-05-26T12:36:16Z</time>
      </trkpt>
      <trkpt lat="44.84072" lon="6.04606">
        <ele>1627.65</ele>
        <time>2020-05-26T12:36:37Z</time>
      </trkpt>
      <trkpt lat="44.84088" lon="6.04594">
        <ele>1631.01</ele>
        <time>2020-05-26T12:36:54Z</time>
      </trkpt>
      <trkpt lat="44.84106" lon="6.04588">
        <ele>1632.46</ele>
        <time>2020-05-26T12:37:11Z</time>
      </trkpt>
      <trkpt lat="44.84114" lon="6.04578">
        <ele>1633.9</ele>
        <time>2020-05-26T12:37:29Z</time>
      </trkpt>
      <trkpt lat="44.84113" lon="6.0457">
        <ele>1633.9</ele>
        <time>2020-05-26T12:37:47Z</time>
      </trkpt>
      <trkpt lat="44.84113" lon="6.04571">
        <ele>1634.38</ele>
        <time>2020-05-26T12:38:25Z</time>
      </trkpt>
      <trkpt lat="44.8411" lon="6.04571">
        <ele>1635.34</ele>
        <time>2020-05-26T12:38:40Z</time>
      </trkpt>
      <trkpt lat="44.84108" lon="6.0456">
        <ele>1638.22</ele>
        <time>2020-05-26T12:38:52Z</time>
      </trkpt>
      <trkpt lat="44.84117" lon="6.04559">
        <ele>1642.07</ele>
        <time>2020-05-26T12:39:11Z</time>
      </trkpt>
      <trkpt lat="44.84126" lon="6.04556">
        <ele>1643.99</ele>
        <time>2020-05-26T12:39:25Z</time>
      </trkpt>
      <trkpt lat="44.84143" lon="6.04552">
        <ele>1646.88</ele>
        <time>2020-05-26T12:39:43Z</time>
      </trkpt>
      <trkpt lat="44.84146" lon="6.04549">
        <ele>1650.24</ele>
        <time>2020-05-26T12:39:58Z</time>
      </trkpt>
      <trkpt lat="44.84157" lon="6.04538">
        <ele>1653.12</ele>
        <time>2020-05-26T12:40:16Z</time>
      </trkpt>
      <trkpt lat="44.84164" lon="6.04528">
        <ele>1655.53</ele>
        <time>2020-05-26T12:40:32Z</time>
      </trkpt>
      <trkpt lat="44.84166" lon="6.04525">
        <ele>1657.93</ele>
        <time>2020-05-26T12:40:50Z</time>
      </trkpt>
      <trkpt lat="44.84163" lon="6.0452">
        <ele>1661.3</ele>
        <time>2020-05-26T12:41:07Z</time>
      </trkpt>
      <trkpt lat="44.84168" lon="6.04517">
        <ele>1664.18</ele>
        <time>2020-05-26T12:41:28Z</time>
      </trkpt>
      <trkpt lat="44.84168" lon="6.04516">
        <ele>1667.54</ele>
        <time>2020-05-26T12:41:44Z</time>
      </trkpt>
      <trkpt lat="44.84169" lon="6.04513">
        <ele>1668.02</ele>
        <time>2020-05-26T12:41:51Z</time>
      </trkpt>
      <trkpt lat="44.84175" lon="6.04504">
        <ele>1670.91</ele>
        <time>2020-05-26T12:42:10Z</time>
      </trkpt>
      <trkpt lat="44.84178" lon="6.04498">
        <ele>1673.79</ele>
        <time>2020-05-26T12:42:29Z</time>
      </trkpt>
      <trkpt lat="44.84183" lon="6.04486">
        <ele>1677.16</ele>
        <time>2020-05-26T12:42:45Z</time>
      </trkpt>
      <trkpt lat="44.84193" lon="6.04471">
        <ele>1675.23</ele>
        <time>2020-05-26T12:43:03Z</time>
      </trkpt>
      <trkpt lat="44.84198" lon="6.04464">
        <ele>1676.68</ele>
        <time>2020-05-26T12:43:10Z</time>
      </trkpt>
      <trkpt lat="44.84211" lon="6.04454">
        <ele>1678.6</ele>
        <time>2020-05-26T12:43:26Z</time>
      </trkpt>
      <trkpt lat="44.8422" lon="6.04448">
        <ele>1681.48</ele>
        <time>2020-05-26T12:43:44Z</time>
      </trkpt>
      <trkpt lat="44.84223" lon="6.04445">
        <ele>1682.44</ele>
        <time>2020-05-26T12:44:20Z</time>
      </trkpt>
      <trkpt lat="44.84223" lon="6.04441">
        <ele>1683.89</ele>
        <time>2020-05-26T12:44:25Z</time>
      </trkpt>
      <trkpt lat="44.84228" lon="6.04426">
        <ele>1686.77</ele>
        <time>2020-05-26T12:44:42Z</time>
      </trkpt>
      <trkpt lat="44.84231" lon="6.0442">
        <ele>1689.65</ele>
        <time>2020-05-26T12:44:58Z</time>
      </trkpt>
      <trkpt lat="44.84239" lon="6.04411">
        <ele>1691.1</ele>
        <time>2020-05-26T12:45:14Z</time>
      </trkpt>
      <trkpt lat="44.84247" lon="6.04405">
        <ele>1693.02</ele>
        <time>2020-05-26T12:45:32Z</time>
      </trkpt>
      <trkpt lat="44.84256" lon="6.04393">
        <ele>1693.98</ele>
        <time>2020-05-26T12:45:47Z</time>
      </trkpt>
      <trkpt lat="44.8427" lon="6.04379">
        <ele>1693.02</ele>
        <time>2020-05-26T12:46:02Z</time>
      </trkpt>
      <trkpt lat="44.84279" lon="6.04375">
        <ele>1694.94</ele>
        <time>2020-05-26T12:46:15Z</time>
      </trkpt>
      <trkpt lat="44.8428" lon="6.04374">
        <ele>1691.1</ele>
        <time>2020-05-26T12:46:19Z</time>
      </trkpt>
      <trkpt lat="44.8428" lon="6.04374">
        <ele>1696.86</ele>
        <time>2020-05-26T12:46:20Z</time>
      </trkpt>
      <trkpt lat="44.84284" lon="6.04372">
        <ele>1693.5</ele>
        <time>2020-05-26T12:46:28Z</time>
      </trkpt>
      <trkpt lat="44.84291" lon="6.04374">
        <ele>1693.98</ele>
        <time>2020-05-26T12:46:48Z</time>
      </trkpt>
      <trkpt lat="44.84298" lon="6.0437">
        <ele>1694.46</ele>
        <time>2020-05-26T12:47:17Z</time>
      </trkpt>
      <trkpt lat="44.84296" lon="6.04364">
        <ele>1694.94</ele>
        <time>2020-05-26T12:47:41Z</time>
      </trkpt>
      <trkpt lat="44.84306" lon="6.04358">
        <ele>1693.98</ele>
        <time>2020-05-26T12:47:58Z</time>
      </trkpt>
      <trkpt lat="44.84328" lon="6.04352">
        <ele>1691.1</ele>
        <time>2020-05-26T12:48:19Z</time>
      </trkpt>
      <trkpt lat="44.84343" lon="6.04339">
        <ele>1689.65</ele>
        <time>2020-05-26T12:48:37Z</time>
      </trkpt>
      <trkpt lat="44.84355" lon="6.04334">
        <ele>1689.17</ele>
        <time>2020-05-26T12:48:52Z</time>
      </trkpt>
      <trkpt lat="44.84371" lon="6.04324">
        <ele>1688.69</ele>
        <time>2020-05-26T12:49:12Z</time>
      </trkpt>
      <trkpt lat="44.844" lon="6.04315">
        <ele>1687.73</ele>
        <time>2020-05-26T12:49:32Z</time>
      </trkpt>
      <trkpt lat="44.84415" lon="6.04317">
        <ele>1685.81</ele>
        <time>2020-05-26T12:49:49Z</time>
      </trkpt>
      <trkpt lat="44.84427" lon="6.04316">
        <ele>1685.33</ele>
        <time>2020-05-26T12:50:06Z</time>
      </trkpt>
      <trkpt lat="44.84446" lon="6.04319">
        <ele>1683.41</ele>
        <time>2020-05-26T12:50:24Z</time>
      </trkpt>
      <trkpt lat="44.84466" lon="6.04317">
        <ele>1681.48</ele>
        <time>2020-05-26T12:50:43Z</time>
      </trkpt>
      <trkpt lat="44.84478" lon="6.04313">
        <ele>1681</ele>
        <time>2020-05-26T12:50:57Z</time>
      </trkpt>
      <trkpt lat="44.84491" lon="6.04309">
        <ele>1681</ele>
        <time>2020-05-26T12:51:14Z</time>
      </trkpt>
      <trkpt lat="44.84512" lon="6.04307">
        <ele>1679.56</ele>
        <time>2020-05-26T12:51:33Z</time>
      </trkpt>
      <trkpt lat="44.84534" lon="6.04295">
        <ele>1678.6</ele>
        <time>2020-05-26T12:51:52Z</time>
      </trkpt>
      <trkpt lat="44.84547" lon="6.04278">
        <ele>1678.12</ele>
        <time>2020-05-26T12:52:12Z</time>
      </trkpt>
      <trkpt lat="44.84556" lon="6.04273">
        <ele>1677.64</ele>
        <time>2020-05-26T12:52:27Z</time>
      </trkpt>
      <trkpt lat="44.84578" lon="6.04266">
        <ele>1677.64</ele>
        <time>2020-05-26T12:52:47Z</time>
      </trkpt>
      <trkpt lat="44.84599" lon="6.04256">
        <ele>1675.72</ele>
        <time>2020-05-26T12:53:06Z</time>
      </trkpt>
      <trkpt lat="44.84614" lon="6.0425">
        <ele>1674.75</ele>
        <time>2020-05-26T12:53:22Z</time>
      </trkpt>
      <trkpt lat="44.84627" lon="6.0424">
        <ele>1672.83</ele>
        <time>2020-05-26T12:53:37Z</time>
      </trkpt>
      <trkpt lat="44.84641" lon="6.04235">
        <ele>1670.91</ele>
        <time>2020-05-26T12:53:58Z</time>
      </trkpt>
      <trkpt lat="44.84661" lon="6.04227">
        <ele>1668.99</ele>
        <time>2020-05-26T12:54:15Z</time>
      </trkpt>
      <trkpt lat="44.84671" lon="6.04219">
        <ele>1667.54</ele>
        <time>2020-05-26T12:54:31Z</time>
      </trkpt>
      <trkpt lat="44.84697" lon="6.0421">
        <ele>1665.62</ele>
        <time>2020-05-26T12:54:52Z</time>
      </trkpt>
      <trkpt lat="44.84714" lon="6.04202">
        <ele>1664.18</ele>
        <time>2020-05-26T12:55:11Z</time>
      </trkpt>
      <trkpt lat="44.84729" lon="6.04188">
        <ele>1663.22</ele>
        <time>2020-05-26T12:55:26Z</time>
      </trkpt>
      <trkpt lat="44.84737" lon="6.04181">
        <ele>1661.78</ele>
        <time>2020-05-26T12:55:43Z</time>
      </trkpt>
      <trkpt lat="44.84752" lon="6.04193">
        <ele>1660.81</ele>
        <time>2020-05-26T12:56:01Z</time>
      </trkpt>
      <trkpt lat="44.84769" lon="6.04199">
        <ele>1659.85</ele>
        <time>2020-05-26T12:56:18Z</time>
      </trkpt>
      <trkpt lat="44.84788" lon="6.04199">
        <ele>1657.93</ele>
        <time>2020-05-26T12:56:38Z</time>
      </trkpt>
      <trkpt lat="44.8481" lon="6.04193">
        <ele>1656.01</ele>
        <time>2020-05-26T12:56:55Z</time>
      </trkpt>
      <trkpt lat="44.84825" lon="6.04195">
        <ele>1653.6</ele>
        <time>2020-05-26T12:57:11Z</time>
      </trkpt>
      <trkpt lat="44.84835" lon="6.04195">
        <ele>1651.2</ele>
        <time>2020-05-26T12:57:31Z</time>
      </trkpt>
      <trkpt lat="44.84847" lon="6.0419">
        <ele>1651.2</ele>
        <time>2020-05-26T12:57:44Z</time>
      </trkpt>
      <trkpt lat="44.84867" lon="6.04186">
        <ele>1650.24</ele>
        <time>2020-05-26T12:58:01Z</time>
      </trkpt>
      <trkpt lat="44.84883" lon="6.04184">
        <ele>1647.36</ele>
        <time>2020-05-26T12:58:20Z</time>
      </trkpt>
      <trkpt lat="44.84892" lon="6.04183">
        <ele>1643.99</ele>
        <time>2020-05-26T12:58:36Z</time>
      </trkpt>
      <trkpt lat="44.84902" lon="6.04174">
        <ele>1641.59</ele>
        <time>2020-05-26T12:58:52Z</time>
      </trkpt>
      <trkpt lat="44.84914" lon="6.04174">
        <ele>1638.22</ele>
        <time>2020-05-26T12:59:09Z</time>
      </trkpt>
      <trkpt lat="44.84927" lon="6.04177">
        <ele>1635.34</ele>
        <time>2020-05-26T12:59:28Z</time>
      </trkpt>
      <trkpt lat="44.8494" lon="6.04177">
        <ele>1632.46</ele>
        <time>2020-05-26T12:59:44Z</time>
      </trkpt>
      <trkpt lat="44.84955" lon="6.04177">
        <ele>1630.05</ele>
        <time>2020-05-26T13:00:00Z</time>
      </trkpt>
      <trkpt lat="44.84973" lon="6.04178">
        <ele>1628.13</ele>
        <time>2020-05-26T13:00:18Z</time>
      </trkpt>
      <trkpt lat="44.8499" lon="6.0417">
        <ele>1626.21</ele>
        <time>2020-05-26T13:00:35Z</time>
      </trkpt>
      <trkpt lat="44.84995" lon="6.04168">
        <ele>1626.21</ele>
        <time>2020-05-26T13:00:59Z</time>
      </trkpt>
      <trkpt lat="44.84998" lon="6.04165">
        <ele>1626.21</ele>
        <time>2020-05-26T13:01:33Z</time>
      </trkpt>
      <trkpt lat="44.85" lon="6.04166">
        <ele>1626.21</ele>
        <time>2020-05-26T13:02:05Z</time>
      </trkpt>
      <trkpt lat="44.85002" lon="6.04161">
        <ele>1625.25</ele>
        <time>2020-05-26T13:02:29Z</time>
      </trkpt>
      <trkpt lat="44.84998" lon="6.04151">
        <ele>1624.28</ele>
        <time>2020-05-26T13:02:48Z</time>
      </trkpt>
      <trkpt lat="44.84999" lon="6.04145">
        <ele>1623.32</ele>
        <time>2020-05-26T13:03:11Z</time>
      </trkpt>
      <trkpt lat="44.84998" lon="6.04141">
        <ele>1623.32</ele>
        <time>2020-05-26T13:03:42Z</time>
      </trkpt>
      <trkpt lat="44.85003" lon="6.04133">
        <ele>1622.84</ele>
        <time>2020-05-26T13:04:10Z</time>
      </trkpt>
      <trkpt lat="44.85004" lon="6.04119">
        <ele>1620.44</ele>
        <time>2020-05-26T13:04:24Z</time>
      </trkpt>
      <trkpt lat="44.85009" lon="6.04102">
        <ele>1617.07</ele>
        <time>2020-05-26T13:04:41Z</time>
      </trkpt>
      <trkpt lat="44.85012" lon="6.0408">
        <ele>1616.11</ele>
        <time>2020-05-26T13:04:56Z</time>
      </trkpt>
      <trkpt lat="44.85023" lon="6.0406">
        <ele>1612.27</ele>
        <time>2020-05-26T13:05:13Z</time>
      </trkpt>
      <trkpt lat="44.85024" lon="6.04041">
        <ele>1610.83</ele>
        <time>2020-05-26T13:05:30Z</time>
      </trkpt>
      <trkpt lat="44.85025" lon="6.04017">
        <ele>1607.46</ele>
        <time>2020-05-26T13:05:45Z</time>
      </trkpt>
      <trkpt lat="44.85027" lon="6.04005">
        <ele>1605.54</ele>
        <time>2020-05-26T13:05:57Z</time>
      </trkpt>
      <trkpt lat="44.85028" lon="6.04002">
        <ele>1604.1</ele>
        <time>2020-05-26T13:06:00Z</time>
      </trkpt>
      <trkpt lat="44.85041" lon="6.03989">
        <ele>1602.17</ele>
        <time>2020-05-26T13:06:18Z</time>
      </trkpt>
      <trkpt lat="44.85053" lon="6.03977">
        <ele>1600.25</ele>
        <time>2020-05-26T13:06:34Z</time>
      </trkpt>
      <trkpt lat="44.85071" lon="6.03966">
        <ele>1599.77</ele>
        <time>2020-05-26T13:06:51Z</time>
      </trkpt>
      <trkpt lat="44.85094" lon="6.03954">
        <ele>1597.85</ele>
        <time>2020-05-26T13:07:10Z</time>
      </trkpt>
      <trkpt lat="44.85098" lon="6.03937">
        <ele>1595.93</ele>
        <time>2020-05-26T13:07:25Z</time>
      </trkpt>
      <trkpt lat="44.85098" lon="6.03927">
        <ele>1594.48</ele>
        <time>2020-05-26T13:07:33Z</time>
      </trkpt>
      <trkpt lat="44.85097" lon="6.03914">
        <ele>1592.56</ele>
        <time>2020-05-26T13:07:47Z</time>
      </trkpt>
      <trkpt lat="44.85097" lon="6.03909">
        <ele>1594</ele>
        <time>2020-05-26T13:07:56Z</time>
      </trkpt>
      <trkpt lat="44.85098" lon="6.03899">
        <ele>1597.37</ele>
        <time>2020-05-26T13:08:13Z</time>
      </trkpt>
      <trkpt lat="44.8511" lon="6.03887">
        <ele>1598.81</ele>
        <time>2020-05-26T13:08:35Z</time>
      </trkpt>
      <trkpt lat="44.85112" lon="6.03881">
        <ele>1599.77</ele>
        <time>2020-05-26T13:08:59Z</time>
      </trkpt>
      <trkpt lat="44.85114" lon="6.03875">
        <ele>1600.73</ele>
        <time>2020-05-26T13:09:08Z</time>
      </trkpt>
      <trkpt lat="44.85111" lon="6.03863">
        <ele>1600.73</ele>
        <time>2020-05-26T13:09:27Z</time>
      </trkpt>
      <trkpt lat="44.85112" lon="6.03854">
        <ele>1602.66</ele>
        <time>2020-05-26T13:09:43Z</time>
      </trkpt>
      <trkpt lat="44.85114" lon="6.03847">
        <ele>1604.1</ele>
        <time>2020-05-26T13:10:02Z</time>
      </trkpt>
      <trkpt lat="44.85115" lon="6.03845">
        <ele>1604.58</ele>
        <time>2020-05-26T13:10:26Z</time>
      </trkpt>
      <trkpt lat="44.85119" lon="6.03846">
        <ele>1603.14</ele>
        <time>2020-05-26T13:10:44Z</time>
      </trkpt>
      <trkpt lat="44.85125" lon="6.03855">
        <ele>1601.21</ele>
        <time>2020-05-26T13:11:00Z</time>
      </trkpt>
      <trkpt lat="44.85126" lon="6.03861">
        <ele>1600.25</ele>
        <time>2020-05-26T13:11:13Z</time>
      </trkpt>
      <trkpt lat="44.85127" lon="6.0388">
        <ele>1597.37</ele>
        <time>2020-05-26T13:11:29Z</time>
      </trkpt>
      <trkpt lat="44.8512" lon="6.03891">
        <ele>1595.93</ele>
        <time>2020-05-26T13:11:41Z</time>
      </trkpt>
      <trkpt lat="44.85116" lon="6.03907">
        <ele>1594</ele>
        <time>2020-05-26T13:11:54Z</time>
      </trkpt>
      <trkpt lat="44.85111" lon="6.03911">
        <ele>1591.6</ele>
        <time>2020-05-26T13:12:09Z</time>
      </trkpt>
      <trkpt lat="44.85106" lon="6.03916">
        <ele>1592.56</ele>
        <time>2020-05-26T13:12:22Z</time>
      </trkpt>
      <trkpt lat="44.85109" lon="6.0392">
        <ele>1592.56</ele>
        <time>2020-05-26T13:12:28Z</time>
      </trkpt>
      <trkpt lat="44.85113" lon="6.03922">
        <ele>1591.12</ele>
        <time>2020-05-26T13:12:31Z</time>
      </trkpt>
      <trkpt lat="44.85123" lon="6.03937">
        <ele>1588.24</ele>
        <time>2020-05-26T13:12:47Z</time>
      </trkpt>
      <trkpt lat="44.85128" lon="6.03949">
        <ele>1584.87</ele>
        <time>2020-05-26T13:13:01Z</time>
      </trkpt>
      <trkpt lat="44.85128" lon="6.03963">
        <ele>1581.99</ele>
        <time>2020-05-26T13:13:14Z</time>
      </trkpt>
      <trkpt lat="44.85119" lon="6.03977">
        <ele>1578.62</ele>
        <time>2020-05-26T13:13:25Z</time>
      </trkpt>
      <trkpt lat="44.85112" lon="6.0399">
        <ele>1575.26</ele>
        <time>2020-05-26T13:13:42Z</time>
      </trkpt>
      <trkpt lat="44.85109" lon="6.03999">
        <ele>1572.85</ele>
        <time>2020-05-26T13:13:56Z</time>
      </trkpt>
      <trkpt lat="44.85106" lon="6.04007">
        <ele>1570.45</ele>
        <time>2020-05-26T13:14:11Z</time>
      </trkpt>
      <trkpt lat="44.85111" lon="6.04004">
        <ele>1568.53</ele>
        <time>2020-05-26T13:14:28Z</time>
      </trkpt>
      <trkpt lat="44.85111" lon="6.04002">
        <ele>1568.05</ele>
        <time>2020-05-26T13:14:32Z</time>
      </trkpt>
      <trkpt lat="44.85114" lon="6.04006">
        <ele>1566.61</ele>
        <time>2020-05-26T13:14:35Z</time>
      </trkpt>
      <trkpt lat="44.85124" lon="6.04007">
        <ele>1562.76</ele>
        <time>2020-05-26T13:14:48Z</time>
      </trkpt>
      <trkpt lat="44.85142" lon="6.04009">
        <ele>1559.88</ele>
        <time>2020-05-26T13:15:04Z</time>
      </trkpt>
      <trkpt lat="44.85147" lon="6.04008">
        <ele>1557.95</ele>
        <time>2020-05-26T13:15:09Z</time>
      </trkpt>
      <trkpt lat="44.85157" lon="6.04008">
        <ele>1555.55</ele>
        <time>2020-05-26T13:15:24Z</time>
      </trkpt>
      <trkpt lat="44.85162" lon="6.04">
        <ele>1552.67</ele>
        <time>2020-05-26T13:15:36Z</time>
      </trkpt>
      <trkpt lat="44.85166" lon="6.03987">
        <ele>1549.3</ele>
        <time>2020-05-26T13:15:50Z</time>
      </trkpt>
      <trkpt lat="44.85169" lon="6.03974">
        <ele>1546.42</ele>
        <time>2020-05-26T13:16:06Z</time>
      </trkpt>
      <trkpt lat="44.85176" lon="6.03984">
        <ele>1544.01</ele>
        <time>2020-05-26T13:16:20Z</time>
      </trkpt>
      <trkpt lat="44.85184" lon="6.03993">
        <ele>1540.65</ele>
        <time>2020-05-26T13:16:37Z</time>
      </trkpt>
      <trkpt lat="44.85192" lon="6.04006">
        <ele>1537.29</ele>
        <time>2020-05-26T13:16:53Z</time>
      </trkpt>
      <trkpt lat="44.85193" lon="6.04026">
        <ele>1534.4</ele>
        <time>2020-05-26T13:17:09Z</time>
      </trkpt>
      <trkpt lat="44.85187" lon="6.04037">
        <ele>1532</ele>
        <time>2020-05-26T13:17:27Z</time>
      </trkpt>
      <trkpt lat="44.85178" lon="6.04051">
        <ele>1528.63</ele>
        <time>2020-05-26T13:17:41Z</time>
      </trkpt>
      <trkpt lat="44.85182" lon="6.0406">
        <ele>1525.27</ele>
        <time>2020-05-26T13:17:57Z</time>
      </trkpt>
      <trkpt lat="44.85192" lon="6.04064">
        <ele>1521.9</ele>
        <time>2020-05-26T13:18:11Z</time>
      </trkpt>
      <trkpt lat="44.85203" lon="6.04067">
        <ele>1518.54</ele>
        <time>2020-05-26T13:18:26Z</time>
      </trkpt>
      <trkpt lat="44.8521" lon="6.04059">
        <ele>1515.18</ele>
        <time>2020-05-26T13:18:40Z</time>
      </trkpt>
      <trkpt lat="44.85219" lon="6.04047">
        <ele>1511.33</ele>
        <time>2020-05-26T13:18:54Z</time>
      </trkpt>
      <trkpt lat="44.85225" lon="6.0403">
        <ele>1507.97</ele>
        <time>2020-05-26T13:19:10Z</time>
      </trkpt>
      <trkpt lat="44.85227" lon="6.04029">
        <ele>1505.08</ele>
        <time>2020-05-26T13:19:22Z</time>
      </trkpt>
      <trkpt lat="44.85236" lon="6.04037">
        <ele>1503.16</ele>
        <time>2020-05-26T13:19:37Z</time>
      </trkpt>
      <trkpt lat="44.85242" lon="6.04049">
        <ele>1499.79</ele>
        <time>2020-05-26T13:19:51Z</time>
      </trkpt>
      <trkpt lat="44.85251" lon="6.04066">
        <ele>1497.39</ele>
        <time>2020-05-26T13:20:05Z</time>
      </trkpt>
      <trkpt lat="44.85252" lon="6.04068">
        <ele>1497.39</ele>
        <time>2020-05-26T13:20:07Z</time>
      </trkpt>
      <trkpt lat="44.85251" lon="6.04085">
        <ele>1494.03</ele>
        <time>2020-05-26T13:20:22Z</time>
      </trkpt>
      <trkpt lat="44.85248" lon="6.04091">
        <ele>1494.03</ele>
        <time>2020-05-26T13:20:37Z</time>
      </trkpt>
      <trkpt lat="44.85249" lon="6.04106">
        <ele>1491.62</ele>
        <time>2020-05-26T13:20:51Z</time>
      </trkpt>
      <trkpt lat="44.85235" lon="6.04122">
        <ele>1488.74</ele>
        <time>2020-05-26T13:21:05Z</time>
      </trkpt>
      <trkpt lat="44.85222" lon="6.04131">
        <ele>1485.37</ele>
        <time>2020-05-26T13:21:19Z</time>
      </trkpt>
      <trkpt lat="44.85211" lon="6.0414">
        <ele>1482.49</ele>
        <time>2020-05-26T13:21:35Z</time>
      </trkpt>
      <trkpt lat="44.852" lon="6.04147">
        <ele>1479.61</ele>
        <time>2020-05-26T13:21:51Z</time>
      </trkpt>
      <trkpt lat="44.85207" lon="6.04148">
        <ele>1476.24</ele>
        <time>2020-05-26T13:22:04Z</time>
      </trkpt>
      <trkpt lat="44.85215" lon="6.0415">
        <ele>1473.36</ele>
        <time>2020-05-26T13:22:15Z</time>
      </trkpt>
      <trkpt lat="44.85223" lon="6.04157">
        <ele>1469.51</ele>
        <time>2020-05-26T13:22:29Z</time>
      </trkpt>
      <trkpt lat="44.85231" lon="6.04165">
        <ele>1466.63</ele>
        <time>2020-05-26T13:22:40Z</time>
      </trkpt>
      <trkpt lat="44.85242" lon="6.04174">
        <ele>1463.26</ele>
        <time>2020-05-26T13:22:54Z</time>
      </trkpt>
      <trkpt lat="44.85243" lon="6.04174">
        <ele>1462.3</ele>
        <time>2020-05-26T13:22:56Z</time>
      </trkpt>
      <trkpt lat="44.85255" lon="6.04176">
        <ele>1458.94</ele>
        <time>2020-05-26T13:23:10Z</time>
      </trkpt>
      <trkpt lat="44.85263" lon="6.04174">
        <ele>1455.57</ele>
        <time>2020-05-26T13:23:21Z</time>
      </trkpt>
      <trkpt lat="44.85274" lon="6.04171">
        <ele>1452.21</ele>
        <time>2020-05-26T13:23:33Z</time>
      </trkpt>
      <trkpt lat="44.85286" lon="6.04178">
        <ele>1448.84</ele>
        <time>2020-05-26T13:23:47Z</time>
      </trkpt>
      <trkpt lat="44.85296" lon="6.04173">
        <ele>1445.48</ele>
        <time>2020-05-26T13:24:01Z</time>
      </trkpt>
      <trkpt lat="44.85301" lon="6.04168">
        <ele>1444.04</ele>
        <time>2020-05-26T13:24:08Z</time>
      </trkpt>
      <trkpt lat="44.85301" lon="6.04163">
        <ele>1443.08</ele>
        <time>2020-05-26T13:24:12Z</time>
      </trkpt>
      <trkpt lat="44.85309" lon="6.04163">
        <ele>1441.63</ele>
        <time>2020-05-26T13:24:23Z</time>
      </trkpt>
      <trkpt lat="44.85311" lon="6.04168">
        <ele>1440.67</ele>
        <time>2020-05-26T13:24:28Z</time>
      </trkpt>
      <trkpt lat="44.85314" lon="6.0418">
        <ele>1437.31</ele>
        <time>2020-05-26T13:24:42Z</time>
      </trkpt>
      <trkpt lat="44.85321" lon="6.04185">
        <ele>1433.94</ele>
        <time>2020-05-26T13:24:54Z</time>
      </trkpt>
      <trkpt lat="44.85322" lon="6.04174">
        <ele>1430.58</ele>
        <time>2020-05-26T13:25:08Z</time>
      </trkpt>
      <trkpt lat="44.8533" lon="6.04184">
        <ele>1427.7</ele>
        <time>2020-05-26T13:25:21Z</time>
      </trkpt>
      <trkpt lat="44.85341" lon="6.04195">
        <ele>1424.33</ele>
        <time>2020-05-26T13:25:36Z</time>
      </trkpt>
      <trkpt lat="44.85346" lon="6.04211">
        <ele>1420.97</ele>
        <time>2020-05-26T13:25:50Z</time>
      </trkpt>
      <trkpt lat="44.85345" lon="6.04218">
        <ele>1418.08</ele>
        <time>2020-05-26T13:26:03Z</time>
      </trkpt>
      <trkpt lat="44.85347" lon="6.04213">
        <ele>1414.72</ele>
        <time>2020-05-26T13:26:13Z</time>
      </trkpt>
      <trkpt lat="44.8535" lon="6.04208">
        <ele>1411.35</ele>
        <time>2020-05-26T13:26:25Z</time>
      </trkpt>
      <trkpt lat="44.85359" lon="6.0422">
        <ele>1408.95</ele>
        <time>2020-05-26T13:26:40Z</time>
      </trkpt>
      <trkpt lat="44.85361" lon="6.0424">
        <ele>1406.07</ele>
        <time>2020-05-26T13:26:54Z</time>
      </trkpt>
      <trkpt lat="44.85353" lon="6.04258">
        <ele>1402.22</ele>
        <time>2020-05-26T13:27:09Z</time>
      </trkpt>
      <trkpt lat="44.85354" lon="6.04262">
        <ele>1399.34</ele>
        <time>2020-05-26T13:27:24Z</time>
      </trkpt>
      <trkpt lat="44.85363" lon="6.04261">
        <ele>1395.49</ele>
        <time>2020-05-26T13:27:39Z</time>
      </trkpt>
      <trkpt lat="44.85367" lon="6.04258">
        <ele>1394.53</ele>
        <time>2020-05-26T13:27:44Z</time>
      </trkpt>
      <trkpt lat="44.85374" lon="6.04255">
        <ele>1391.17</ele>
        <time>2020-05-26T13:27:56Z</time>
      </trkpt>
      <trkpt lat="44.85379" lon="6.04265">
        <ele>1388.28</ele>
        <time>2020-05-26T13:28:11Z</time>
      </trkpt>
      <trkpt lat="44.85379" lon="6.04278">
        <ele>1384.92</ele>
        <time>2020-05-26T13:28:23Z</time>
      </trkpt>
      <trkpt lat="44.85373" lon="6.04288">
        <ele>1382.03</ele>
        <time>2020-05-26T13:28:36Z</time>
      </trkpt>
      <trkpt lat="44.85367" lon="6.043">
        <ele>1378.67</ele>
        <time>2020-05-26T13:28:50Z</time>
      </trkpt>
      <trkpt lat="44.8536" lon="6.04308">
        <ele>1375.3</ele>
        <time>2020-05-26T13:29:06Z</time>
      </trkpt>
      <trkpt lat="44.85366" lon="6.04308">
        <ele>1371.94</ele>
        <time>2020-05-26T13:29:21Z</time>
      </trkpt>
      <trkpt lat="44.85375" lon="6.04309">
        <ele>1369.05</ele>
        <time>2020-05-26T13:29:34Z</time>
      </trkpt>
      <trkpt lat="44.85389" lon="6.04309">
        <ele>1365.69</ele>
        <time>2020-05-26T13:29:50Z</time>
      </trkpt>
      <trkpt lat="44.85389" lon="6.04319">
        <ele>1362.81</ele>
        <time>2020-05-26T13:30:01Z</time>
      </trkpt>
      <trkpt lat="44.8538" lon="6.04333">
        <ele>1358.96</ele>
        <time>2020-05-26T13:30:15Z</time>
      </trkpt>
      <trkpt lat="44.85372" lon="6.04345">
        <ele>1357.04</ele>
        <time>2020-05-26T13:30:29Z</time>
      </trkpt>
      <trkpt lat="44.85371" lon="6.04359">
        <ele>1355.6</ele>
        <time>2020-05-26T13:30:45Z</time>
      </trkpt>
      <trkpt lat="44.85372" lon="6.04364">
        <ele>1352.23</ele>
        <time>2020-05-26T13:30:57Z</time>
      </trkpt>
      <trkpt lat="44.85374" lon="6.04362">
        <ele>1351.27</ele>
        <time>2020-05-26T13:31:01Z</time>
      </trkpt>
      <trkpt lat="44.85377" lon="6.0436">
        <ele>1350.31</ele>
        <time>2020-05-26T13:31:05Z</time>
      </trkpt>
      <trkpt lat="44.85387" lon="6.04351">
        <ele>1346.94</ele>
        <time>2020-05-26T13:31:19Z</time>
      </trkpt>
      <trkpt lat="44.85399" lon="6.04347">
        <ele>1344.54</ele>
        <time>2020-05-26T13:31:33Z</time>
      </trkpt>
      <trkpt lat="44.85411" lon="6.04345">
        <ele>1341.18</ele>
        <time>2020-05-26T13:31:47Z</time>
      </trkpt>
      <trkpt lat="44.85418" lon="6.04334">
        <ele>1337.81</ele>
        <time>2020-05-26T13:32:01Z</time>
      </trkpt>
      <trkpt lat="44.85427" lon="6.0433">
        <ele>1334.45</ele>
        <time>2020-05-26T13:32:17Z</time>
      </trkpt>
      <trkpt lat="44.85432" lon="6.04337">
        <ele>1331.08</ele>
        <time>2020-05-26T13:32:31Z</time>
      </trkpt>
      <trkpt lat="44.8543" lon="6.04348">
        <ele>1327.24</ele>
        <time>2020-05-26T13:32:44Z</time>
      </trkpt>
      <trkpt lat="44.85435" lon="6.04364">
        <ele>1323.87</ele>
        <time>2020-05-26T13:32:59Z</time>
      </trkpt>
      <trkpt lat="44.85445" lon="6.04373">
        <ele>1321.47</ele>
        <time>2020-05-26T13:33:16Z</time>
      </trkpt>
      <trkpt lat="44.85453" lon="6.04386">
        <ele>1318.59</ele>
        <time>2020-05-26T13:33:29Z</time>
      </trkpt>
      <trkpt lat="44.85458" lon="6.04398">
        <ele>1318.1</ele>
        <time>2020-05-26T13:33:37Z</time>
      </trkpt>
      <trkpt lat="44.85458" lon="6.04414">
        <ele>1314.26</ele>
        <time>2020-05-26T13:33:50Z</time>
      </trkpt>
      <trkpt lat="44.85455" lon="6.04432">
        <ele>1312.34</ele>
        <time>2020-05-26T13:34:05Z</time>
      </trkpt>
      <trkpt lat="44.85454" lon="6.04434">
        <ele>1308.97</ele>
        <time>2020-05-26T13:34:21Z</time>
      </trkpt>
      <trkpt lat="44.85464" lon="6.0443">
        <ele>1305.61</ele>
        <time>2020-05-26T13:34:36Z</time>
      </trkpt>
      <trkpt lat="44.85465" lon="6.04429">
        <ele>1305.13</ele>
        <time>2020-05-26T13:34:38Z</time>
      </trkpt>
      <trkpt lat="44.8548" lon="6.04422">
        <ele>1301.76</ele>
        <time>2020-05-26T13:34:54Z</time>
      </trkpt>
      <trkpt lat="44.85484" lon="6.04411">
        <ele>1298.88</ele>
        <time>2020-05-26T13:35:06Z</time>
      </trkpt>
      <trkpt lat="44.85482" lon="6.044">
        <ele>1296.48</ele>
        <time>2020-05-26T13:35:20Z</time>
      </trkpt>
      <trkpt lat="44.8549" lon="6.04391">
        <ele>1295.03</ele>
        <time>2020-05-26T13:35:31Z</time>
      </trkpt>
      <trkpt lat="44.85495" lon="6.04393">
        <ele>1295.03</ele>
        <time>2020-05-26T13:35:36Z</time>
      </trkpt>
      <trkpt lat="44.85503" lon="6.04402">
        <ele>1295.03</ele>
        <time>2020-05-26T13:35:44Z</time>
      </trkpt>
      <trkpt lat="44.855" lon="6.04416">
        <ele>1293.59</ele>
        <time>2020-05-26T13:35:54Z</time>
      </trkpt>
      <trkpt lat="44.85499" lon="6.04422">
        <ele>1293.11</ele>
        <time>2020-05-26T13:35:58Z</time>
      </trkpt>
      <trkpt lat="44.85488" lon="6.04442">
        <ele>1292.15</ele>
        <time>2020-05-26T13:36:14Z</time>
      </trkpt>
      <trkpt lat="44.85481" lon="6.04455">
        <ele>1292.15</ele>
        <time>2020-05-26T13:36:29Z</time>
      </trkpt>
      <trkpt lat="44.85477" lon="6.04461">
        <ele>1293.11</ele>
        <time>2020-05-26T13:36:37Z</time>
      </trkpt>
      <trkpt lat="44.85475" lon="6.04463">
        <ele>1293.59</ele>
        <time>2020-05-26T13:36:39Z</time>
      </trkpt>
      <trkpt lat="44.8546" lon="6.04468">
        <ele>1293.11</ele>
        <time>2020-05-26T13:36:55Z</time>
      </trkpt>
      <trkpt lat="44.85456" lon="6.0447">
        <ele>1291.19</ele>
        <time>2020-05-26T13:37:08Z</time>
      </trkpt>
      <trkpt lat="44.85449" lon="6.04484">
        <ele>1288.78</ele>
        <time>2020-05-26T13:37:21Z</time>
      </trkpt>
      <trkpt lat="44.85447" lon="6.04496">
        <ele>1284.94</ele>
        <time>2020-05-26T13:37:31Z</time>
      </trkpt>
      <trkpt lat="44.85448" lon="6.04499">
        <ele>1284.46</ele>
        <time>2020-05-26T13:37:33Z</time>
      </trkpt>
      <trkpt lat="44.8545" lon="6.04516">
        <ele>1283.02</ele>
        <time>2020-05-26T13:37:44Z</time>
      </trkpt>
      <trkpt lat="44.85446" lon="6.04531">
        <ele>1281.57</ele>
        <time>2020-05-26T13:37:54Z</time>
      </trkpt>
      <trkpt lat="44.85449" lon="6.04554">
        <ele>1277.73</ele>
        <time>2020-05-26T13:38:07Z</time>
      </trkpt>
      <trkpt lat="44.8545" lon="6.0456">
        <ele>1276.29</ele>
        <time>2020-05-26T13:38:19Z</time>
      </trkpt>
      <trkpt lat="44.85455" lon="6.04572">
        <ele>1275.33</ele>
        <time>2020-05-26T13:38:33Z</time>
      </trkpt>
      <trkpt lat="44.85459" lon="6.0458">
        <ele>1274.85</ele>
        <time>2020-05-26T13:38:47Z</time>
      </trkpt>
      <trkpt lat="44.85461" lon="6.04581">
        <ele>1274.36</ele>
        <time>2020-05-26T13:38:50Z</time>
      </trkpt>
      <trkpt lat="44.85461" lon="6.04579">
        <ele>1273.4</ele>
        <time>2020-05-26T13:39:03Z</time>
      </trkpt>
      <trkpt lat="44.85459" lon="6.04582">
        <ele>1272.92</ele>
        <time>2020-05-26T13:39:28Z</time>
      </trkpt>
      <trkpt lat="44.85459" lon="6.0458">
        <ele>1271.48</ele>
        <time>2020-05-26T13:39:40Z</time>
      </trkpt>
      <trkpt lat="44.8546" lon="6.04575">
        <ele>1271.96</ele>
        <time>2020-05-26T13:40:00Z</time>
      </trkpt>
      <trkpt lat="44.85462" lon="6.04573">
        <ele>1271.96</ele>
        <time>2020-05-26T13:40:11Z</time>
      </trkpt>
      <trkpt lat="44.85466" lon="6.0457">
        <ele>1271.48</ele>
        <time>2020-05-26T13:40:15Z</time>
      </trkpt>
      <trkpt lat="44.85468" lon="6.0457">
        <ele>1271.48</ele>
        <time>2020-05-26T13:40:18Z</time>
      </trkpt>
      <trkpt lat="44.85471" lon="6.04565">
        <ele>1271.48</ele>
        <time>2020-05-26T13:40:21Z</time>
      </trkpt>
      <trkpt lat="44.85486" lon="6.04555">
        <ele>1270.04</ele>
        <time>2020-05-26T13:40:38Z</time>
      </trkpt>
      <trkpt lat="44.85493" lon="6.04554">
        <ele>1269.08</ele>
        <time>2020-05-26T13:40:45Z</time>
      </trkpt>
      <trkpt lat="44.85511" lon="6.0456">
        <ele>1267.64</ele>
        <time>2020-05-26T13:40:59Z</time>
      </trkpt>
      <trkpt lat="44.85514" lon="6.04561">
        <ele>1267.16</ele>
        <time>2020-05-26T13:41:02Z</time>
      </trkpt>
      <trkpt lat="44.85521" lon="6.04564">
        <ele>1267.16</ele>
        <time>2020-05-26T13:41:07Z</time>
      </trkpt>
      <trkpt lat="44.85543" lon="6.04581">
        <ele>1264.27</ele>
        <time>2020-05-26T13:41:22Z</time>
      </trkpt>
      <trkpt lat="44.85558" lon="6.04585">
        <ele>1262.35</ele>
        <time>2020-05-26T13:41:37Z</time>
      </trkpt>
      <trkpt lat="44.85558" lon="6.04585">
        <ele>1261.39</ele>
        <time>2020-05-26T13:41:38Z</time>
      </trkpt>
      <trkpt lat="44.85569" lon="6.04585">
        <ele>1260.91</ele>
        <time>2020-05-26T13:41:49Z</time>
      </trkpt>
      <trkpt lat="44.85589" lon="6.04586">
        <ele>1257.54</ele>
        <time>2020-05-26T13:42:05Z</time>
      </trkpt>
      <trkpt lat="44.85594" lon="6.04585">
        <ele>1256.58</ele>
        <time>2020-05-26T13:42:10Z</time>
      </trkpt>
      <trkpt lat="44.85598" lon="6.04584">
        <ele>1255.62</ele>
        <time>2020-05-26T13:42:14Z</time>
      </trkpt>
      <trkpt lat="44.8561" lon="6.04575">
        <ele>1252.25</ele>
        <time>2020-05-26T13:42:29Z</time>
      </trkpt>
      <trkpt lat="44.85618" lon="6.04572">
        <ele>1248.41</ele>
        <time>2020-05-26T13:42:41Z</time>
      </trkpt>
      <trkpt lat="44.85634" lon="6.04568">
        <ele>1245.04</ele>
        <time>2020-05-26T13:42:52Z</time>
      </trkpt>
      <trkpt lat="44.85636" lon="6.04569">
        <ele>1245.04</ele>
        <time>2020-05-26T13:42:53Z</time>
      </trkpt>
      <trkpt lat="44.85644" lon="6.04564">
        <ele>1241.68</ele>
        <time>2020-05-26T13:43:05Z</time>
      </trkpt>
      <trkpt lat="44.85654" lon="6.04564">
        <ele>1238.32</ele>
        <time>2020-05-26T13:43:17Z</time>
      </trkpt>
      <trkpt lat="44.85657" lon="6.04562">
        <ele>1237.35</ele>
        <time>2020-05-26T13:43:21Z</time>
      </trkpt>
      <trkpt lat="44.8567" lon="6.04559">
        <ele>1233.51</ele>
        <time>2020-05-26T13:43:33Z</time>
      </trkpt>
      <trkpt lat="44.85684" lon="6.04558">
        <ele>1230.14</ele>
        <time>2020-05-26T13:43:45Z</time>
      </trkpt>
      <trkpt lat="44.85696" lon="6.04554">
        <ele>1226.78</ele>
        <time>2020-05-26T13:43:57Z</time>
      </trkpt>
      <trkpt lat="44.85698" lon="6.04553">
        <ele>1223.9</ele>
        <time>2020-05-26T13:44:12Z</time>
      </trkpt>
      <trkpt lat="44.85695" lon="6.04539">
        <ele>1220.53</ele>
        <time>2020-05-26T13:44:27Z</time>
      </trkpt>
      <trkpt lat="44.85704" lon="6.0453">
        <ele>1217.17</ele>
        <time>2020-05-26T13:44:38Z</time>
      </trkpt>
      <trkpt lat="44.85704" lon="6.04527">
        <ele>1214.28</ele>
        <time>2020-05-26T13:44:49Z</time>
      </trkpt>
      <trkpt lat="44.85708" lon="6.04525">
        <ele>1210.92</ele>
        <time>2020-05-26T13:45:01Z</time>
      </trkpt>
      <trkpt lat="44.85708" lon="6.04515">
        <ele>1207.55</ele>
        <time>2020-05-26T13:45:14Z</time>
      </trkpt>
      <trkpt lat="44.85708" lon="6.04515">
        <ele>1207.55</ele>
        <time>2020-05-26T13:45:15Z</time>
      </trkpt>
      <trkpt lat="44.85709" lon="6.04502">
        <ele>1204.67</ele>
        <time>2020-05-26T13:45:30Z</time>
      </trkpt>
      <trkpt lat="44.85718" lon="6.04499">
        <ele>1201.79</ele>
        <time>2020-05-26T13:45:42Z</time>
      </trkpt>
      <trkpt lat="44.85724" lon="6.04502">
        <ele>1198.42</ele>
        <time>2020-05-26T13:45:51Z</time>
      </trkpt>
      <trkpt lat="44.85726" lon="6.04497">
        <ele>1196.02</ele>
        <time>2020-05-26T13:46:01Z</time>
      </trkpt>
      <trkpt lat="44.85732" lon="6.04489">
        <ele>1194.09</ele>
        <time>2020-05-26T13:46:13Z</time>
      </trkpt>
      <trkpt lat="44.85737" lon="6.04484">
        <ele>1190.73</ele>
        <time>2020-05-26T13:46:23Z</time>
      </trkpt>
      <trkpt lat="44.85749" lon="6.04491">
        <ele>1187.85</ele>
        <time>2020-05-26T13:46:38Z</time>
      </trkpt>
      <trkpt lat="44.8575" lon="6.04492">
        <ele>1187.37</ele>
        <time>2020-05-26T13:46:39Z</time>
      </trkpt>
      <trkpt lat="44.85756" lon="6.04502">
        <ele>1184.48</ele>
        <time>2020-05-26T13:46:53Z</time>
      </trkpt>
      <trkpt lat="44.85762" lon="6.04494">
        <ele>1182.56</ele>
        <time>2020-05-26T13:47:08Z</time>
      </trkpt>
      <trkpt lat="44.85767" lon="6.04497">
        <ele>1180.64</ele>
        <time>2020-05-26T13:47:14Z</time>
      </trkpt>
      <trkpt lat="44.85775" lon="6.04503">
        <ele>1176.79</ele>
        <time>2020-05-26T13:47:28Z</time>
      </trkpt>
      <trkpt lat="44.85785" lon="6.04507">
        <ele>1174.39</ele>
        <time>2020-05-26T13:47:43Z</time>
      </trkpt>
      <trkpt lat="44.85795" lon="6.04511">
        <ele>1171.02</ele>
        <time>2020-05-26T13:47:56Z</time>
      </trkpt>
      <trkpt lat="44.85799" lon="6.04519">
        <ele>1168.14</ele>
        <time>2020-05-26T13:48:08Z</time>
      </trkpt>
      <trkpt lat="44.858" lon="6.04519">
        <ele>1166.7</ele>
        <time>2020-05-26T13:48:12Z</time>
      </trkpt>
      <trkpt lat="44.85809" lon="6.04525">
        <ele>1163.33</ele>
        <time>2020-05-26T13:48:22Z</time>
      </trkpt>
      <trkpt lat="44.85812" lon="6.04529">
        <ele>1163.33</ele>
        <time>2020-05-26T13:48:25Z</time>
      </trkpt>
      <trkpt lat="44.85817" lon="6.04543">
        <ele>1160.45</ele>
        <time>2020-05-26T13:48:41Z</time>
      </trkpt>
      <trkpt lat="44.85823" lon="6.04549">
        <ele>1156.6</ele>
        <time>2020-05-26T13:48:53Z</time>
      </trkpt>
      <trkpt lat="44.85824" lon="6.04548">
        <ele>1153.24</ele>
        <time>2020-05-26T13:49:04Z</time>
      </trkpt>
      <trkpt lat="44.85825" lon="6.04543">
        <ele>1151.32</ele>
        <time>2020-05-26T13:49:09Z</time>
      </trkpt>
      <trkpt lat="44.85833" lon="6.04537">
        <ele>1149.39</ele>
        <time>2020-05-26T13:49:24Z</time>
      </trkpt>
      <trkpt lat="44.85839" lon="6.0453">
        <ele>1146.03</ele>
        <time>2020-05-26T13:49:35Z</time>
      </trkpt>
      <trkpt lat="44.85844" lon="6.04518">
        <ele>1143.63</ele>
        <time>2020-05-26T13:49:48Z</time>
      </trkpt>
      <trkpt lat="44.8585" lon="6.04518">
        <ele>1141.7</ele>
        <time>2020-05-26T13:50:07Z</time>
      </trkpt>
      <trkpt lat="44.8585" lon="6.0452">
        <ele>1141.22</ele>
        <time>2020-05-26T13:50:09Z</time>
      </trkpt>
      <trkpt lat="44.85854" lon="6.04537">
        <ele>1137.38</ele>
        <time>2020-05-26T13:50:23Z</time>
      </trkpt>
      <trkpt lat="44.85858" lon="6.04546">
        <ele>1135.45</ele>
        <time>2020-05-26T13:50:31Z</time>
      </trkpt>
      <trkpt lat="44.85864" lon="6.04559">
        <ele>1132.09</ele>
        <time>2020-05-26T13:50:42Z</time>
      </trkpt>
      <trkpt lat="44.85871" lon="6.04565">
        <ele>1129.21</ele>
        <time>2020-05-26T13:50:54Z</time>
      </trkpt>
      <trkpt lat="44.85879" lon="6.0457">
        <ele>1125.84</ele>
        <time>2020-05-26T13:51:09Z</time>
      </trkpt>
      <trkpt lat="44.85889" lon="6.04584">
        <ele>1122.48</ele>
        <time>2020-05-26T13:51:21Z</time>
      </trkpt>
      <trkpt lat="44.859" lon="6.04598">
        <ele>1119.59</ele>
        <time>2020-05-26T13:51:36Z</time>
      </trkpt>
      <trkpt lat="44.85906" lon="6.046">
        <ele>1117.19</ele>
        <time>2020-05-26T13:51:49Z</time>
      </trkpt>
      <trkpt lat="44.85906" lon="6.04594">
        <ele>1115.75</ele>
        <time>2020-05-26T13:52:05Z</time>
      </trkpt>
      <trkpt lat="44.85909" lon="6.04598">
        <ele>1114.79</ele>
        <time>2020-05-26T13:52:28Z</time>
      </trkpt>
      <trkpt lat="44.8591" lon="6.04591">
        <ele>1112.86</ele>
        <time>2020-05-26T13:52:42Z</time>
      </trkpt>
      <trkpt lat="44.85916" lon="6.04592">
        <ele>1112.86</ele>
        <time>2020-05-26T13:52:56Z</time>
      </trkpt>
      <trkpt lat="44.85919" lon="6.046">
        <ele>1110.94</ele>
        <time>2020-05-26T13:53:10Z</time>
      </trkpt>
      <trkpt lat="44.85927" lon="6.04602">
        <ele>1108.06</ele>
        <time>2020-05-26T13:53:22Z</time>
      </trkpt>
      <trkpt lat="44.85936" lon="6.04609">
        <ele>1105.17</ele>
        <time>2020-05-26T13:53:35Z</time>
      </trkpt>
      <trkpt lat="44.85948" lon="6.04618">
        <ele>1101.81</ele>
        <time>2020-05-26T13:53:47Z</time>
      </trkpt>
      <trkpt lat="44.85961" lon="6.04621">
        <ele>1100.37</ele>
        <time>2020-05-26T13:53:59Z</time>
      </trkpt>
      <trkpt lat="44.8597" lon="6.0462">
        <ele>1097</ele>
        <time>2020-05-26T13:54:11Z</time>
      </trkpt>
      <trkpt lat="44.85983" lon="6.04619">
        <ele>1094.6</ele>
        <time>2020-05-26T13:54:24Z</time>
      </trkpt>
      <trkpt lat="44.85995" lon="6.04614">
        <ele>1091.23</ele>
        <time>2020-05-26T13:54:38Z</time>
      </trkpt>
      <trkpt lat="44.86009" lon="6.04613">
        <ele>1088.35</ele>
        <time>2020-05-26T13:54:53Z</time>
      </trkpt>
      <trkpt lat="44.86017" lon="6.04611">
        <ele>1087.39</ele>
        <time>2020-05-26T13:55:02Z</time>
      </trkpt>
      <trkpt lat="44.86025" lon="6.04615">
        <ele>1085.95</ele>
        <time>2020-05-26T13:55:11Z</time>
      </trkpt>
      <trkpt lat="44.86034" lon="6.04625">
        <ele>1084.02</ele>
        <time>2020-05-26T13:55:20Z</time>
      </trkpt>
      <trkpt lat="44.86048" lon="6.04652">
        <ele>1080.66</ele>
        <time>2020-05-26T13:55:34Z</time>
      </trkpt>
      <trkpt lat="44.8606" lon="6.04675">
        <ele>1078.74</ele>
        <time>2020-05-26T13:55:50Z</time>
      </trkpt>
      <trkpt lat="44.86065" lon="6.04677">
        <ele>1077.78</ele>
        <time>2020-05-26T13:56:08Z</time>
      </trkpt>
      <trkpt lat="44.86076" lon="6.04685">
        <ele>1076.33</ele>
        <time>2020-05-26T13:56:25Z</time>
      </trkpt>
      <trkpt lat="44.86075" lon="6.04707">
        <ele>1074.89</ele>
        <time>2020-05-26T13:56:39Z</time>
      </trkpt>
      <trkpt lat="44.86074" lon="6.04709">
        <ele>1074.89</ele>
        <time>2020-05-26T13:56:41Z</time>
      </trkpt>
      <trkpt lat="44.86064" lon="6.04729">
        <ele>1073.45</ele>
        <time>2020-05-26T13:56:56Z</time>
      </trkpt>
      <trkpt lat="44.86059" lon="6.04743">
        <ele>1074.89</ele>
        <time>2020-05-26T13:57:05Z</time>
      </trkpt>
      <trkpt lat="44.86057" lon="6.04748">
        <ele>1075.37</ele>
        <time>2020-05-26T13:57:08Z</time>
      </trkpt>
      <trkpt lat="44.86055" lon="6.04751">
        <ele>1075.37</ele>
        <time>2020-05-26T13:57:11Z</time>
      </trkpt>
      <trkpt lat="44.86054" lon="6.04754">
        <ele>1073.93</ele>
        <time>2020-05-26T13:57:13Z</time>
      </trkpt>
      <trkpt lat="44.86046" lon="6.04781">
        <ele>1073.45</ele>
        <time>2020-05-26T13:57:30Z</time>
      </trkpt>
      <trkpt lat="44.86038" lon="6.04803">
        <ele>1074.41</ele>
        <time>2020-05-26T13:57:46Z</time>
      </trkpt>
      <trkpt lat="44.8603" lon="6.04826">
        <ele>1074.41</ele>
        <time>2020-05-26T13:58:01Z</time>
      </trkpt>
      <trkpt lat="44.86019" lon="6.04851">
        <ele>1075.85</ele>
        <time>2020-05-26T13:58:18Z</time>
      </trkpt>
      <trkpt lat="44.86013" lon="6.04871">
        <ele>1075.37</ele>
        <time>2020-05-26T13:58:31Z</time>
      </trkpt>
      <trkpt lat="44.85998" lon="6.04886">
        <ele>1076.33</ele>
        <time>2020-05-26T13:58:47Z</time>
      </trkpt>
      <trkpt lat="44.8599" lon="6.04888">
        <ele>1075.85</ele>
        <time>2020-05-26T13:59:01Z</time>
      </trkpt>
      <trkpt lat="44.85988" lon="6.04888">
        <ele>1075.85</ele>
        <time>2020-05-26T13:59:19Z</time>
      </trkpt>
      <trkpt lat="44.85988" lon="6.0489">
        <ele>1075.85</ele>
        <time>2020-05-26T13:59:38Z</time>
      </trkpt>
      <trkpt lat="44.85987" lon="6.0489">
        <ele>1075.85</ele>
        <time>2020-05-26T13:59:57Z</time>
      </trkpt>
      <trkpt lat="44.85987" lon="6.04888">
        <ele>1075.85</ele>
        <time>2020-05-26T14:00:22Z</time>
      </trkpt>
      <trkpt lat="44.8599" lon="6.04891">
        <ele>1075.37</ele>
        <time>2020-05-26T14:00:50Z</time>
      </trkpt>
      <trkpt lat="44.8599" lon="6.04889">
        <ele>1073.93</ele>
        <time>2020-05-26T14:00:57Z</time>
      </trkpt>
      <trkpt lat="44.8599" lon="6.04887">
        <ele>1075.37</ele>
        <time>2020-05-26T14:01:03Z</time>
      </trkpt>
      <trkpt lat="44.85991" lon="6.04884">
        <ele>1074.89</ele>
        <time>2020-05-26T14:01:23Z</time>
      </trkpt>
    </trkseg>
  </trk>
</gpx>